<?xml version="1.0" encoding="UTF-8" standalone="no" ?>
<gpx xmlns="http://www.topografix.com/GPX/1/1" xmlns:xsi="http://www.w3.org/2001/XMLSchema-instance" xsi:schemaLocation="http://www.topografix.com/GPX/1/1 http://www.topografix.com/GPX/1/1/gpx.xsd" version="1.1" creator="VisuGPX - https://www.visugpx.com">
  <metadata>
    <name>asptt Argentan : Batilly</name>
    <desc><![CDATA[Le haut du chateau]]></desc>
  </metadata>
  <trk>
    <name><![CDATA[2010-08-29-01]]></name>
    <trkseg>
      <trkpt lat="48.71981" lon="-0.18389">
        <ele>129.2</ele>
        <time>2010-08-29T06:02:07Z</time>
      </trkpt>
      <trkpt lat="48.71981" lon="-0.18389">
        <ele>129.2</ele>
        <time>2010-08-29T06:02:08Z</time>
      </trkpt>
      <trkpt lat="48.71982" lon="-0.18388">
        <ele>130.8</ele>
        <time>2010-08-29T06:02:17Z</time>
      </trkpt>
      <trkpt lat="48.71987" lon="-0.18383">
        <ele>135.3</ele>
        <time>2010-08-29T06:02:22Z</time>
      </trkpt>
      <trkpt lat="48.71993" lon="-0.18379">
        <ele>140.6</ele>
        <time>2010-08-29T06:02:27Z</time>
      </trkpt>
      <trkpt lat="48.71999" lon="-0.1838">
        <ele>144.1</ele>
        <time>2010-08-29T06:02:32Z</time>
      </trkpt>
      <trkpt lat="48.72006" lon="-0.18384">
        <ele>146.3</ele>
        <time>2010-08-29T06:02:37Z</time>
      </trkpt>
      <trkpt lat="48.72012" lon="-0.18388">
        <ele>149.6</ele>
        <time>2010-08-29T06:02:42Z</time>
      </trkpt>
      <trkpt lat="48.72019" lon="-0.18398">
        <ele>154.1</ele>
        <time>2010-08-29T06:02:47Z</time>
      </trkpt>
      <trkpt lat="48.72025" lon="-0.18403">
        <ele>157.3</ele>
        <time>2010-08-29T06:02:52Z</time>
      </trkpt>
      <trkpt lat="48.72027" lon="-0.18409">
        <ele>161.3</ele>
        <time>2010-08-29T06:02:57Z</time>
      </trkpt>
      <trkpt lat="48.72033" lon="-0.18412">
        <ele>164.1</ele>
        <time>2010-08-29T06:03:02Z</time>
      </trkpt>
      <trkpt lat="48.72038" lon="-0.18417">
        <ele>166.1</ele>
        <time>2010-08-29T06:03:07Z</time>
      </trkpt>
      <trkpt lat="48.72044" lon="-0.1842">
        <ele>167.1</ele>
        <time>2010-08-29T06:03:12Z</time>
      </trkpt>
      <trkpt lat="48.72045" lon="-0.18421">
        <ele>167.6</ele>
        <time>2010-08-29T06:03:13Z</time>
      </trkpt>
      <trkpt lat="48.72057" lon="-0.18429">
        <ele>170.3</ele>
        <time>2010-08-29T06:03:22Z</time>
      </trkpt>
      <trkpt lat="48.72063" lon="-0.18435">
        <ele>171</ele>
        <time>2010-08-29T06:03:27Z</time>
      </trkpt>
      <trkpt lat="48.72069" lon="-0.18437">
        <ele>171.6</ele>
        <time>2010-08-29T06:03:32Z</time>
      </trkpt>
      <trkpt lat="48.72077" lon="-0.18431">
        <ele>172.1</ele>
        <time>2010-08-29T06:03:37Z</time>
      </trkpt>
      <trkpt lat="48.72082" lon="-0.18427">
        <ele>172.6</ele>
        <time>2010-08-29T06:03:42Z</time>
      </trkpt>
      <trkpt lat="48.72087" lon="-0.18419">
        <ele>173.1</ele>
        <time>2010-08-29T06:03:47Z</time>
      </trkpt>
      <trkpt lat="48.72093" lon="-0.18414">
        <ele>173.8</ele>
        <time>2010-08-29T06:03:52Z</time>
      </trkpt>
      <trkpt lat="48.72099" lon="-0.1841">
        <ele>174.1</ele>
        <time>2010-08-29T06:03:57Z</time>
      </trkpt>
      <trkpt lat="48.72105" lon="-0.18406">
        <ele>174.5</ele>
        <time>2010-08-29T06:04:02Z</time>
      </trkpt>
      <trkpt lat="48.72112" lon="-0.18399">
        <ele>174.8</ele>
        <time>2010-08-29T06:04:07Z</time>
      </trkpt>
      <trkpt lat="48.72116" lon="-0.18392">
        <ele>175</ele>
        <time>2010-08-29T06:04:12Z</time>
      </trkpt>
      <trkpt lat="48.7212" lon="-0.18386">
        <ele>176</ele>
        <time>2010-08-29T06:04:17Z</time>
      </trkpt>
      <trkpt lat="48.72121" lon="-0.18385">
        <ele>176.1</ele>
        <time>2010-08-29T06:04:18Z</time>
      </trkpt>
      <trkpt lat="48.72128" lon="-0.18371">
        <ele>178</ele>
        <time>2010-08-29T06:04:27Z</time>
      </trkpt>
      <trkpt lat="48.72135" lon="-0.18364">
        <ele>179</ele>
        <time>2010-08-29T06:04:32Z</time>
      </trkpt>
      <trkpt lat="48.72138" lon="-0.18361">
        <ele>180.6</ele>
        <time>2010-08-29T06:04:37Z</time>
      </trkpt>
      <trkpt lat="48.72144" lon="-0.18357">
        <ele>182.3</ele>
        <time>2010-08-29T06:04:42Z</time>
      </trkpt>
      <trkpt lat="48.72152" lon="-0.1835">
        <ele>183.6</ele>
        <time>2010-08-29T06:04:47Z</time>
      </trkpt>
      <trkpt lat="48.72159" lon="-0.18344">
        <ele>184.6</ele>
        <time>2010-08-29T06:04:52Z</time>
      </trkpt>
      <trkpt lat="48.72164" lon="-0.18337">
        <ele>185.5</ele>
        <time>2010-08-29T06:04:57Z</time>
      </trkpt>
      <trkpt lat="48.72173" lon="-0.18329">
        <ele>185.3</ele>
        <time>2010-08-29T06:05:02Z</time>
      </trkpt>
      <trkpt lat="48.72178" lon="-0.18324">
        <ele>187.1</ele>
        <time>2010-08-29T06:05:07Z</time>
      </trkpt>
      <trkpt lat="48.72183" lon="-0.18312">
        <ele>186.5</ele>
        <time>2010-08-29T06:05:12Z</time>
      </trkpt>
      <trkpt lat="48.72189" lon="-0.18304">
        <ele>185.8</ele>
        <time>2010-08-29T06:05:17Z</time>
      </trkpt>
      <trkpt lat="48.72194" lon="-0.18298">
        <ele>185.1</ele>
        <time>2010-08-29T06:05:22Z</time>
      </trkpt>
      <trkpt lat="48.72195" lon="-0.18296">
        <ele>185.1</ele>
        <time>2010-08-29T06:05:23Z</time>
      </trkpt>
      <trkpt lat="48.72202" lon="-0.18283">
        <ele>183.8</ele>
        <time>2010-08-29T06:05:32Z</time>
      </trkpt>
      <trkpt lat="48.72206" lon="-0.18277">
        <ele>183.6</ele>
        <time>2010-08-29T06:05:37Z</time>
      </trkpt>
      <trkpt lat="48.72216" lon="-0.18265">
        <ele>182.3</ele>
        <time>2010-08-29T06:05:42Z</time>
      </trkpt>
      <trkpt lat="48.72222" lon="-0.18258">
        <ele>181.3</ele>
        <time>2010-08-29T06:05:47Z</time>
      </trkpt>
      <trkpt lat="48.72227" lon="-0.1825">
        <ele>181.5</ele>
        <time>2010-08-29T06:05:52Z</time>
      </trkpt>
      <trkpt lat="48.72231" lon="-0.18239">
        <ele>179.6</ele>
        <time>2010-08-29T06:05:57Z</time>
      </trkpt>
      <trkpt lat="48.72234" lon="-0.18237">
        <ele>178.8</ele>
        <time>2010-08-29T06:06:02Z</time>
      </trkpt>
      <trkpt lat="48.7224" lon="-0.18231">
        <ele>179.3</ele>
        <time>2010-08-29T06:06:07Z</time>
      </trkpt>
      <trkpt lat="48.72245" lon="-0.18221">
        <ele>177.6</ele>
        <time>2010-08-29T06:06:12Z</time>
      </trkpt>
      <trkpt lat="48.72251" lon="-0.18211">
        <ele>178</ele>
        <time>2010-08-29T06:06:17Z</time>
      </trkpt>
      <trkpt lat="48.72257" lon="-0.18203">
        <ele>177.6</ele>
        <time>2010-08-29T06:06:22Z</time>
      </trkpt>
      <trkpt lat="48.72263" lon="-0.18193">
        <ele>177.6</ele>
        <time>2010-08-29T06:06:27Z</time>
      </trkpt>
      <trkpt lat="48.72265" lon="-0.18192">
        <ele>177.3</ele>
        <time>2010-08-29T06:06:28Z</time>
      </trkpt>
      <trkpt lat="48.72273" lon="-0.18178">
        <ele>175.3</ele>
        <time>2010-08-29T06:06:37Z</time>
      </trkpt>
      <trkpt lat="48.72277" lon="-0.1817">
        <ele>176</ele>
        <time>2010-08-29T06:06:42Z</time>
      </trkpt>
      <trkpt lat="48.72281" lon="-0.18165">
        <ele>178.8</ele>
        <time>2010-08-29T06:06:47Z</time>
      </trkpt>
      <trkpt lat="48.72285" lon="-0.1816">
        <ele>178.8</ele>
        <time>2010-08-29T06:06:52Z</time>
      </trkpt>
      <trkpt lat="48.72289" lon="-0.18152">
        <ele>178.8</ele>
        <time>2010-08-29T06:06:57Z</time>
      </trkpt>
      <trkpt lat="48.72294" lon="-0.18145">
        <ele>178.1</ele>
        <time>2010-08-29T06:07:02Z</time>
      </trkpt>
      <trkpt lat="48.72299" lon="-0.18133">
        <ele>177.8</ele>
        <time>2010-08-29T06:07:07Z</time>
      </trkpt>
      <trkpt lat="48.72299" lon="-0.18127">
        <ele>177.8</ele>
        <time>2010-08-29T06:07:12Z</time>
      </trkpt>
      <trkpt lat="48.72305" lon="-0.18115">
        <ele>180.8</ele>
        <time>2010-08-29T06:07:17Z</time>
      </trkpt>
      <trkpt lat="48.72309" lon="-0.18112">
        <ele>180.6</ele>
        <time>2010-08-29T06:07:22Z</time>
      </trkpt>
      <trkpt lat="48.72313" lon="-0.18109">
        <ele>179.5</ele>
        <time>2010-08-29T06:07:27Z</time>
      </trkpt>
      <trkpt lat="48.72312" lon="-0.18106">
        <ele>181.3</ele>
        <time>2010-08-29T06:07:32Z</time>
      </trkpt>
      <trkpt lat="48.72313" lon="-0.18104">
        <ele>181.1</ele>
        <time>2010-08-29T06:07:33Z</time>
      </trkpt>
      <trkpt lat="48.72325" lon="-0.18087">
        <ele>182</ele>
        <time>2010-08-29T06:07:42Z</time>
      </trkpt>
      <trkpt lat="48.72332" lon="-0.18081">
        <ele>181.8</ele>
        <time>2010-08-29T06:07:47Z</time>
      </trkpt>
      <trkpt lat="48.72337" lon="-0.18075">
        <ele>181.1</ele>
        <time>2010-08-29T06:07:52Z</time>
      </trkpt>
      <trkpt lat="48.72345" lon="-0.18071">
        <ele>180.6</ele>
        <time>2010-08-29T06:07:57Z</time>
      </trkpt>
      <trkpt lat="48.72349" lon="-0.18065">
        <ele>180.1</ele>
        <time>2010-08-29T06:08:02Z</time>
      </trkpt>
      <trkpt lat="48.72352" lon="-0.18062">
        <ele>180</ele>
        <time>2010-08-29T06:08:07Z</time>
      </trkpt>
      <trkpt lat="48.72353" lon="-0.18067">
        <ele>179.3</ele>
        <time>2010-08-29T06:08:12Z</time>
      </trkpt>
      <trkpt lat="48.72352" lon="-0.18072">
        <ele>180.5</ele>
        <time>2010-08-29T06:08:17Z</time>
      </trkpt>
      <trkpt lat="48.72358" lon="-0.18079">
        <ele>180.1</ele>
        <time>2010-08-29T06:08:22Z</time>
      </trkpt>
      <trkpt lat="48.72363" lon="-0.18082">
        <ele>182.6</ele>
        <time>2010-08-29T06:08:27Z</time>
      </trkpt>
      <trkpt lat="48.72367" lon="-0.18092">
        <ele>181.8</ele>
        <time>2010-08-29T06:08:32Z</time>
      </trkpt>
      <trkpt lat="48.72372" lon="-0.18103">
        <ele>182.3</ele>
        <time>2010-08-29T06:08:37Z</time>
      </trkpt>
      <trkpt lat="48.72374" lon="-0.18105">
        <ele>182.3</ele>
        <time>2010-08-29T06:08:38Z</time>
      </trkpt>
      <trkpt lat="48.72383" lon="-0.18117">
        <ele>182.6</ele>
        <time>2010-08-29T06:08:47Z</time>
      </trkpt>
      <trkpt lat="48.72392" lon="-0.18127">
        <ele>185.5</ele>
        <time>2010-08-29T06:08:52Z</time>
      </trkpt>
      <trkpt lat="48.72395" lon="-0.1813">
        <ele>185</ele>
        <time>2010-08-29T06:08:57Z</time>
      </trkpt>
      <trkpt lat="48.72399" lon="-0.18133">
        <ele>184.6</ele>
        <time>2010-08-29T06:09:02Z</time>
      </trkpt>
      <trkpt lat="48.72398" lon="-0.18143">
        <ele>184.1</ele>
        <time>2010-08-29T06:09:07Z</time>
      </trkpt>
      <trkpt lat="48.72406" lon="-0.1815">
        <ele>182</ele>
        <time>2010-08-29T06:09:12Z</time>
      </trkpt>
      <trkpt lat="48.72414" lon="-0.18154">
        <ele>182.5</ele>
        <time>2010-08-29T06:09:17Z</time>
      </trkpt>
      <trkpt lat="48.72421" lon="-0.1816">
        <ele>180.8</ele>
        <time>2010-08-29T06:09:22Z</time>
      </trkpt>
      <trkpt lat="48.72429" lon="-0.18168">
        <ele>179.6</ele>
        <time>2010-08-29T06:09:27Z</time>
      </trkpt>
      <trkpt lat="48.7243" lon="-0.18169">
        <ele>178.3</ele>
        <time>2010-08-29T06:09:32Z</time>
      </trkpt>
      <trkpt lat="48.72434" lon="-0.18171">
        <ele>177.6</ele>
        <time>2010-08-29T06:09:37Z</time>
      </trkpt>
      <trkpt lat="48.72442" lon="-0.1818">
        <ele>178.6</ele>
        <time>2010-08-29T06:09:42Z</time>
      </trkpt>
      <trkpt lat="48.72443" lon="-0.18182">
        <ele>177.8</ele>
        <time>2010-08-29T06:09:43Z</time>
      </trkpt>
      <trkpt lat="48.72456" lon="-0.18195">
        <ele>180.8</ele>
        <time>2010-08-29T06:09:52Z</time>
      </trkpt>
      <trkpt lat="48.72458" lon="-0.18197">
        <ele>181.1</ele>
        <time>2010-08-29T06:09:57Z</time>
      </trkpt>
      <trkpt lat="48.72466" lon="-0.18203">
        <ele>181.6</ele>
        <time>2010-08-29T06:10:02Z</time>
      </trkpt>
      <trkpt lat="48.72468" lon="-0.18208">
        <ele>181.1</ele>
        <time>2010-08-29T06:10:07Z</time>
      </trkpt>
      <trkpt lat="48.7247" lon="-0.18213">
        <ele>181.6</ele>
        <time>2010-08-29T06:10:12Z</time>
      </trkpt>
      <trkpt lat="48.72474" lon="-0.18219">
        <ele>180.6</ele>
        <time>2010-08-29T06:10:17Z</time>
      </trkpt>
      <trkpt lat="48.72475" lon="-0.18221">
        <ele>181.6</ele>
        <time>2010-08-29T06:10:22Z</time>
      </trkpt>
      <trkpt lat="48.72479" lon="-0.18223">
        <ele>181.5</ele>
        <time>2010-08-29T06:10:27Z</time>
      </trkpt>
      <trkpt lat="48.72489" lon="-0.18231">
        <ele>180.5</ele>
        <time>2010-08-29T06:10:32Z</time>
      </trkpt>
      <trkpt lat="48.72497" lon="-0.18245">
        <ele>184</ele>
        <time>2010-08-29T06:10:37Z</time>
      </trkpt>
      <trkpt lat="48.72503" lon="-0.18254">
        <ele>185.1</ele>
        <time>2010-08-29T06:10:42Z</time>
      </trkpt>
      <trkpt lat="48.72511" lon="-0.18263">
        <ele>184.3</ele>
        <time>2010-08-29T06:10:47Z</time>
      </trkpt>
      <trkpt lat="48.72511" lon="-0.18266">
        <ele>184.6</ele>
        <time>2010-08-29T06:10:48Z</time>
      </trkpt>
      <trkpt lat="48.72517" lon="-0.18282">
        <ele>183.1</ele>
        <time>2010-08-29T06:10:57Z</time>
      </trkpt>
      <trkpt lat="48.72522" lon="-0.1829">
        <ele>181.8</ele>
        <time>2010-08-29T06:11:02Z</time>
      </trkpt>
      <trkpt lat="48.72529" lon="-0.18297">
        <ele>182.8</ele>
        <time>2010-08-29T06:11:07Z</time>
      </trkpt>
      <trkpt lat="48.72532" lon="-0.18313">
        <ele>183.1</ele>
        <time>2010-08-29T06:11:12Z</time>
      </trkpt>
      <trkpt lat="48.72534" lon="-0.18317">
        <ele>183.1</ele>
        <time>2010-08-29T06:11:17Z</time>
      </trkpt>
      <trkpt lat="48.72532" lon="-0.18322">
        <ele>183.8</ele>
        <time>2010-08-29T06:11:22Z</time>
      </trkpt>
      <trkpt lat="48.72535" lon="-0.18329">
        <ele>183.5</ele>
        <time>2010-08-29T06:11:27Z</time>
      </trkpt>
      <trkpt lat="48.72531" lon="-0.18339">
        <ele>183.8</ele>
        <time>2010-08-29T06:11:32Z</time>
      </trkpt>
      <trkpt lat="48.72531" lon="-0.18345">
        <ele>183.8</ele>
        <time>2010-08-29T06:11:37Z</time>
      </trkpt>
      <trkpt lat="48.72528" lon="-0.18352">
        <ele>182.8</ele>
        <time>2010-08-29T06:11:42Z</time>
      </trkpt>
      <trkpt lat="48.7252" lon="-0.18365">
        <ele>184.8</ele>
        <time>2010-08-29T06:11:47Z</time>
      </trkpt>
      <trkpt lat="48.72516" lon="-0.18381">
        <ele>183.1</ele>
        <time>2010-08-29T06:11:52Z</time>
      </trkpt>
      <trkpt lat="48.72516" lon="-0.18381">
        <ele>183.1</ele>
        <time>2010-08-29T06:11:53Z</time>
      </trkpt>
      <trkpt lat="48.72503" lon="-0.18393">
        <ele>186.6</ele>
        <time>2010-08-29T06:12:02Z</time>
      </trkpt>
      <trkpt lat="48.72496" lon="-0.18403">
        <ele>185.6</ele>
        <time>2010-08-29T06:12:07Z</time>
      </trkpt>
      <trkpt lat="48.72496" lon="-0.18412">
        <ele>185.8</ele>
        <time>2010-08-29T06:12:12Z</time>
      </trkpt>
      <trkpt lat="48.72493" lon="-0.18421">
        <ele>183.5</ele>
        <time>2010-08-29T06:12:17Z</time>
      </trkpt>
      <trkpt lat="48.72493" lon="-0.18426">
        <ele>182.8</ele>
        <time>2010-08-29T06:12:22Z</time>
      </trkpt>
      <trkpt lat="48.72487" lon="-0.18428">
        <ele>183.1</ele>
        <time>2010-08-29T06:12:27Z</time>
      </trkpt>
      <trkpt lat="48.72483" lon="-0.18438">
        <ele>183.3</ele>
        <time>2010-08-29T06:12:32Z</time>
      </trkpt>
      <trkpt lat="48.72488" lon="-0.18446">
        <ele>183.5</ele>
        <time>2010-08-29T06:12:37Z</time>
      </trkpt>
      <trkpt lat="48.72493" lon="-0.18451">
        <ele>181.3</ele>
        <time>2010-08-29T06:12:42Z</time>
      </trkpt>
      <trkpt lat="48.72493" lon="-0.18452">
        <ele>181.5</ele>
        <time>2010-08-29T06:12:47Z</time>
      </trkpt>
      <trkpt lat="48.7249" lon="-0.18463">
        <ele>181.8</ele>
        <time>2010-08-29T06:12:52Z</time>
      </trkpt>
      <trkpt lat="48.72482" lon="-0.18474">
        <ele>186.8</ele>
        <time>2010-08-29T06:12:57Z</time>
      </trkpt>
      <trkpt lat="48.7248" lon="-0.18478">
        <ele>187.5</ele>
        <time>2010-08-29T06:12:58Z</time>
      </trkpt>
      <trkpt lat="48.72481" lon="-0.18497">
        <ele>187.8</ele>
        <time>2010-08-29T06:13:07Z</time>
      </trkpt>
      <trkpt lat="48.72482" lon="-0.18512">
        <ele>186.1</ele>
        <time>2010-08-29T06:13:12Z</time>
      </trkpt>
      <trkpt lat="48.72479" lon="-0.18521">
        <ele>186.8</ele>
        <time>2010-08-29T06:13:17Z</time>
      </trkpt>
      <trkpt lat="48.72476" lon="-0.18538">
        <ele>186.8</ele>
        <time>2010-08-29T06:13:22Z</time>
      </trkpt>
      <trkpt lat="48.72473" lon="-0.18549">
        <ele>186</ele>
        <time>2010-08-29T06:13:27Z</time>
      </trkpt>
      <trkpt lat="48.72474" lon="-0.18564">
        <ele>186.8</ele>
        <time>2010-08-29T06:13:32Z</time>
      </trkpt>
      <trkpt lat="48.72477" lon="-0.18583">
        <ele>184.8</ele>
        <time>2010-08-29T06:13:37Z</time>
      </trkpt>
      <trkpt lat="48.72476" lon="-0.18589">
        <ele>185.3</ele>
        <time>2010-08-29T06:13:42Z</time>
      </trkpt>
      <trkpt lat="48.72475" lon="-0.18597">
        <ele>184.6</ele>
        <time>2010-08-29T06:13:47Z</time>
      </trkpt>
      <trkpt lat="48.72476" lon="-0.18604">
        <ele>185.3</ele>
        <time>2010-08-29T06:13:52Z</time>
      </trkpt>
      <trkpt lat="48.72476" lon="-0.18615">
        <ele>187.8</ele>
        <time>2010-08-29T06:13:57Z</time>
      </trkpt>
      <trkpt lat="48.72473" lon="-0.18627">
        <ele>190.1</ele>
        <time>2010-08-29T06:14:02Z</time>
      </trkpt>
      <trkpt lat="48.72473" lon="-0.18628">
        <ele>190.3</ele>
        <time>2010-08-29T06:14:03Z</time>
      </trkpt>
      <trkpt lat="48.72475" lon="-0.1865">
        <ele>186.3</ele>
        <time>2010-08-29T06:14:12Z</time>
      </trkpt>
      <trkpt lat="48.7247" lon="-0.18662">
        <ele>188.6</ele>
        <time>2010-08-29T06:14:17Z</time>
      </trkpt>
      <trkpt lat="48.72467" lon="-0.18674">
        <ele>186.1</ele>
        <time>2010-08-29T06:14:22Z</time>
      </trkpt>
      <trkpt lat="48.72463" lon="-0.18681">
        <ele>189.1</ele>
        <time>2010-08-29T06:14:27Z</time>
      </trkpt>
      <trkpt lat="48.7247" lon="-0.18698">
        <ele>192.5</ele>
        <time>2010-08-29T06:14:32Z</time>
      </trkpt>
      <trkpt lat="48.72468" lon="-0.18716">
        <ele>192.8</ele>
        <time>2010-08-29T06:14:37Z</time>
      </trkpt>
      <trkpt lat="48.72464" lon="-0.18725">
        <ele>194.1</ele>
        <time>2010-08-29T06:14:42Z</time>
      </trkpt>
      <trkpt lat="48.72463" lon="-0.1873">
        <ele>194.8</ele>
        <time>2010-08-29T06:14:47Z</time>
      </trkpt>
      <trkpt lat="48.72461" lon="-0.18732">
        <ele>196.1</ele>
        <time>2010-08-29T06:14:52Z</time>
      </trkpt>
      <trkpt lat="48.72457" lon="-0.18749">
        <ele>195.6</ele>
        <time>2010-08-29T06:14:57Z</time>
      </trkpt>
      <trkpt lat="48.7245" lon="-0.18762">
        <ele>195.3</ele>
        <time>2010-08-29T06:15:02Z</time>
      </trkpt>
      <trkpt lat="48.72447" lon="-0.18767">
        <ele>192.1</ele>
        <time>2010-08-29T06:15:07Z</time>
      </trkpt>
      <trkpt lat="48.72445" lon="-0.18769">
        <ele>191.5</ele>
        <time>2010-08-29T06:15:08Z</time>
      </trkpt>
      <trkpt lat="48.72439" lon="-0.18783">
        <ele>192.3</ele>
        <time>2010-08-29T06:15:17Z</time>
      </trkpt>
      <trkpt lat="48.72435" lon="-0.18797">
        <ele>191.1</ele>
        <time>2010-08-29T06:15:22Z</time>
      </trkpt>
      <trkpt lat="48.7243" lon="-0.18811">
        <ele>190.5</ele>
        <time>2010-08-29T06:15:27Z</time>
      </trkpt>
      <trkpt lat="48.72428" lon="-0.18821">
        <ele>192</ele>
        <time>2010-08-29T06:15:32Z</time>
      </trkpt>
      <trkpt lat="48.72427" lon="-0.18824">
        <ele>192.3</ele>
        <time>2010-08-29T06:15:37Z</time>
      </trkpt>
      <trkpt lat="48.72421" lon="-0.18828">
        <ele>193.6</ele>
        <time>2010-08-29T06:15:42Z</time>
      </trkpt>
      <trkpt lat="48.7242" lon="-0.18842">
        <ele>197.8</ele>
        <time>2010-08-29T06:15:47Z</time>
      </trkpt>
      <trkpt lat="48.72419" lon="-0.18848">
        <ele>200.3</ele>
        <time>2010-08-29T06:15:52Z</time>
      </trkpt>
      <trkpt lat="48.72412" lon="-0.18853">
        <ele>200</ele>
        <time>2010-08-29T06:15:57Z</time>
      </trkpt>
      <trkpt lat="48.72406" lon="-0.18864">
        <ele>199.1</ele>
        <time>2010-08-29T06:16:02Z</time>
      </trkpt>
      <trkpt lat="48.72402" lon="-0.18874">
        <ele>198.3</ele>
        <time>2010-08-29T06:16:07Z</time>
      </trkpt>
      <trkpt lat="48.72398" lon="-0.18888">
        <ele>199.8</ele>
        <time>2010-08-29T06:16:12Z</time>
      </trkpt>
      <trkpt lat="48.72399" lon="-0.1889">
        <ele>200.5</ele>
        <time>2010-08-29T06:16:13Z</time>
      </trkpt>
      <trkpt lat="48.72399" lon="-0.1892">
        <ele>191.6</ele>
        <time>2010-08-29T06:16:22Z</time>
      </trkpt>
      <trkpt lat="48.72397" lon="-0.18937">
        <ele>187.5</ele>
        <time>2010-08-29T06:16:27Z</time>
      </trkpt>
      <trkpt lat="48.72398" lon="-0.1895">
        <ele>191.3</ele>
        <time>2010-08-29T06:16:32Z</time>
      </trkpt>
      <trkpt lat="48.72401" lon="-0.18956">
        <ele>194.1</ele>
        <time>2010-08-29T06:16:37Z</time>
      </trkpt>
      <trkpt lat="48.72404" lon="-0.18957">
        <ele>195.8</ele>
        <time>2010-08-29T06:16:42Z</time>
      </trkpt>
      <trkpt lat="48.72409" lon="-0.18961">
        <ele>196.6</ele>
        <time>2010-08-29T06:16:47Z</time>
      </trkpt>
      <trkpt lat="48.72411" lon="-0.18961">
        <ele>198.1</ele>
        <time>2010-08-29T06:16:52Z</time>
      </trkpt>
      <trkpt lat="48.72417" lon="-0.18959">
        <ele>201.1</ele>
        <time>2010-08-29T06:16:57Z</time>
      </trkpt>
      <trkpt lat="48.72417" lon="-0.18959">
        <ele>202.5</ele>
        <time>2010-08-29T06:17:02Z</time>
      </trkpt>
      <trkpt lat="48.72417" lon="-0.18954">
        <ele>202.6</ele>
        <time>2010-08-29T06:17:07Z</time>
      </trkpt>
      <trkpt lat="48.72425" lon="-0.18942">
        <ele>198.6</ele>
        <time>2010-08-29T06:17:12Z</time>
      </trkpt>
      <trkpt lat="48.72435" lon="-0.18936">
        <ele>203.5</ele>
        <time>2010-08-29T06:17:17Z</time>
      </trkpt>
      <trkpt lat="48.72437" lon="-0.18935">
        <ele>204.3</ele>
        <time>2010-08-29T06:17:18Z</time>
      </trkpt>
      <trkpt lat="48.72451" lon="-0.18928">
        <ele>205.8</ele>
        <time>2010-08-29T06:17:27Z</time>
      </trkpt>
      <trkpt lat="48.72458" lon="-0.18923">
        <ele>204.3</ele>
        <time>2010-08-29T06:17:32Z</time>
      </trkpt>
      <trkpt lat="48.72465" lon="-0.18919">
        <ele>203.5</ele>
        <time>2010-08-29T06:17:37Z</time>
      </trkpt>
      <trkpt lat="48.72471" lon="-0.18913">
        <ele>205.6</ele>
        <time>2010-08-29T06:17:42Z</time>
      </trkpt>
      <trkpt lat="48.72476" lon="-0.18907">
        <ele>206.3</ele>
        <time>2010-08-29T06:17:47Z</time>
      </trkpt>
      <trkpt lat="48.72483" lon="-0.18902">
        <ele>205.5</ele>
        <time>2010-08-29T06:17:52Z</time>
      </trkpt>
      <trkpt lat="48.72489" lon="-0.18898">
        <ele>205.3</ele>
        <time>2010-08-29T06:17:57Z</time>
      </trkpt>
      <trkpt lat="48.72494" lon="-0.18894">
        <ele>206.1</ele>
        <time>2010-08-29T06:18:02Z</time>
      </trkpt>
      <trkpt lat="48.725" lon="-0.18888">
        <ele>207.5</ele>
        <time>2010-08-29T06:18:07Z</time>
      </trkpt>
      <trkpt lat="48.72506" lon="-0.18881">
        <ele>207.3</ele>
        <time>2010-08-29T06:18:12Z</time>
      </trkpt>
      <trkpt lat="48.7251" lon="-0.18874">
        <ele>207.8</ele>
        <time>2010-08-29T06:18:17Z</time>
      </trkpt>
      <trkpt lat="48.72514" lon="-0.18865">
        <ele>207.8</ele>
        <time>2010-08-29T06:18:22Z</time>
      </trkpt>
      <trkpt lat="48.72516" lon="-0.18863">
        <ele>207.8</ele>
        <time>2010-08-29T06:18:23Z</time>
      </trkpt>
      <trkpt lat="48.72523" lon="-0.18848">
        <ele>208</ele>
        <time>2010-08-29T06:18:32Z</time>
      </trkpt>
      <trkpt lat="48.72527" lon="-0.1884">
        <ele>208.8</ele>
        <time>2010-08-29T06:18:37Z</time>
      </trkpt>
      <trkpt lat="48.72533" lon="-0.18835">
        <ele>208.8</ele>
        <time>2010-08-29T06:18:42Z</time>
      </trkpt>
      <trkpt lat="48.72539" lon="-0.18835">
        <ele>208.8</ele>
        <time>2010-08-29T06:18:47Z</time>
      </trkpt>
      <trkpt lat="48.72545" lon="-0.1884">
        <ele>208.6</ele>
        <time>2010-08-29T06:18:52Z</time>
      </trkpt>
      <trkpt lat="48.72552" lon="-0.18843">
        <ele>209</ele>
        <time>2010-08-29T06:18:57Z</time>
      </trkpt>
      <trkpt lat="48.72559" lon="-0.18845">
        <ele>209.1</ele>
        <time>2010-08-29T06:19:02Z</time>
      </trkpt>
      <trkpt lat="48.72566" lon="-0.18847">
        <ele>209.5</ele>
        <time>2010-08-29T06:19:07Z</time>
      </trkpt>
      <trkpt lat="48.72573" lon="-0.1885">
        <ele>210.6</ele>
        <time>2010-08-29T06:19:12Z</time>
      </trkpt>
      <trkpt lat="48.72579" lon="-0.18856">
        <ele>211</ele>
        <time>2010-08-29T06:19:17Z</time>
      </trkpt>
      <trkpt lat="48.72586" lon="-0.18861">
        <ele>211.8</ele>
        <time>2010-08-29T06:19:22Z</time>
      </trkpt>
      <trkpt lat="48.72592" lon="-0.18865">
        <ele>212.1</ele>
        <time>2010-08-29T06:19:27Z</time>
      </trkpt>
      <trkpt lat="48.72593" lon="-0.18866">
        <ele>212.3</ele>
        <time>2010-08-29T06:19:28Z</time>
      </trkpt>
      <trkpt lat="48.72605" lon="-0.18874">
        <ele>213.8</ele>
        <time>2010-08-29T06:19:37Z</time>
      </trkpt>
      <trkpt lat="48.72611" lon="-0.18882">
        <ele>215.8</ele>
        <time>2010-08-29T06:19:42Z</time>
      </trkpt>
      <trkpt lat="48.72618" lon="-0.18883">
        <ele>215.8</ele>
        <time>2010-08-29T06:19:47Z</time>
      </trkpt>
      <trkpt lat="48.72624" lon="-0.18884">
        <ele>215.5</ele>
        <time>2010-08-29T06:19:52Z</time>
      </trkpt>
      <trkpt lat="48.7263" lon="-0.18878">
        <ele>214.3</ele>
        <time>2010-08-29T06:19:57Z</time>
      </trkpt>
      <trkpt lat="48.72633" lon="-0.18871">
        <ele>214.6</ele>
        <time>2010-08-29T06:20:02Z</time>
      </trkpt>
      <trkpt lat="48.72637" lon="-0.18861">
        <ele>213.6</ele>
        <time>2010-08-29T06:20:07Z</time>
      </trkpt>
      <trkpt lat="48.72642" lon="-0.18851">
        <ele>213.1</ele>
        <time>2010-08-29T06:20:12Z</time>
      </trkpt>
      <trkpt lat="48.72647" lon="-0.18842">
        <ele>213</ele>
        <time>2010-08-29T06:20:17Z</time>
      </trkpt>
      <trkpt lat="48.7265" lon="-0.18833">
        <ele>211.3</ele>
        <time>2010-08-29T06:20:22Z</time>
      </trkpt>
      <trkpt lat="48.72654" lon="-0.18824">
        <ele>211.3</ele>
        <time>2010-08-29T06:20:27Z</time>
      </trkpt>
      <trkpt lat="48.72659" lon="-0.18814">
        <ele>210.1</ele>
        <time>2010-08-29T06:20:32Z</time>
      </trkpt>
      <trkpt lat="48.7266" lon="-0.18813">
        <ele>210.1</ele>
        <time>2010-08-29T06:20:33Z</time>
      </trkpt>
      <trkpt lat="48.72664" lon="-0.18807">
        <ele>209.8</ele>
        <time>2010-08-29T06:20:42Z</time>
      </trkpt>
      <trkpt lat="48.72667" lon="-0.18803">
        <ele>209.6</ele>
        <time>2010-08-29T06:20:47Z</time>
      </trkpt>
      <trkpt lat="48.72671" lon="-0.18798">
        <ele>209.3</ele>
        <time>2010-08-29T06:20:52Z</time>
      </trkpt>
      <trkpt lat="48.72675" lon="-0.18792">
        <ele>209.6</ele>
        <time>2010-08-29T06:20:57Z</time>
      </trkpt>
      <trkpt lat="48.72679" lon="-0.18788">
        <ele>210.1</ele>
        <time>2010-08-29T06:21:02Z</time>
      </trkpt>
      <trkpt lat="48.72688" lon="-0.18782">
        <ele>210.5</ele>
        <time>2010-08-29T06:21:07Z</time>
      </trkpt>
      <trkpt lat="48.72697" lon="-0.18772">
        <ele>210.6</ele>
        <time>2010-08-29T06:21:12Z</time>
      </trkpt>
      <trkpt lat="48.72701" lon="-0.18765">
        <ele>211.1</ele>
        <time>2010-08-29T06:21:17Z</time>
      </trkpt>
      <trkpt lat="48.72707" lon="-0.18762">
        <ele>211.3</ele>
        <time>2010-08-29T06:21:22Z</time>
      </trkpt>
      <trkpt lat="48.7271" lon="-0.1876">
        <ele>211.6</ele>
        <time>2010-08-29T06:21:27Z</time>
      </trkpt>
      <trkpt lat="48.7272" lon="-0.18758">
        <ele>214.3</ele>
        <time>2010-08-29T06:21:32Z</time>
      </trkpt>
      <trkpt lat="48.72727" lon="-0.18753">
        <ele>213.8</ele>
        <time>2010-08-29T06:21:37Z</time>
      </trkpt>
      <trkpt lat="48.7273" lon="-0.18752">
        <ele>213.6</ele>
        <time>2010-08-29T06:21:38Z</time>
      </trkpt>
      <trkpt lat="48.72744" lon="-0.18745">
        <ele>214.6</ele>
        <time>2010-08-29T06:21:47Z</time>
      </trkpt>
      <trkpt lat="48.72752" lon="-0.18741">
        <ele>214.1</ele>
        <time>2010-08-29T06:21:52Z</time>
      </trkpt>
      <trkpt lat="48.72757" lon="-0.1874">
        <ele>214.3</ele>
        <time>2010-08-29T06:21:57Z</time>
      </trkpt>
      <trkpt lat="48.72765" lon="-0.18737">
        <ele>214.5</ele>
        <time>2010-08-29T06:22:02Z</time>
      </trkpt>
      <trkpt lat="48.72771" lon="-0.18737">
        <ele>214</ele>
        <time>2010-08-29T06:22:07Z</time>
      </trkpt>
      <trkpt lat="48.72778" lon="-0.18734">
        <ele>214.1</ele>
        <time>2010-08-29T06:22:12Z</time>
      </trkpt>
      <trkpt lat="48.72786" lon="-0.18731">
        <ele>213.6</ele>
        <time>2010-08-29T06:22:17Z</time>
      </trkpt>
      <trkpt lat="48.72792" lon="-0.18728">
        <ele>213</ele>
        <time>2010-08-29T06:22:22Z</time>
      </trkpt>
      <trkpt lat="48.72801" lon="-0.18724">
        <ele>212.5</ele>
        <time>2010-08-29T06:22:27Z</time>
      </trkpt>
      <trkpt lat="48.72807" lon="-0.18721">
        <ele>212.3</ele>
        <time>2010-08-29T06:22:32Z</time>
      </trkpt>
      <trkpt lat="48.72815" lon="-0.18718">
        <ele>211.5</ele>
        <time>2010-08-29T06:22:37Z</time>
      </trkpt>
      <trkpt lat="48.72823" lon="-0.18721">
        <ele>212.5</ele>
        <time>2010-08-29T06:22:42Z</time>
      </trkpt>
      <trkpt lat="48.72825" lon="-0.18721">
        <ele>212.6</ele>
        <time>2010-08-29T06:22:43Z</time>
      </trkpt>
      <trkpt lat="48.72828" lon="-0.18735">
        <ele>213</ele>
        <time>2010-08-29T06:22:52Z</time>
      </trkpt>
      <trkpt lat="48.72828" lon="-0.18738">
        <ele>212.8</ele>
        <time>2010-08-29T06:22:57Z</time>
      </trkpt>
      <trkpt lat="48.72828" lon="-0.18749">
        <ele>212.5</ele>
        <time>2010-08-29T06:23:02Z</time>
      </trkpt>
      <trkpt lat="48.7283" lon="-0.18754">
        <ele>212.8</ele>
        <time>2010-08-29T06:23:07Z</time>
      </trkpt>
      <trkpt lat="48.7283" lon="-0.18767">
        <ele>213</ele>
        <time>2010-08-29T06:23:12Z</time>
      </trkpt>
      <trkpt lat="48.72831" lon="-0.18779">
        <ele>213</ele>
        <time>2010-08-29T06:23:17Z</time>
      </trkpt>
      <trkpt lat="48.7283" lon="-0.18791">
        <ele>212.6</ele>
        <time>2010-08-29T06:23:22Z</time>
      </trkpt>
      <trkpt lat="48.72828" lon="-0.18802">
        <ele>212.6</ele>
        <time>2010-08-29T06:23:27Z</time>
      </trkpt>
      <trkpt lat="48.72827" lon="-0.18816">
        <ele>213</ele>
        <time>2010-08-29T06:23:32Z</time>
      </trkpt>
      <trkpt lat="48.72825" lon="-0.18825">
        <ele>213.1</ele>
        <time>2010-08-29T06:23:37Z</time>
      </trkpt>
      <trkpt lat="48.72821" lon="-0.18841">
        <ele>212.3</ele>
        <time>2010-08-29T06:23:42Z</time>
      </trkpt>
      <trkpt lat="48.72826" lon="-0.18853">
        <ele>212.6</ele>
        <time>2010-08-29T06:23:47Z</time>
      </trkpt>
      <trkpt lat="48.72827" lon="-0.18854">
        <ele>212.8</ele>
        <time>2010-08-29T06:23:48Z</time>
      </trkpt>
      <trkpt lat="48.72829" lon="-0.18863">
        <ele>214.5</ele>
        <time>2010-08-29T06:23:57Z</time>
      </trkpt>
      <trkpt lat="48.72831" lon="-0.1887">
        <ele>214.5</ele>
        <time>2010-08-29T06:24:02Z</time>
      </trkpt>
      <trkpt lat="48.7283" lon="-0.1888">
        <ele>216.1</ele>
        <time>2010-08-29T06:24:07Z</time>
      </trkpt>
      <trkpt lat="48.72831" lon="-0.1889">
        <ele>216.8</ele>
        <time>2010-08-29T06:24:12Z</time>
      </trkpt>
      <trkpt lat="48.7283" lon="-0.18904">
        <ele>218.8</ele>
        <time>2010-08-29T06:24:17Z</time>
      </trkpt>
      <trkpt lat="48.72829" lon="-0.18913">
        <ele>221.1</ele>
        <time>2010-08-29T06:24:22Z</time>
      </trkpt>
      <trkpt lat="48.72828" lon="-0.18927">
        <ele>221.1</ele>
        <time>2010-08-29T06:24:27Z</time>
      </trkpt>
      <trkpt lat="48.72828" lon="-0.18938">
        <ele>222</ele>
        <time>2010-08-29T06:24:32Z</time>
      </trkpt>
      <trkpt lat="48.7283" lon="-0.18947">
        <ele>222</ele>
        <time>2010-08-29T06:24:37Z</time>
      </trkpt>
      <trkpt lat="48.72828" lon="-0.1897">
        <ele>222.1</ele>
        <time>2010-08-29T06:24:42Z</time>
      </trkpt>
      <trkpt lat="48.72826" lon="-0.18972">
        <ele>222.6</ele>
        <time>2010-08-29T06:24:47Z</time>
      </trkpt>
      <trkpt lat="48.72826" lon="-0.18972">
        <ele>223.6</ele>
        <time>2010-08-29T06:24:52Z</time>
      </trkpt>
      <trkpt lat="48.72826" lon="-0.18973">
        <ele>224</ele>
        <time>2010-08-29T06:24:53Z</time>
      </trkpt>
      <trkpt lat="48.72829" lon="-0.18991">
        <ele>225.3</ele>
        <time>2010-08-29T06:25:02Z</time>
      </trkpt>
      <trkpt lat="48.72831" lon="-0.18998">
        <ele>225.5</ele>
        <time>2010-08-29T06:25:07Z</time>
      </trkpt>
      <trkpt lat="48.72829" lon="-0.19012">
        <ele>224.6</ele>
        <time>2010-08-29T06:25:12Z</time>
      </trkpt>
      <trkpt lat="48.72828" lon="-0.19025">
        <ele>224.1</ele>
        <time>2010-08-29T06:25:17Z</time>
      </trkpt>
      <trkpt lat="48.72828" lon="-0.19034">
        <ele>225.5</ele>
        <time>2010-08-29T06:25:22Z</time>
      </trkpt>
      <trkpt lat="48.72829" lon="-0.19035">
        <ele>225.5</ele>
        <time>2010-08-29T06:25:27Z</time>
      </trkpt>
      <trkpt lat="48.72826" lon="-0.19039">
        <ele>225.6</ele>
        <time>2010-08-29T06:25:32Z</time>
      </trkpt>
      <trkpt lat="48.72828" lon="-0.19052">
        <ele>227.6</ele>
        <time>2010-08-29T06:25:37Z</time>
      </trkpt>
      <trkpt lat="48.72826" lon="-0.19065">
        <ele>226.6</ele>
        <time>2010-08-29T06:25:42Z</time>
      </trkpt>
      <trkpt lat="48.7283" lon="-0.19074">
        <ele>227.5</ele>
        <time>2010-08-29T06:25:47Z</time>
      </trkpt>
      <trkpt lat="48.72828" lon="-0.19079">
        <ele>226.6</ele>
        <time>2010-08-29T06:25:52Z</time>
      </trkpt>
      <trkpt lat="48.72826" lon="-0.19087">
        <ele>226.6</ele>
        <time>2010-08-29T06:25:57Z</time>
      </trkpt>
      <trkpt lat="48.72826" lon="-0.19087">
        <ele>226.6</ele>
        <time>2010-08-29T06:25:58Z</time>
      </trkpt>
      <trkpt lat="48.72831" lon="-0.19101">
        <ele>226.8</ele>
        <time>2010-08-29T06:26:07Z</time>
      </trkpt>
      <trkpt lat="48.72835" lon="-0.1912">
        <ele>227.1</ele>
        <time>2010-08-29T06:26:12Z</time>
      </trkpt>
      <trkpt lat="48.72834" lon="-0.19125">
        <ele>227.3</ele>
        <time>2010-08-29T06:26:17Z</time>
      </trkpt>
      <trkpt lat="48.72834" lon="-0.19134">
        <ele>226.8</ele>
        <time>2010-08-29T06:26:22Z</time>
      </trkpt>
      <trkpt lat="48.72832" lon="-0.19146">
        <ele>228</ele>
        <time>2010-08-29T06:26:27Z</time>
      </trkpt>
      <trkpt lat="48.72833" lon="-0.19159">
        <ele>228.1</ele>
        <time>2010-08-29T06:26:32Z</time>
      </trkpt>
      <trkpt lat="48.72836" lon="-0.19169">
        <ele>226.8</ele>
        <time>2010-08-29T06:26:37Z</time>
      </trkpt>
      <trkpt lat="48.72836" lon="-0.19171">
        <ele>227.3</ele>
        <time>2010-08-29T06:26:42Z</time>
      </trkpt>
      <trkpt lat="48.72838" lon="-0.19187">
        <ele>226</ele>
        <time>2010-08-29T06:26:47Z</time>
      </trkpt>
      <trkpt lat="48.72833" lon="-0.19213">
        <ele>228</ele>
        <time>2010-08-29T06:26:52Z</time>
      </trkpt>
      <trkpt lat="48.72835" lon="-0.1923">
        <ele>227.6</ele>
        <time>2010-08-29T06:26:57Z</time>
      </trkpt>
      <trkpt lat="48.72834" lon="-0.19237">
        <ele>227.3</ele>
        <time>2010-08-29T06:27:02Z</time>
      </trkpt>
      <trkpt lat="48.72834" lon="-0.19239">
        <ele>226.3</ele>
        <time>2010-08-29T06:27:03Z</time>
      </trkpt>
      <trkpt lat="48.72837" lon="-0.1926">
        <ele>224.3</ele>
        <time>2010-08-29T06:27:12Z</time>
      </trkpt>
      <trkpt lat="48.72837" lon="-0.19273">
        <ele>226.1</ele>
        <time>2010-08-29T06:27:17Z</time>
      </trkpt>
      <trkpt lat="48.7284" lon="-0.19283">
        <ele>227.3</ele>
        <time>2010-08-29T06:27:22Z</time>
      </trkpt>
      <trkpt lat="48.72839" lon="-0.19292">
        <ele>228.3</ele>
        <time>2010-08-29T06:27:27Z</time>
      </trkpt>
      <trkpt lat="48.7284" lon="-0.19301">
        <ele>230.1</ele>
        <time>2010-08-29T06:27:32Z</time>
      </trkpt>
      <trkpt lat="48.72841" lon="-0.19313">
        <ele>231.6</ele>
        <time>2010-08-29T06:27:37Z</time>
      </trkpt>
      <trkpt lat="48.7284" lon="-0.19318">
        <ele>232</ele>
        <time>2010-08-29T06:27:42Z</time>
      </trkpt>
      <trkpt lat="48.72842" lon="-0.1933">
        <ele>230.3</ele>
        <time>2010-08-29T06:27:47Z</time>
      </trkpt>
      <trkpt lat="48.72841" lon="-0.19335">
        <ele>231.3</ele>
        <time>2010-08-29T06:27:52Z</time>
      </trkpt>
      <trkpt lat="48.72839" lon="-0.19348">
        <ele>233.6</ele>
        <time>2010-08-29T06:27:57Z</time>
      </trkpt>
      <trkpt lat="48.72839" lon="-0.19359">
        <ele>232.8</ele>
        <time>2010-08-29T06:28:02Z</time>
      </trkpt>
      <trkpt lat="48.72838" lon="-0.19371">
        <ele>232.5</ele>
        <time>2010-08-29T06:28:07Z</time>
      </trkpt>
      <trkpt lat="48.72837" lon="-0.19372">
        <ele>232.6</ele>
        <time>2010-08-29T06:28:08Z</time>
      </trkpt>
      <trkpt lat="48.72837" lon="-0.19394">
        <ele>231.6</ele>
        <time>2010-08-29T06:28:17Z</time>
      </trkpt>
      <trkpt lat="48.72837" lon="-0.19402">
        <ele>230</ele>
        <time>2010-08-29T06:28:22Z</time>
      </trkpt>
      <trkpt lat="48.72839" lon="-0.19409">
        <ele>230.1</ele>
        <time>2010-08-29T06:28:27Z</time>
      </trkpt>
      <trkpt lat="48.7284" lon="-0.19418">
        <ele>229.1</ele>
        <time>2010-08-29T06:28:32Z</time>
      </trkpt>
      <trkpt lat="48.72841" lon="-0.19429">
        <ele>225.8</ele>
        <time>2010-08-29T06:28:37Z</time>
      </trkpt>
      <trkpt lat="48.72838" lon="-0.19444">
        <ele>225.8</ele>
        <time>2010-08-29T06:28:42Z</time>
      </trkpt>
      <trkpt lat="48.72838" lon="-0.19458">
        <ele>226.3</ele>
        <time>2010-08-29T06:28:47Z</time>
      </trkpt>
      <trkpt lat="48.72839" lon="-0.19468">
        <ele>227.6</ele>
        <time>2010-08-29T06:28:52Z</time>
      </trkpt>
      <trkpt lat="48.72843" lon="-0.19475">
        <ele>227.6</ele>
        <time>2010-08-29T06:28:57Z</time>
      </trkpt>
      <trkpt lat="48.7285" lon="-0.19471">
        <ele>226.1</ele>
        <time>2010-08-29T06:29:02Z</time>
      </trkpt>
      <trkpt lat="48.72851" lon="-0.19471">
        <ele>225.8</ele>
        <time>2010-08-29T06:29:07Z</time>
      </trkpt>
      <trkpt lat="48.72851" lon="-0.19469">
        <ele>225.6</ele>
        <time>2010-08-29T06:29:12Z</time>
      </trkpt>
      <trkpt lat="48.72851" lon="-0.19468">
        <ele>225.3</ele>
        <time>2010-08-29T06:29:13Z</time>
      </trkpt>
      <trkpt lat="48.72858" lon="-0.19455">
        <ele>225.3</ele>
        <time>2010-08-29T06:29:22Z</time>
      </trkpt>
      <trkpt lat="48.72863" lon="-0.19448">
        <ele>225.3</ele>
        <time>2010-08-29T06:29:27Z</time>
      </trkpt>
      <trkpt lat="48.72866" lon="-0.19442">
        <ele>225.8</ele>
        <time>2010-08-29T06:29:32Z</time>
      </trkpt>
      <trkpt lat="48.72867" lon="-0.19439">
        <ele>225.3</ele>
        <time>2010-08-29T06:29:37Z</time>
      </trkpt>
      <trkpt lat="48.72871" lon="-0.19432">
        <ele>225.1</ele>
        <time>2010-08-29T06:29:42Z</time>
      </trkpt>
      <trkpt lat="48.72876" lon="-0.19425">
        <ele>225.1</ele>
        <time>2010-08-29T06:29:47Z</time>
      </trkpt>
      <trkpt lat="48.7288" lon="-0.19417">
        <ele>224.5</ele>
        <time>2010-08-29T06:29:52Z</time>
      </trkpt>
      <trkpt lat="48.72894" lon="-0.19406">
        <ele>224</ele>
        <time>2010-08-29T06:29:57Z</time>
      </trkpt>
      <trkpt lat="48.72897" lon="-0.19399">
        <ele>223.1</ele>
        <time>2010-08-29T06:30:02Z</time>
      </trkpt>
      <trkpt lat="48.729" lon="-0.1939">
        <ele>223.8</ele>
        <time>2010-08-29T06:30:07Z</time>
      </trkpt>
      <trkpt lat="48.72906" lon="-0.19383">
        <ele>223.5</ele>
        <time>2010-08-29T06:30:12Z</time>
      </trkpt>
      <trkpt lat="48.72909" lon="-0.19375">
        <ele>224.8</ele>
        <time>2010-08-29T06:30:17Z</time>
      </trkpt>
      <trkpt lat="48.7291" lon="-0.19373">
        <ele>224.5</ele>
        <time>2010-08-29T06:30:18Z</time>
      </trkpt>
      <trkpt lat="48.72914" lon="-0.19361">
        <ele>223.1</ele>
        <time>2010-08-29T06:30:27Z</time>
      </trkpt>
      <trkpt lat="48.7292" lon="-0.19358">
        <ele>223.5</ele>
        <time>2010-08-29T06:30:32Z</time>
      </trkpt>
      <trkpt lat="48.72921" lon="-0.19355">
        <ele>223.1</ele>
        <time>2010-08-29T06:30:37Z</time>
      </trkpt>
      <trkpt lat="48.72927" lon="-0.19345">
        <ele>223.6</ele>
        <time>2010-08-29T06:30:42Z</time>
      </trkpt>
      <trkpt lat="48.72931" lon="-0.19336">
        <ele>224.8</ele>
        <time>2010-08-29T06:30:47Z</time>
      </trkpt>
      <trkpt lat="48.72935" lon="-0.19328">
        <ele>225.1</ele>
        <time>2010-08-29T06:30:52Z</time>
      </trkpt>
      <trkpt lat="48.7294" lon="-0.19322">
        <ele>224.3</ele>
        <time>2010-08-29T06:30:57Z</time>
      </trkpt>
      <trkpt lat="48.72948" lon="-0.19316">
        <ele>226</ele>
        <time>2010-08-29T06:31:02Z</time>
      </trkpt>
      <trkpt lat="48.72952" lon="-0.19312">
        <ele>226.5</ele>
        <time>2010-08-29T06:31:07Z</time>
      </trkpt>
      <trkpt lat="48.72958" lon="-0.19304">
        <ele>227.6</ele>
        <time>2010-08-29T06:31:12Z</time>
      </trkpt>
      <trkpt lat="48.72962" lon="-0.19297">
        <ele>228.6</ele>
        <time>2010-08-29T06:31:17Z</time>
      </trkpt>
      <trkpt lat="48.72969" lon="-0.19289">
        <ele>227.8</ele>
        <time>2010-08-29T06:31:22Z</time>
      </trkpt>
      <trkpt lat="48.7297" lon="-0.19288">
        <ele>227.8</ele>
        <time>2010-08-29T06:31:23Z</time>
      </trkpt>
      <trkpt lat="48.7298" lon="-0.1927">
        <ele>227</ele>
        <time>2010-08-29T06:31:32Z</time>
      </trkpt>
      <trkpt lat="48.72986" lon="-0.19261">
        <ele>224.3</ele>
        <time>2010-08-29T06:31:37Z</time>
      </trkpt>
      <trkpt lat="48.7299" lon="-0.19251">
        <ele>224</ele>
        <time>2010-08-29T06:31:42Z</time>
      </trkpt>
      <trkpt lat="48.72994" lon="-0.19247">
        <ele>224.1</ele>
        <time>2010-08-29T06:31:47Z</time>
      </trkpt>
      <trkpt lat="48.73001" lon="-0.1924">
        <ele>223.8</ele>
        <time>2010-08-29T06:31:52Z</time>
      </trkpt>
      <trkpt lat="48.73001" lon="-0.19236">
        <ele>224.1</ele>
        <time>2010-08-29T06:31:57Z</time>
      </trkpt>
      <trkpt lat="48.73004" lon="-0.19229">
        <ele>224.1</ele>
        <time>2010-08-29T06:32:02Z</time>
      </trkpt>
      <trkpt lat="48.7301" lon="-0.19219">
        <ele>223.3</ele>
        <time>2010-08-29T06:32:07Z</time>
      </trkpt>
      <trkpt lat="48.73015" lon="-0.19207">
        <ele>222.6</ele>
        <time>2010-08-29T06:32:12Z</time>
      </trkpt>
      <trkpt lat="48.73025" lon="-0.19196">
        <ele>222</ele>
        <time>2010-08-29T06:32:17Z</time>
      </trkpt>
      <trkpt lat="48.73028" lon="-0.19192">
        <ele>221.6</ele>
        <time>2010-08-29T06:32:22Z</time>
      </trkpt>
      <trkpt lat="48.73032" lon="-0.19183">
        <ele>223</ele>
        <time>2010-08-29T06:32:27Z</time>
      </trkpt>
      <trkpt lat="48.73034" lon="-0.1918">
        <ele>223.1</ele>
        <time>2010-08-29T06:32:28Z</time>
      </trkpt>
      <trkpt lat="48.73047" lon="-0.19167">
        <ele>224.8</ele>
        <time>2010-08-29T06:32:37Z</time>
      </trkpt>
      <trkpt lat="48.7305" lon="-0.19161">
        <ele>225.6</ele>
        <time>2010-08-29T06:32:42Z</time>
      </trkpt>
      <trkpt lat="48.73055" lon="-0.19154">
        <ele>225.8</ele>
        <time>2010-08-29T06:32:47Z</time>
      </trkpt>
      <trkpt lat="48.73057" lon="-0.19151">
        <ele>226.5</ele>
        <time>2010-08-29T06:32:52Z</time>
      </trkpt>
      <trkpt lat="48.73063" lon="-0.19139">
        <ele>226.1</ele>
        <time>2010-08-29T06:32:57Z</time>
      </trkpt>
      <trkpt lat="48.73065" lon="-0.19125">
        <ele>227.3</ele>
        <time>2010-08-29T06:33:02Z</time>
      </trkpt>
      <trkpt lat="48.73071" lon="-0.19122">
        <ele>229.3</ele>
        <time>2010-08-29T06:33:07Z</time>
      </trkpt>
      <trkpt lat="48.73077" lon="-0.19114">
        <ele>229.6</ele>
        <time>2010-08-29T06:33:12Z</time>
      </trkpt>
      <trkpt lat="48.73084" lon="-0.19105">
        <ele>231.3</ele>
        <time>2010-08-29T06:33:17Z</time>
      </trkpt>
      <trkpt lat="48.73094" lon="-0.19096">
        <ele>231.5</ele>
        <time>2010-08-29T06:33:22Z</time>
      </trkpt>
      <trkpt lat="48.73102" lon="-0.1909">
        <ele>232</ele>
        <time>2010-08-29T06:33:27Z</time>
      </trkpt>
      <trkpt lat="48.73102" lon="-0.19084">
        <ele>232.3</ele>
        <time>2010-08-29T06:33:32Z</time>
      </trkpt>
      <trkpt lat="48.73102" lon="-0.19084">
        <ele>232.3</ele>
        <time>2010-08-29T06:33:33Z</time>
      </trkpt>
      <trkpt lat="48.73106" lon="-0.19068">
        <ele>231.5</ele>
        <time>2010-08-29T06:33:42Z</time>
      </trkpt>
      <trkpt lat="48.73112" lon="-0.19059">
        <ele>230.8</ele>
        <time>2010-08-29T06:33:47Z</time>
      </trkpt>
      <trkpt lat="48.73114" lon="-0.19052">
        <ele>230</ele>
        <time>2010-08-29T06:33:52Z</time>
      </trkpt>
      <trkpt lat="48.7312" lon="-0.19042">
        <ele>230.6</ele>
        <time>2010-08-29T06:33:57Z</time>
      </trkpt>
      <trkpt lat="48.73122" lon="-0.1903">
        <ele>230.6</ele>
        <time>2010-08-29T06:34:02Z</time>
      </trkpt>
      <trkpt lat="48.7313" lon="-0.19018">
        <ele>229.8</ele>
        <time>2010-08-29T06:34:07Z</time>
      </trkpt>
      <trkpt lat="48.73138" lon="-0.19009">
        <ele>230.1</ele>
        <time>2010-08-29T06:34:12Z</time>
      </trkpt>
      <trkpt lat="48.73144" lon="-0.19003">
        <ele>229.6</ele>
        <time>2010-08-29T06:34:17Z</time>
      </trkpt>
      <trkpt lat="48.73151" lon="-0.18996">
        <ele>227.3</ele>
        <time>2010-08-29T06:34:22Z</time>
      </trkpt>
      <trkpt lat="48.7316" lon="-0.18985">
        <ele>228</ele>
        <time>2010-08-29T06:34:27Z</time>
      </trkpt>
      <trkpt lat="48.73167" lon="-0.1898">
        <ele>224.8</ele>
        <time>2010-08-29T06:34:32Z</time>
      </trkpt>
      <trkpt lat="48.73172" lon="-0.18972">
        <ele>223.8</ele>
        <time>2010-08-29T06:34:37Z</time>
      </trkpt>
      <trkpt lat="48.73173" lon="-0.1897">
        <ele>224.6</ele>
        <time>2010-08-29T06:34:38Z</time>
      </trkpt>
      <trkpt lat="48.73177" lon="-0.18962">
        <ele>224.5</ele>
        <time>2010-08-29T06:34:47Z</time>
      </trkpt>
      <trkpt lat="48.73182" lon="-0.18954">
        <ele>224.1</ele>
        <time>2010-08-29T06:34:52Z</time>
      </trkpt>
      <trkpt lat="48.73187" lon="-0.18946">
        <ele>223.3</ele>
        <time>2010-08-29T06:34:57Z</time>
      </trkpt>
      <trkpt lat="48.73196" lon="-0.18937">
        <ele>223.3</ele>
        <time>2010-08-29T06:35:02Z</time>
      </trkpt>
      <trkpt lat="48.73198" lon="-0.1894">
        <ele>223.6</ele>
        <time>2010-08-29T06:35:07Z</time>
      </trkpt>
      <trkpt lat="48.73199" lon="-0.1895">
        <ele>222.6</ele>
        <time>2010-08-29T06:35:12Z</time>
      </trkpt>
      <trkpt lat="48.73199" lon="-0.18956">
        <ele>224</ele>
        <time>2010-08-29T06:35:17Z</time>
      </trkpt>
      <trkpt lat="48.73195" lon="-0.18965">
        <ele>227.3</ele>
        <time>2010-08-29T06:35:22Z</time>
      </trkpt>
      <trkpt lat="48.7319" lon="-0.18973">
        <ele>227.8</ele>
        <time>2010-08-29T06:35:27Z</time>
      </trkpt>
      <trkpt lat="48.73188" lon="-0.18983">
        <ele>226.8</ele>
        <time>2010-08-29T06:35:32Z</time>
      </trkpt>
      <trkpt lat="48.73186" lon="-0.18996">
        <ele>225</ele>
        <time>2010-08-29T06:35:37Z</time>
      </trkpt>
      <trkpt lat="48.73183" lon="-0.19008">
        <ele>225.8</ele>
        <time>2010-08-29T06:35:42Z</time>
      </trkpt>
      <trkpt lat="48.73183" lon="-0.1901">
        <ele>226.3</ele>
        <time>2010-08-29T06:35:43Z</time>
      </trkpt>
      <trkpt lat="48.73184" lon="-0.19026">
        <ele>227</ele>
        <time>2010-08-29T06:35:52Z</time>
      </trkpt>
      <trkpt lat="48.73181" lon="-0.19036">
        <ele>227.5</ele>
        <time>2010-08-29T06:35:57Z</time>
      </trkpt>
      <trkpt lat="48.73179" lon="-0.19043">
        <ele>227.8</ele>
        <time>2010-08-29T06:36:02Z</time>
      </trkpt>
      <trkpt lat="48.73178" lon="-0.19052">
        <ele>228.3</ele>
        <time>2010-08-29T06:36:07Z</time>
      </trkpt>
      <trkpt lat="48.73178" lon="-0.19066">
        <ele>229.6</ele>
        <time>2010-08-29T06:36:12Z</time>
      </trkpt>
      <trkpt lat="48.73179" lon="-0.19077">
        <ele>229.6</ele>
        <time>2010-08-29T06:36:17Z</time>
      </trkpt>
      <trkpt lat="48.73177" lon="-0.19087">
        <ele>229.8</ele>
        <time>2010-08-29T06:36:22Z</time>
      </trkpt>
      <trkpt lat="48.73173" lon="-0.19094">
        <ele>228.3</ele>
        <time>2010-08-29T06:36:27Z</time>
      </trkpt>
      <trkpt lat="48.73172" lon="-0.19102">
        <ele>229.5</ele>
        <time>2010-08-29T06:36:32Z</time>
      </trkpt>
      <trkpt lat="48.73173" lon="-0.19115">
        <ele>230.5</ele>
        <time>2010-08-29T06:36:37Z</time>
      </trkpt>
      <trkpt lat="48.73174" lon="-0.19133">
        <ele>232.1</ele>
        <time>2010-08-29T06:36:42Z</time>
      </trkpt>
      <trkpt lat="48.73172" lon="-0.19144">
        <ele>233.5</ele>
        <time>2010-08-29T06:36:47Z</time>
      </trkpt>
      <trkpt lat="48.7317" lon="-0.19146">
        <ele>233.3</ele>
        <time>2010-08-29T06:36:48Z</time>
      </trkpt>
      <trkpt lat="48.73164" lon="-0.19159">
        <ele>234.1</ele>
        <time>2010-08-29T06:36:57Z</time>
      </trkpt>
      <trkpt lat="48.7316" lon="-0.19167">
        <ele>235.1</ele>
        <time>2010-08-29T06:37:02Z</time>
      </trkpt>
      <trkpt lat="48.73161" lon="-0.19183">
        <ele>234.3</ele>
        <time>2010-08-29T06:37:07Z</time>
      </trkpt>
      <trkpt lat="48.73159" lon="-0.19189">
        <ele>235.1</ele>
        <time>2010-08-29T06:37:12Z</time>
      </trkpt>
      <trkpt lat="48.73171" lon="-0.19203">
        <ele>235.5</ele>
        <time>2010-08-29T06:37:17Z</time>
      </trkpt>
      <trkpt lat="48.73167" lon="-0.19215">
        <ele>236.3</ele>
        <time>2010-08-29T06:37:22Z</time>
      </trkpt>
      <trkpt lat="48.73161" lon="-0.19221">
        <ele>233.6</ele>
        <time>2010-08-29T06:37:27Z</time>
      </trkpt>
      <trkpt lat="48.73158" lon="-0.1923">
        <ele>234.3</ele>
        <time>2010-08-29T06:37:32Z</time>
      </trkpt>
      <trkpt lat="48.73156" lon="-0.19241">
        <ele>232.6</ele>
        <time>2010-08-29T06:37:37Z</time>
      </trkpt>
      <trkpt lat="48.73154" lon="-0.19254">
        <ele>234.6</ele>
        <time>2010-08-29T06:37:42Z</time>
      </trkpt>
      <trkpt lat="48.7315" lon="-0.19267">
        <ele>234.6</ele>
        <time>2010-08-29T06:37:47Z</time>
      </trkpt>
      <trkpt lat="48.73147" lon="-0.19281">
        <ele>232.8</ele>
        <time>2010-08-29T06:37:52Z</time>
      </trkpt>
      <trkpt lat="48.73147" lon="-0.19283">
        <ele>232.3</ele>
        <time>2010-08-29T06:37:53Z</time>
      </trkpt>
      <trkpt lat="48.73145" lon="-0.19305">
        <ele>232.6</ele>
        <time>2010-08-29T06:38:02Z</time>
      </trkpt>
      <trkpt lat="48.73144" lon="-0.19316">
        <ele>233.3</ele>
        <time>2010-08-29T06:38:07Z</time>
      </trkpt>
      <trkpt lat="48.73142" lon="-0.19325">
        <ele>232.8</ele>
        <time>2010-08-29T06:38:12Z</time>
      </trkpt>
      <trkpt lat="48.73142" lon="-0.19333">
        <ele>233.5</ele>
        <time>2010-08-29T06:38:17Z</time>
      </trkpt>
      <trkpt lat="48.73142" lon="-0.19343">
        <ele>234.1</ele>
        <time>2010-08-29T06:38:22Z</time>
      </trkpt>
      <trkpt lat="48.7314" lon="-0.19357">
        <ele>234.8</ele>
        <time>2010-08-29T06:38:27Z</time>
      </trkpt>
      <trkpt lat="48.7314" lon="-0.19365">
        <ele>233.5</ele>
        <time>2010-08-29T06:38:32Z</time>
      </trkpt>
      <trkpt lat="48.73137" lon="-0.19377">
        <ele>233.6</ele>
        <time>2010-08-29T06:38:37Z</time>
      </trkpt>
      <trkpt lat="48.73134" lon="-0.1939">
        <ele>236.6</ele>
        <time>2010-08-29T06:38:42Z</time>
      </trkpt>
      <trkpt lat="48.73133" lon="-0.19401">
        <ele>235.3</ele>
        <time>2010-08-29T06:38:47Z</time>
      </trkpt>
      <trkpt lat="48.7313" lon="-0.19413">
        <ele>236</ele>
        <time>2010-08-29T06:38:52Z</time>
      </trkpt>
      <trkpt lat="48.73129" lon="-0.19424">
        <ele>236.8</ele>
        <time>2010-08-29T06:38:57Z</time>
      </trkpt>
      <trkpt lat="48.73128" lon="-0.19427">
        <ele>237.1</ele>
        <time>2010-08-29T06:38:58Z</time>
      </trkpt>
      <trkpt lat="48.73126" lon="-0.19445">
        <ele>235.8</ele>
        <time>2010-08-29T06:39:07Z</time>
      </trkpt>
      <trkpt lat="48.73124" lon="-0.19455">
        <ele>234.3</ele>
        <time>2010-08-29T06:39:12Z</time>
      </trkpt>
      <trkpt lat="48.73122" lon="-0.19463">
        <ele>234.6</ele>
        <time>2010-08-29T06:39:17Z</time>
      </trkpt>
      <trkpt lat="48.73122" lon="-0.19475">
        <ele>235.6</ele>
        <time>2010-08-29T06:39:22Z</time>
      </trkpt>
      <trkpt lat="48.7312" lon="-0.19484">
        <ele>235.5</ele>
        <time>2010-08-29T06:39:27Z</time>
      </trkpt>
      <trkpt lat="48.73119" lon="-0.1949">
        <ele>232.3</ele>
        <time>2010-08-29T06:39:32Z</time>
      </trkpt>
      <trkpt lat="48.7312" lon="-0.19498">
        <ele>232.1</ele>
        <time>2010-08-29T06:39:37Z</time>
      </trkpt>
      <trkpt lat="48.7312" lon="-0.19506">
        <ele>229.3</ele>
        <time>2010-08-29T06:39:42Z</time>
      </trkpt>
      <trkpt lat="48.73119" lon="-0.19514">
        <ele>229.1</ele>
        <time>2010-08-29T06:39:47Z</time>
      </trkpt>
      <trkpt lat="48.73116" lon="-0.19522">
        <ele>230.8</ele>
        <time>2010-08-29T06:39:52Z</time>
      </trkpt>
      <trkpt lat="48.73116" lon="-0.19531">
        <ele>231.3</ele>
        <time>2010-08-29T06:39:57Z</time>
      </trkpt>
      <trkpt lat="48.73115" lon="-0.1954">
        <ele>232.5</ele>
        <time>2010-08-29T06:40:02Z</time>
      </trkpt>
      <trkpt lat="48.73115" lon="-0.19541">
        <ele>232.5</ele>
        <time>2010-08-29T06:40:03Z</time>
      </trkpt>
      <trkpt lat="48.7311" lon="-0.19555">
        <ele>234</ele>
        <time>2010-08-29T06:40:12Z</time>
      </trkpt>
      <trkpt lat="48.7311" lon="-0.19565">
        <ele>234.6</ele>
        <time>2010-08-29T06:40:17Z</time>
      </trkpt>
      <trkpt lat="48.73106" lon="-0.19575">
        <ele>236.5</ele>
        <time>2010-08-29T06:40:22Z</time>
      </trkpt>
      <trkpt lat="48.73105" lon="-0.19583">
        <ele>237.1</ele>
        <time>2010-08-29T06:40:27Z</time>
      </trkpt>
      <trkpt lat="48.73106" lon="-0.19596">
        <ele>238.3</ele>
        <time>2010-08-29T06:40:32Z</time>
      </trkpt>
      <trkpt lat="48.73104" lon="-0.19604">
        <ele>238.3</ele>
        <time>2010-08-29T06:40:37Z</time>
      </trkpt>
      <trkpt lat="48.73101" lon="-0.19613">
        <ele>237.6</ele>
        <time>2010-08-29T06:40:42Z</time>
      </trkpt>
      <trkpt lat="48.73103" lon="-0.19623">
        <ele>237.5</ele>
        <time>2010-08-29T06:40:47Z</time>
      </trkpt>
      <trkpt lat="48.73103" lon="-0.19631">
        <ele>237.8</ele>
        <time>2010-08-29T06:40:52Z</time>
      </trkpt>
      <trkpt lat="48.73102" lon="-0.19641">
        <ele>237.5</ele>
        <time>2010-08-29T06:40:57Z</time>
      </trkpt>
      <trkpt lat="48.73102" lon="-0.19653">
        <ele>238</ele>
        <time>2010-08-29T06:41:02Z</time>
      </trkpt>
      <trkpt lat="48.73101" lon="-0.19659">
        <ele>237.5</ele>
        <time>2010-08-29T06:41:07Z</time>
      </trkpt>
      <trkpt lat="48.73101" lon="-0.1966">
        <ele>237.6</ele>
        <time>2010-08-29T06:41:08Z</time>
      </trkpt>
      <trkpt lat="48.73098" lon="-0.19678">
        <ele>239.3</ele>
        <time>2010-08-29T06:41:17Z</time>
      </trkpt>
      <trkpt lat="48.73096" lon="-0.19687">
        <ele>241.1</ele>
        <time>2010-08-29T06:41:22Z</time>
      </trkpt>
      <trkpt lat="48.73095" lon="-0.19697">
        <ele>243</ele>
        <time>2010-08-29T06:41:27Z</time>
      </trkpt>
      <trkpt lat="48.73095" lon="-0.19706">
        <ele>244.6</ele>
        <time>2010-08-29T06:41:32Z</time>
      </trkpt>
      <trkpt lat="48.73099" lon="-0.1972">
        <ele>245.1</ele>
        <time>2010-08-29T06:41:37Z</time>
      </trkpt>
      <trkpt lat="48.73099" lon="-0.19728">
        <ele>245.6</ele>
        <time>2010-08-29T06:41:42Z</time>
      </trkpt>
      <trkpt lat="48.73098" lon="-0.19736">
        <ele>244.8</ele>
        <time>2010-08-29T06:41:47Z</time>
      </trkpt>
      <trkpt lat="48.731" lon="-0.19748">
        <ele>245</ele>
        <time>2010-08-29T06:41:52Z</time>
      </trkpt>
      <trkpt lat="48.73099" lon="-0.19753">
        <ele>242.3</ele>
        <time>2010-08-29T06:41:57Z</time>
      </trkpt>
      <trkpt lat="48.73094" lon="-0.19763">
        <ele>242.5</ele>
        <time>2010-08-29T06:42:02Z</time>
      </trkpt>
      <trkpt lat="48.73092" lon="-0.19773">
        <ele>242</ele>
        <time>2010-08-29T06:42:07Z</time>
      </trkpt>
      <trkpt lat="48.73089" lon="-0.19783">
        <ele>241.5</ele>
        <time>2010-08-29T06:42:12Z</time>
      </trkpt>
      <trkpt lat="48.73089" lon="-0.19783">
        <ele>241.5</ele>
        <time>2010-08-29T06:42:13Z</time>
      </trkpt>
      <trkpt lat="48.73089" lon="-0.19784">
        <ele>242.3</ele>
        <time>2010-08-29T06:42:22Z</time>
      </trkpt>
      <trkpt lat="48.73086" lon="-0.19788">
        <ele>241.3</ele>
        <time>2010-08-29T06:42:27Z</time>
      </trkpt>
      <trkpt lat="48.73086" lon="-0.198">
        <ele>241.1</ele>
        <time>2010-08-29T06:42:32Z</time>
      </trkpt>
      <trkpt lat="48.73086" lon="-0.19807">
        <ele>241.5</ele>
        <time>2010-08-29T06:42:37Z</time>
      </trkpt>
      <trkpt lat="48.73084" lon="-0.19817">
        <ele>241.3</ele>
        <time>2010-08-29T06:42:42Z</time>
      </trkpt>
      <trkpt lat="48.73082" lon="-0.19827">
        <ele>243.8</ele>
        <time>2010-08-29T06:42:47Z</time>
      </trkpt>
      <trkpt lat="48.7308" lon="-0.19833">
        <ele>243</ele>
        <time>2010-08-29T06:42:52Z</time>
      </trkpt>
      <trkpt lat="48.7308" lon="-0.19843">
        <ele>242</ele>
        <time>2010-08-29T06:42:57Z</time>
      </trkpt>
      <trkpt lat="48.73082" lon="-0.1985">
        <ele>241.1</ele>
        <time>2010-08-29T06:43:02Z</time>
      </trkpt>
      <trkpt lat="48.73081" lon="-0.19855">
        <ele>241.1</ele>
        <time>2010-08-29T06:43:07Z</time>
      </trkpt>
      <trkpt lat="48.7308" lon="-0.19862">
        <ele>241.5</ele>
        <time>2010-08-29T06:43:12Z</time>
      </trkpt>
      <trkpt lat="48.7308" lon="-0.19877">
        <ele>240.1</ele>
        <time>2010-08-29T06:43:17Z</time>
      </trkpt>
      <trkpt lat="48.73079" lon="-0.19878">
        <ele>240.1</ele>
        <time>2010-08-29T06:43:18Z</time>
      </trkpt>
      <trkpt lat="48.73076" lon="-0.19908">
        <ele>239.3</ele>
        <time>2010-08-29T06:43:27Z</time>
      </trkpt>
      <trkpt lat="48.73073" lon="-0.19922">
        <ele>239.6</ele>
        <time>2010-08-29T06:43:32Z</time>
      </trkpt>
      <trkpt lat="48.73074" lon="-0.19935">
        <ele>238.8</ele>
        <time>2010-08-29T06:43:37Z</time>
      </trkpt>
      <trkpt lat="48.73074" lon="-0.19946">
        <ele>238.5</ele>
        <time>2010-08-29T06:43:42Z</time>
      </trkpt>
      <trkpt lat="48.73072" lon="-0.19956">
        <ele>239</ele>
        <time>2010-08-29T06:43:47Z</time>
      </trkpt>
      <trkpt lat="48.73069" lon="-0.19968">
        <ele>239.3</ele>
        <time>2010-08-29T06:43:52Z</time>
      </trkpt>
      <trkpt lat="48.73065" lon="-0.19978">
        <ele>239.1</ele>
        <time>2010-08-29T06:43:57Z</time>
      </trkpt>
      <trkpt lat="48.73063" lon="-0.19987">
        <ele>236.5</ele>
        <time>2010-08-29T06:44:02Z</time>
      </trkpt>
      <trkpt lat="48.7306" lon="-0.2">
        <ele>236.6</ele>
        <time>2010-08-29T06:44:07Z</time>
      </trkpt>
      <trkpt lat="48.73059" lon="-0.20015">
        <ele>236.1</ele>
        <time>2010-08-29T06:44:12Z</time>
      </trkpt>
      <trkpt lat="48.73059" lon="-0.20025">
        <ele>235.5</ele>
        <time>2010-08-29T06:44:17Z</time>
      </trkpt>
      <trkpt lat="48.7306" lon="-0.20035">
        <ele>231.3</ele>
        <time>2010-08-29T06:44:22Z</time>
      </trkpt>
      <trkpt lat="48.7306" lon="-0.20037">
        <ele>231.6</ele>
        <time>2010-08-29T06:44:23Z</time>
      </trkpt>
      <trkpt lat="48.73056" lon="-0.20053">
        <ele>228.6</ele>
        <time>2010-08-29T06:44:32Z</time>
      </trkpt>
      <trkpt lat="48.73056" lon="-0.20063">
        <ele>227.3</ele>
        <time>2010-08-29T06:44:37Z</time>
      </trkpt>
      <trkpt lat="48.73056" lon="-0.20075">
        <ele>227.8</ele>
        <time>2010-08-29T06:44:42Z</time>
      </trkpt>
      <trkpt lat="48.73055" lon="-0.20084">
        <ele>228.5</ele>
        <time>2010-08-29T06:44:47Z</time>
      </trkpt>
      <trkpt lat="48.73052" lon="-0.20093">
        <ele>228.6</ele>
        <time>2010-08-29T06:44:52Z</time>
      </trkpt>
      <trkpt lat="48.73052" lon="-0.20103">
        <ele>228.1</ele>
        <time>2010-08-29T06:44:57Z</time>
      </trkpt>
      <trkpt lat="48.7305" lon="-0.20113">
        <ele>228.1</ele>
        <time>2010-08-29T06:45:02Z</time>
      </trkpt>
      <trkpt lat="48.73049" lon="-0.20124">
        <ele>229.1</ele>
        <time>2010-08-29T06:45:07Z</time>
      </trkpt>
      <trkpt lat="48.73049" lon="-0.20131">
        <ele>227.5</ele>
        <time>2010-08-29T06:45:12Z</time>
      </trkpt>
      <trkpt lat="48.73047" lon="-0.20139">
        <ele>227.5</ele>
        <time>2010-08-29T06:45:17Z</time>
      </trkpt>
      <trkpt lat="48.73043" lon="-0.20147">
        <ele>226.6</ele>
        <time>2010-08-29T06:45:22Z</time>
      </trkpt>
      <trkpt lat="48.73042" lon="-0.20157">
        <ele>226.8</ele>
        <time>2010-08-29T06:45:27Z</time>
      </trkpt>
      <trkpt lat="48.73041" lon="-0.20159">
        <ele>226.8</ele>
        <time>2010-08-29T06:45:28Z</time>
      </trkpt>
      <trkpt lat="48.73039" lon="-0.20179">
        <ele>228.5</ele>
        <time>2010-08-29T06:45:37Z</time>
      </trkpt>
      <trkpt lat="48.73037" lon="-0.20188">
        <ele>231.3</ele>
        <time>2010-08-29T06:45:42Z</time>
      </trkpt>
      <trkpt lat="48.73038" lon="-0.20198">
        <ele>230.3</ele>
        <time>2010-08-29T06:45:47Z</time>
      </trkpt>
      <trkpt lat="48.73036" lon="-0.20207">
        <ele>230.5</ele>
        <time>2010-08-29T06:45:52Z</time>
      </trkpt>
      <trkpt lat="48.73036" lon="-0.20218">
        <ele>230.5</ele>
        <time>2010-08-29T06:45:57Z</time>
      </trkpt>
      <trkpt lat="48.73036" lon="-0.2023">
        <ele>231.8</ele>
        <time>2010-08-29T06:46:02Z</time>
      </trkpt>
      <trkpt lat="48.73034" lon="-0.20241">
        <ele>232.1</ele>
        <time>2010-08-29T06:46:07Z</time>
      </trkpt>
      <trkpt lat="48.73032" lon="-0.20253">
        <ele>234.8</ele>
        <time>2010-08-29T06:46:12Z</time>
      </trkpt>
      <trkpt lat="48.73031" lon="-0.20259">
        <ele>234.3</ele>
        <time>2010-08-29T06:46:17Z</time>
      </trkpt>
      <trkpt lat="48.73029" lon="-0.20269">
        <ele>235.1</ele>
        <time>2010-08-29T06:46:22Z</time>
      </trkpt>
      <trkpt lat="48.73028" lon="-0.20279">
        <ele>236.3</ele>
        <time>2010-08-29T06:46:27Z</time>
      </trkpt>
      <trkpt lat="48.73025" lon="-0.2029">
        <ele>236.8</ele>
        <time>2010-08-29T06:46:32Z</time>
      </trkpt>
      <trkpt lat="48.73025" lon="-0.20292">
        <ele>237.1</ele>
        <time>2010-08-29T06:46:33Z</time>
      </trkpt>
      <trkpt lat="48.73022" lon="-0.20307">
        <ele>239.8</ele>
        <time>2010-08-29T06:46:42Z</time>
      </trkpt>
      <trkpt lat="48.73021" lon="-0.20316">
        <ele>240.8</ele>
        <time>2010-08-29T06:46:47Z</time>
      </trkpt>
      <trkpt lat="48.73019" lon="-0.20328">
        <ele>242.1</ele>
        <time>2010-08-29T06:46:52Z</time>
      </trkpt>
      <trkpt lat="48.73016" lon="-0.20341">
        <ele>243</ele>
        <time>2010-08-29T06:46:57Z</time>
      </trkpt>
      <trkpt lat="48.73014" lon="-0.20355">
        <ele>242.3</ele>
        <time>2010-08-29T06:47:02Z</time>
      </trkpt>
      <trkpt lat="48.73011" lon="-0.20364">
        <ele>243.1</ele>
        <time>2010-08-29T06:47:07Z</time>
      </trkpt>
      <trkpt lat="48.73011" lon="-0.20376">
        <ele>243.1</ele>
        <time>2010-08-29T06:47:12Z</time>
      </trkpt>
      <trkpt lat="48.73009" lon="-0.20385">
        <ele>246</ele>
        <time>2010-08-29T06:47:17Z</time>
      </trkpt>
      <trkpt lat="48.73007" lon="-0.20393">
        <ele>246.5</ele>
        <time>2010-08-29T06:47:22Z</time>
      </trkpt>
      <trkpt lat="48.73007" lon="-0.20402">
        <ele>247.6</ele>
        <time>2010-08-29T06:47:27Z</time>
      </trkpt>
      <trkpt lat="48.73007" lon="-0.2041">
        <ele>247.3</ele>
        <time>2010-08-29T06:47:32Z</time>
      </trkpt>
      <trkpt lat="48.73006" lon="-0.20419">
        <ele>247.1</ele>
        <time>2010-08-29T06:47:37Z</time>
      </trkpt>
      <trkpt lat="48.73006" lon="-0.2042">
        <ele>246.8</ele>
        <time>2010-08-29T06:47:38Z</time>
      </trkpt>
      <trkpt lat="48.73005" lon="-0.20432">
        <ele>246.1</ele>
        <time>2010-08-29T06:47:47Z</time>
      </trkpt>
      <trkpt lat="48.73004" lon="-0.20441">
        <ele>246.8</ele>
        <time>2010-08-29T06:47:52Z</time>
      </trkpt>
      <trkpt lat="48.73001" lon="-0.20452">
        <ele>246.8</ele>
        <time>2010-08-29T06:47:57Z</time>
      </trkpt>
      <trkpt lat="48.73001" lon="-0.20461">
        <ele>247</ele>
        <time>2010-08-29T06:48:02Z</time>
      </trkpt>
      <trkpt lat="48.72999" lon="-0.20467">
        <ele>245.5</ele>
        <time>2010-08-29T06:48:07Z</time>
      </trkpt>
      <trkpt lat="48.72996" lon="-0.20477">
        <ele>246.8</ele>
        <time>2010-08-29T06:48:12Z</time>
      </trkpt>
      <trkpt lat="48.72995" lon="-0.20485">
        <ele>247.8</ele>
        <time>2010-08-29T06:48:17Z</time>
      </trkpt>
      <trkpt lat="48.72998" lon="-0.20494">
        <ele>248.5</ele>
        <time>2010-08-29T06:48:22Z</time>
      </trkpt>
      <trkpt lat="48.72995" lon="-0.205">
        <ele>248.1</ele>
        <time>2010-08-29T06:48:27Z</time>
      </trkpt>
      <trkpt lat="48.72994" lon="-0.20507">
        <ele>248</ele>
        <time>2010-08-29T06:48:32Z</time>
      </trkpt>
      <trkpt lat="48.7299" lon="-0.20519">
        <ele>247.8</ele>
        <time>2010-08-29T06:48:37Z</time>
      </trkpt>
      <trkpt lat="48.72988" lon="-0.20532">
        <ele>248.3</ele>
        <time>2010-08-29T06:48:42Z</time>
      </trkpt>
      <trkpt lat="48.72989" lon="-0.20533">
        <ele>248</ele>
        <time>2010-08-29T06:48:43Z</time>
      </trkpt>
      <trkpt lat="48.72986" lon="-0.20552">
        <ele>247.6</ele>
        <time>2010-08-29T06:48:52Z</time>
      </trkpt>
      <trkpt lat="48.72983" lon="-0.20555">
        <ele>249.3</ele>
        <time>2010-08-29T06:48:57Z</time>
      </trkpt>
      <trkpt lat="48.72983" lon="-0.20573">
        <ele>251.5</ele>
        <time>2010-08-29T06:49:02Z</time>
      </trkpt>
      <trkpt lat="48.72984" lon="-0.20587">
        <ele>250.8</ele>
        <time>2010-08-29T06:49:07Z</time>
      </trkpt>
      <trkpt lat="48.72985" lon="-0.20598">
        <ele>250.8</ele>
        <time>2010-08-29T06:49:12Z</time>
      </trkpt>
      <trkpt lat="48.72986" lon="-0.20612">
        <ele>249.6</ele>
        <time>2010-08-29T06:49:17Z</time>
      </trkpt>
      <trkpt lat="48.72985" lon="-0.2062">
        <ele>249.1</ele>
        <time>2010-08-29T06:49:22Z</time>
      </trkpt>
      <trkpt lat="48.72983" lon="-0.20634">
        <ele>248.6</ele>
        <time>2010-08-29T06:49:27Z</time>
      </trkpt>
      <trkpt lat="48.72982" lon="-0.20643">
        <ele>248.6</ele>
        <time>2010-08-29T06:49:32Z</time>
      </trkpt>
      <trkpt lat="48.72977" lon="-0.20652">
        <ele>248.8</ele>
        <time>2010-08-29T06:49:37Z</time>
      </trkpt>
      <trkpt lat="48.72975" lon="-0.20664">
        <ele>247.6</ele>
        <time>2010-08-29T06:49:42Z</time>
      </trkpt>
      <trkpt lat="48.72975" lon="-0.20676">
        <ele>248.1</ele>
        <time>2010-08-29T06:49:47Z</time>
      </trkpt>
      <trkpt lat="48.72974" lon="-0.20679">
        <ele>248.6</ele>
        <time>2010-08-29T06:49:48Z</time>
      </trkpt>
      <trkpt lat="48.72969" lon="-0.2069">
        <ele>248.8</ele>
        <time>2010-08-29T06:49:57Z</time>
      </trkpt>
      <trkpt lat="48.72969" lon="-0.20699">
        <ele>247.1</ele>
        <time>2010-08-29T06:50:02Z</time>
      </trkpt>
      <trkpt lat="48.72965" lon="-0.20712">
        <ele>247.5</ele>
        <time>2010-08-29T06:50:07Z</time>
      </trkpt>
      <trkpt lat="48.72964" lon="-0.20724">
        <ele>246.8</ele>
        <time>2010-08-29T06:50:12Z</time>
      </trkpt>
      <trkpt lat="48.72962" lon="-0.20739">
        <ele>245.5</ele>
        <time>2010-08-29T06:50:17Z</time>
      </trkpt>
      <trkpt lat="48.72962" lon="-0.20757">
        <ele>245.6</ele>
        <time>2010-08-29T06:50:22Z</time>
      </trkpt>
      <trkpt lat="48.72963" lon="-0.20766">
        <ele>245.6</ele>
        <time>2010-08-29T06:50:27Z</time>
      </trkpt>
      <trkpt lat="48.72969" lon="-0.20777">
        <ele>243.3</ele>
        <time>2010-08-29T06:50:32Z</time>
      </trkpt>
      <trkpt lat="48.72972" lon="-0.20783">
        <ele>241.1</ele>
        <time>2010-08-29T06:50:37Z</time>
      </trkpt>
      <trkpt lat="48.72976" lon="-0.2079">
        <ele>239.6</ele>
        <time>2010-08-29T06:50:42Z</time>
      </trkpt>
      <trkpt lat="48.72978" lon="-0.20801">
        <ele>238.3</ele>
        <time>2010-08-29T06:50:47Z</time>
      </trkpt>
      <trkpt lat="48.7298" lon="-0.20817">
        <ele>238.5</ele>
        <time>2010-08-29T06:50:52Z</time>
      </trkpt>
      <trkpt lat="48.7298" lon="-0.20818">
        <ele>238.5</ele>
        <time>2010-08-29T06:50:53Z</time>
      </trkpt>
      <trkpt lat="48.72986" lon="-0.20829">
        <ele>237.8</ele>
        <time>2010-08-29T06:51:02Z</time>
      </trkpt>
      <trkpt lat="48.72987" lon="-0.20843">
        <ele>238.3</ele>
        <time>2010-08-29T06:51:07Z</time>
      </trkpt>
      <trkpt lat="48.72991" lon="-0.20853">
        <ele>239.5</ele>
        <time>2010-08-29T06:51:12Z</time>
      </trkpt>
      <trkpt lat="48.72996" lon="-0.2086">
        <ele>238.8</ele>
        <time>2010-08-29T06:51:17Z</time>
      </trkpt>
      <trkpt lat="48.72999" lon="-0.20871">
        <ele>240.3</ele>
        <time>2010-08-29T06:51:22Z</time>
      </trkpt>
      <trkpt lat="48.73003" lon="-0.20881">
        <ele>239.3</ele>
        <time>2010-08-29T06:51:27Z</time>
      </trkpt>
      <trkpt lat="48.73007" lon="-0.20887">
        <ele>240.1</ele>
        <time>2010-08-29T06:51:32Z</time>
      </trkpt>
      <trkpt lat="48.73009" lon="-0.20892">
        <ele>240</ele>
        <time>2010-08-29T06:51:37Z</time>
      </trkpt>
      <trkpt lat="48.73014" lon="-0.209">
        <ele>239.6</ele>
        <time>2010-08-29T06:51:42Z</time>
      </trkpt>
      <trkpt lat="48.73019" lon="-0.20905">
        <ele>238.6</ele>
        <time>2010-08-29T06:51:47Z</time>
      </trkpt>
      <trkpt lat="48.73023" lon="-0.2091">
        <ele>239.8</ele>
        <time>2010-08-29T06:51:52Z</time>
      </trkpt>
      <trkpt lat="48.73029" lon="-0.20917">
        <ele>239.5</ele>
        <time>2010-08-29T06:51:57Z</time>
      </trkpt>
      <trkpt lat="48.7303" lon="-0.20918">
        <ele>239.3</ele>
        <time>2010-08-29T06:51:58Z</time>
      </trkpt>
      <trkpt lat="48.73044" lon="-0.20931">
        <ele>239.5</ele>
        <time>2010-08-29T06:52:07Z</time>
      </trkpt>
      <trkpt lat="48.73051" lon="-0.20939">
        <ele>238.6</ele>
        <time>2010-08-29T06:52:12Z</time>
      </trkpt>
      <trkpt lat="48.73052" lon="-0.20942">
        <ele>237.8</ele>
        <time>2010-08-29T06:52:17Z</time>
      </trkpt>
      <trkpt lat="48.73055" lon="-0.20951">
        <ele>237.1</ele>
        <time>2010-08-29T06:52:22Z</time>
      </trkpt>
      <trkpt lat="48.73056" lon="-0.20956">
        <ele>235.8</ele>
        <time>2010-08-29T06:52:27Z</time>
      </trkpt>
      <trkpt lat="48.73061" lon="-0.20966">
        <ele>235.1</ele>
        <time>2010-08-29T06:52:32Z</time>
      </trkpt>
      <trkpt lat="48.73063" lon="-0.20973">
        <ele>232.6</ele>
        <time>2010-08-29T06:52:37Z</time>
      </trkpt>
      <trkpt lat="48.73065" lon="-0.20978">
        <ele>231.8</ele>
        <time>2010-08-29T06:52:42Z</time>
      </trkpt>
      <trkpt lat="48.73067" lon="-0.20986">
        <ele>230.8</ele>
        <time>2010-08-29T06:52:47Z</time>
      </trkpt>
      <trkpt lat="48.73074" lon="-0.21001">
        <ele>230.6</ele>
        <time>2010-08-29T06:52:52Z</time>
      </trkpt>
      <trkpt lat="48.73077" lon="-0.21012">
        <ele>230.5</ele>
        <time>2010-08-29T06:52:57Z</time>
      </trkpt>
      <trkpt lat="48.73081" lon="-0.21024">
        <ele>230.6</ele>
        <time>2010-08-29T06:53:02Z</time>
      </trkpt>
      <trkpt lat="48.73082" lon="-0.21026">
        <ele>230.1</ele>
        <time>2010-08-29T06:53:03Z</time>
      </trkpt>
      <trkpt lat="48.73085" lon="-0.21042">
        <ele>230.5</ele>
        <time>2010-08-29T06:53:12Z</time>
      </trkpt>
      <trkpt lat="48.73088" lon="-0.21053">
        <ele>230.3</ele>
        <time>2010-08-29T06:53:17Z</time>
      </trkpt>
      <trkpt lat="48.73092" lon="-0.21066">
        <ele>232</ele>
        <time>2010-08-29T06:53:22Z</time>
      </trkpt>
      <trkpt lat="48.73092" lon="-0.21071">
        <ele>230.1</ele>
        <time>2010-08-29T06:53:27Z</time>
      </trkpt>
      <trkpt lat="48.73096" lon="-0.21081">
        <ele>230.1</ele>
        <time>2010-08-29T06:53:32Z</time>
      </trkpt>
      <trkpt lat="48.73099" lon="-0.21089">
        <ele>229.3</ele>
        <time>2010-08-29T06:53:37Z</time>
      </trkpt>
      <trkpt lat="48.73102" lon="-0.21097">
        <ele>229.3</ele>
        <time>2010-08-29T06:53:42Z</time>
      </trkpt>
      <trkpt lat="48.73105" lon="-0.21112">
        <ele>228.8</ele>
        <time>2010-08-29T06:53:47Z</time>
      </trkpt>
      <trkpt lat="48.73107" lon="-0.21125">
        <ele>228.8</ele>
        <time>2010-08-29T06:53:52Z</time>
      </trkpt>
      <trkpt lat="48.73111" lon="-0.21133">
        <ele>227.8</ele>
        <time>2010-08-29T06:53:57Z</time>
      </trkpt>
      <trkpt lat="48.73115" lon="-0.21142">
        <ele>228</ele>
        <time>2010-08-29T06:54:02Z</time>
      </trkpt>
      <trkpt lat="48.73115" lon="-0.21151">
        <ele>227.5</ele>
        <time>2010-08-29T06:54:07Z</time>
      </trkpt>
      <trkpt lat="48.73115" lon="-0.21152">
        <ele>227.5</ele>
        <time>2010-08-29T06:54:08Z</time>
      </trkpt>
      <trkpt lat="48.73119" lon="-0.21172">
        <ele>227.3</ele>
        <time>2010-08-29T06:54:17Z</time>
      </trkpt>
      <trkpt lat="48.73122" lon="-0.21181">
        <ele>226</ele>
        <time>2010-08-29T06:54:22Z</time>
      </trkpt>
      <trkpt lat="48.73126" lon="-0.21192">
        <ele>226.5</ele>
        <time>2010-08-29T06:54:27Z</time>
      </trkpt>
      <trkpt lat="48.73134" lon="-0.2119">
        <ele>224.8</ele>
        <time>2010-08-29T06:54:32Z</time>
      </trkpt>
      <trkpt lat="48.7314" lon="-0.21186">
        <ele>223.1</ele>
        <time>2010-08-29T06:54:37Z</time>
      </trkpt>
      <trkpt lat="48.73141" lon="-0.21181">
        <ele>221.5</ele>
        <time>2010-08-29T06:54:42Z</time>
      </trkpt>
      <trkpt lat="48.73146" lon="-0.21174">
        <ele>221.5</ele>
        <time>2010-08-29T06:54:47Z</time>
      </trkpt>
      <trkpt lat="48.73151" lon="-0.21169">
        <ele>222.3</ele>
        <time>2010-08-29T06:54:52Z</time>
      </trkpt>
      <trkpt lat="48.73153" lon="-0.21168">
        <ele>223</ele>
        <time>2010-08-29T06:54:57Z</time>
      </trkpt>
      <trkpt lat="48.7316" lon="-0.21164">
        <ele>222.6</ele>
        <time>2010-08-29T06:55:02Z</time>
      </trkpt>
      <trkpt lat="48.73167" lon="-0.2115">
        <ele>222.3</ele>
        <time>2010-08-29T06:55:07Z</time>
      </trkpt>
      <trkpt lat="48.73172" lon="-0.21145">
        <ele>222.3</ele>
        <time>2010-08-29T06:55:12Z</time>
      </trkpt>
      <trkpt lat="48.73174" lon="-0.21143">
        <ele>222.1</ele>
        <time>2010-08-29T06:55:13Z</time>
      </trkpt>
      <trkpt lat="48.73182" lon="-0.21136">
        <ele>220.8</ele>
        <time>2010-08-29T06:55:22Z</time>
      </trkpt>
      <trkpt lat="48.73182" lon="-0.21134">
        <ele>221</ele>
        <time>2010-08-29T06:55:27Z</time>
      </trkpt>
      <trkpt lat="48.73188" lon="-0.21129">
        <ele>221</ele>
        <time>2010-08-29T06:55:32Z</time>
      </trkpt>
      <trkpt lat="48.73195" lon="-0.21116">
        <ele>220.5</ele>
        <time>2010-08-29T06:55:37Z</time>
      </trkpt>
      <trkpt lat="48.73205" lon="-0.21108">
        <ele>220.6</ele>
        <time>2010-08-29T06:55:42Z</time>
      </trkpt>
      <trkpt lat="48.73216" lon="-0.21098">
        <ele>220.3</ele>
        <time>2010-08-29T06:55:47Z</time>
      </trkpt>
      <trkpt lat="48.73222" lon="-0.21089">
        <ele>220.6</ele>
        <time>2010-08-29T06:55:52Z</time>
      </trkpt>
      <trkpt lat="48.73219" lon="-0.21077">
        <ele>219.5</ele>
        <time>2010-08-29T06:55:57Z</time>
      </trkpt>
      <trkpt lat="48.73228" lon="-0.2107">
        <ele>220</ele>
        <time>2010-08-29T06:56:02Z</time>
      </trkpt>
      <trkpt lat="48.73236" lon="-0.21069">
        <ele>221</ele>
        <time>2010-08-29T06:56:07Z</time>
      </trkpt>
      <trkpt lat="48.73239" lon="-0.21065">
        <ele>220</ele>
        <time>2010-08-29T06:56:12Z</time>
      </trkpt>
      <trkpt lat="48.73247" lon="-0.2106">
        <ele>221.1</ele>
        <time>2010-08-29T06:56:17Z</time>
      </trkpt>
      <trkpt lat="48.7325" lon="-0.21057">
        <ele>220.1</ele>
        <time>2010-08-29T06:56:18Z</time>
      </trkpt>
      <trkpt lat="48.73265" lon="-0.21045">
        <ele>217.8</ele>
        <time>2010-08-29T06:56:27Z</time>
      </trkpt>
      <trkpt lat="48.73272" lon="-0.2104">
        <ele>216.6</ele>
        <time>2010-08-29T06:56:32Z</time>
      </trkpt>
      <trkpt lat="48.73278" lon="-0.21033">
        <ele>217.5</ele>
        <time>2010-08-29T06:56:37Z</time>
      </trkpt>
      <trkpt lat="48.7328" lon="-0.21029">
        <ele>215.5</ele>
        <time>2010-08-29T06:56:42Z</time>
      </trkpt>
      <trkpt lat="48.73288" lon="-0.21029">
        <ele>216</ele>
        <time>2010-08-29T06:56:47Z</time>
      </trkpt>
      <trkpt lat="48.73293" lon="-0.21025">
        <ele>216.1</ele>
        <time>2010-08-29T06:56:52Z</time>
      </trkpt>
      <trkpt lat="48.733" lon="-0.21024">
        <ele>215.3</ele>
        <time>2010-08-29T06:56:57Z</time>
      </trkpt>
      <trkpt lat="48.73304" lon="-0.21026">
        <ele>216.1</ele>
        <time>2010-08-29T06:57:02Z</time>
      </trkpt>
      <trkpt lat="48.73313" lon="-0.2103">
        <ele>214</ele>
        <time>2010-08-29T06:57:07Z</time>
      </trkpt>
      <trkpt lat="48.73317" lon="-0.21029">
        <ele>213.6</ele>
        <time>2010-08-29T06:57:12Z</time>
      </trkpt>
      <trkpt lat="48.73322" lon="-0.21023">
        <ele>213.3</ele>
        <time>2010-08-29T06:57:17Z</time>
      </trkpt>
      <trkpt lat="48.73326" lon="-0.21017">
        <ele>213.3</ele>
        <time>2010-08-29T06:57:22Z</time>
      </trkpt>
      <trkpt lat="48.73327" lon="-0.21016">
        <ele>213.3</ele>
        <time>2010-08-29T06:57:23Z</time>
      </trkpt>
      <trkpt lat="48.73336" lon="-0.20998">
        <ele>213.5</ele>
        <time>2010-08-29T06:57:32Z</time>
      </trkpt>
      <trkpt lat="48.73338" lon="-0.20993">
        <ele>214.6</ele>
        <time>2010-08-29T06:57:37Z</time>
      </trkpt>
      <trkpt lat="48.73339" lon="-0.20984">
        <ele>216.1</ele>
        <time>2010-08-29T06:57:42Z</time>
      </trkpt>
      <trkpt lat="48.73343" lon="-0.20971">
        <ele>216.6</ele>
        <time>2010-08-29T06:57:47Z</time>
      </trkpt>
      <trkpt lat="48.73342" lon="-0.20962">
        <ele>216.1</ele>
        <time>2010-08-29T06:57:52Z</time>
      </trkpt>
      <trkpt lat="48.73346" lon="-0.20952">
        <ele>215.5</ele>
        <time>2010-08-29T06:57:57Z</time>
      </trkpt>
      <trkpt lat="48.73348" lon="-0.20947">
        <ele>214.8</ele>
        <time>2010-08-29T06:58:02Z</time>
      </trkpt>
      <trkpt lat="48.73354" lon="-0.2094">
        <ele>214.1</ele>
        <time>2010-08-29T06:58:07Z</time>
      </trkpt>
      <trkpt lat="48.73359" lon="-0.20926">
        <ele>212.1</ele>
        <time>2010-08-29T06:58:12Z</time>
      </trkpt>
      <trkpt lat="48.7336" lon="-0.20915">
        <ele>212.1</ele>
        <time>2010-08-29T06:58:17Z</time>
      </trkpt>
      <trkpt lat="48.73362" lon="-0.20905">
        <ele>210.1</ele>
        <time>2010-08-29T06:58:22Z</time>
      </trkpt>
      <trkpt lat="48.73362" lon="-0.20894">
        <ele>209.6</ele>
        <time>2010-08-29T06:58:27Z</time>
      </trkpt>
      <trkpt lat="48.73364" lon="-0.20892">
        <ele>210.1</ele>
        <time>2010-08-29T06:58:28Z</time>
      </trkpt>
      <trkpt lat="48.73366" lon="-0.20872">
        <ele>211.6</ele>
        <time>2010-08-29T06:58:37Z</time>
      </trkpt>
      <trkpt lat="48.73368" lon="-0.20863">
        <ele>211.1</ele>
        <time>2010-08-29T06:58:42Z</time>
      </trkpt>
      <trkpt lat="48.7337" lon="-0.20853">
        <ele>212</ele>
        <time>2010-08-29T06:58:47Z</time>
      </trkpt>
      <trkpt lat="48.73368" lon="-0.20844">
        <ele>210.3</ele>
        <time>2010-08-29T06:58:52Z</time>
      </trkpt>
      <trkpt lat="48.73368" lon="-0.20829">
        <ele>210</ele>
        <time>2010-08-29T06:58:57Z</time>
      </trkpt>
      <trkpt lat="48.73367" lon="-0.20819">
        <ele>209.8</ele>
        <time>2010-08-29T06:59:02Z</time>
      </trkpt>
      <trkpt lat="48.73368" lon="-0.20807">
        <ele>209.6</ele>
        <time>2010-08-29T06:59:07Z</time>
      </trkpt>
      <trkpt lat="48.7337" lon="-0.20798">
        <ele>210.3</ele>
        <time>2010-08-29T06:59:12Z</time>
      </trkpt>
      <trkpt lat="48.73375" lon="-0.20785">
        <ele>210.6</ele>
        <time>2010-08-29T06:59:17Z</time>
      </trkpt>
      <trkpt lat="48.73377" lon="-0.20773">
        <ele>210.8</ele>
        <time>2010-08-29T06:59:22Z</time>
      </trkpt>
      <trkpt lat="48.73381" lon="-0.20762">
        <ele>211.3</ele>
        <time>2010-08-29T06:59:27Z</time>
      </trkpt>
      <trkpt lat="48.73385" lon="-0.20754">
        <ele>210.8</ele>
        <time>2010-08-29T06:59:32Z</time>
      </trkpt>
      <trkpt lat="48.73385" lon="-0.20752">
        <ele>211.1</ele>
        <time>2010-08-29T06:59:33Z</time>
      </trkpt>
      <trkpt lat="48.73387" lon="-0.20743">
        <ele>211.1</ele>
        <time>2010-08-29T06:59:42Z</time>
      </trkpt>
      <trkpt lat="48.73389" lon="-0.20738">
        <ele>214</ele>
        <time>2010-08-29T06:59:46Z</time>
      </trkpt>
      <trkpt lat="48.73385" lon="-0.20728">
        <ele>214.1</ele>
        <time>2010-08-29T06:59:51Z</time>
      </trkpt>
      <trkpt lat="48.73387" lon="-0.20717">
        <ele>215.1</ele>
        <time>2010-08-29T06:59:56Z</time>
      </trkpt>
      <trkpt lat="48.73386" lon="-0.20707">
        <ele>216.3</ele>
        <time>2010-08-29T07:00:01Z</time>
      </trkpt>
      <trkpt lat="48.73388" lon="-0.20697">
        <ele>218.3</ele>
        <time>2010-08-29T07:00:06Z</time>
      </trkpt>
      <trkpt lat="48.73391" lon="-0.2069">
        <ele>218.6</ele>
        <time>2010-08-29T07:00:11Z</time>
      </trkpt>
      <trkpt lat="48.73395" lon="-0.20673">
        <ele>217.3</ele>
        <time>2010-08-29T07:00:16Z</time>
      </trkpt>
      <trkpt lat="48.73398" lon="-0.20664">
        <ele>217</ele>
        <time>2010-08-29T07:00:21Z</time>
      </trkpt>
      <trkpt lat="48.73402" lon="-0.20655">
        <ele>216.6</ele>
        <time>2010-08-29T07:00:26Z</time>
      </trkpt>
      <trkpt lat="48.73408" lon="-0.20639">
        <ele>217</ele>
        <time>2010-08-29T07:00:31Z</time>
      </trkpt>
      <trkpt lat="48.73404" lon="-0.2063">
        <ele>218.3</ele>
        <time>2010-08-29T07:00:35Z</time>
      </trkpt>
      <trkpt lat="48.73404" lon="-0.20628">
        <ele>219</ele>
        <time>2010-08-29T07:00:36Z</time>
      </trkpt>
      <trkpt lat="48.73406" lon="-0.20614">
        <ele>218.8</ele>
        <time>2010-08-29T07:00:45Z</time>
      </trkpt>
      <trkpt lat="48.73409" lon="-0.20603">
        <ele>218.8</ele>
        <time>2010-08-29T07:00:50Z</time>
      </trkpt>
      <trkpt lat="48.73411" lon="-0.20592">
        <ele>220</ele>
        <time>2010-08-29T07:00:55Z</time>
      </trkpt>
      <trkpt lat="48.73416" lon="-0.20583">
        <ele>220.3</ele>
        <time>2010-08-29T07:01:00Z</time>
      </trkpt>
      <trkpt lat="48.73417" lon="-0.20573">
        <ele>218.3</ele>
        <time>2010-08-29T07:01:05Z</time>
      </trkpt>
      <trkpt lat="48.73417" lon="-0.20558">
        <ele>216.3</ele>
        <time>2010-08-29T07:01:10Z</time>
      </trkpt>
      <trkpt lat="48.73418" lon="-0.20545">
        <ele>214.1</ele>
        <time>2010-08-29T07:01:15Z</time>
      </trkpt>
      <trkpt lat="48.73419" lon="-0.20535">
        <ele>215.1</ele>
        <time>2010-08-29T07:01:20Z</time>
      </trkpt>
      <trkpt lat="48.73421" lon="-0.20524">
        <ele>216.3</ele>
        <time>2010-08-29T07:01:25Z</time>
      </trkpt>
      <trkpt lat="48.73426" lon="-0.20514">
        <ele>214.5</ele>
        <time>2010-08-29T07:01:30Z</time>
      </trkpt>
      <trkpt lat="48.7343" lon="-0.20504">
        <ele>213.6</ele>
        <time>2010-08-29T07:01:34Z</time>
      </trkpt>
      <trkpt lat="48.73439" lon="-0.20495">
        <ele>212.5</ele>
        <time>2010-08-29T07:01:39Z</time>
      </trkpt>
      <trkpt lat="48.73438" lon="-0.20493">
        <ele>212.5</ele>
        <time>2010-08-29T07:01:40Z</time>
      </trkpt>
      <trkpt lat="48.7344" lon="-0.2048">
        <ele>212.8</ele>
        <time>2010-08-29T07:01:49Z</time>
      </trkpt>
      <trkpt lat="48.73449" lon="-0.20467">
        <ele>214.3</ele>
        <time>2010-08-29T07:01:54Z</time>
      </trkpt>
      <trkpt lat="48.73453" lon="-0.20461">
        <ele>215.8</ele>
        <time>2010-08-29T07:01:59Z</time>
      </trkpt>
      <trkpt lat="48.73456" lon="-0.20456">
        <ele>218.3</ele>
        <time>2010-08-29T07:02:04Z</time>
      </trkpt>
      <trkpt lat="48.73457" lon="-0.20445">
        <ele>218.3</ele>
        <time>2010-08-29T07:02:09Z</time>
      </trkpt>
      <trkpt lat="48.73459" lon="-0.20443">
        <ele>218.6</ele>
        <time>2010-08-29T07:02:14Z</time>
      </trkpt>
      <trkpt lat="48.73463" lon="-0.2043">
        <ele>217.1</ele>
        <time>2010-08-29T07:02:19Z</time>
      </trkpt>
      <trkpt lat="48.73468" lon="-0.20426">
        <ele>217.8</ele>
        <time>2010-08-29T07:02:24Z</time>
      </trkpt>
      <trkpt lat="48.73474" lon="-0.20419">
        <ele>216.6</ele>
        <time>2010-08-29T07:02:29Z</time>
      </trkpt>
      <trkpt lat="48.73479" lon="-0.20409">
        <ele>216.8</ele>
        <time>2010-08-29T07:02:33Z</time>
      </trkpt>
      <trkpt lat="48.73485" lon="-0.20401">
        <ele>215.5</ele>
        <time>2010-08-29T07:02:38Z</time>
      </trkpt>
      <trkpt lat="48.73487" lon="-0.20397">
        <ele>216.3</ele>
        <time>2010-08-29T07:02:43Z</time>
      </trkpt>
      <trkpt lat="48.73489" lon="-0.20394">
        <ele>215.5</ele>
        <time>2010-08-29T07:02:44Z</time>
      </trkpt>
      <trkpt lat="48.73507" lon="-0.20385">
        <ele>212.8</ele>
        <time>2010-08-29T07:02:53Z</time>
      </trkpt>
      <trkpt lat="48.73509" lon="-0.20376">
        <ele>213.5</ele>
        <time>2010-08-29T07:02:58Z</time>
      </trkpt>
      <trkpt lat="48.7351" lon="-0.20372">
        <ele>214.3</ele>
        <time>2010-08-29T07:03:03Z</time>
      </trkpt>
      <trkpt lat="48.7351" lon="-0.20371">
        <ele>214.1</ele>
        <time>2010-08-29T07:03:08Z</time>
      </trkpt>
      <trkpt lat="48.73513" lon="-0.20369">
        <ele>213.1</ele>
        <time>2010-08-29T07:03:13Z</time>
      </trkpt>
      <trkpt lat="48.73522" lon="-0.20367">
        <ele>212.6</ele>
        <time>2010-08-29T07:03:18Z</time>
      </trkpt>
      <trkpt lat="48.73524" lon="-0.20357">
        <ele>213.3</ele>
        <time>2010-08-29T07:03:23Z</time>
      </trkpt>
      <trkpt lat="48.73531" lon="-0.2035">
        <ele>215.3</ele>
        <time>2010-08-29T07:03:28Z</time>
      </trkpt>
      <trkpt lat="48.73537" lon="-0.20345">
        <ele>214.8</ele>
        <time>2010-08-29T07:03:32Z</time>
      </trkpt>
      <trkpt lat="48.73542" lon="-0.20342">
        <ele>218.8</ele>
        <time>2010-08-29T07:03:37Z</time>
      </trkpt>
      <trkpt lat="48.73546" lon="-0.2034">
        <ele>218.6</ele>
        <time>2010-08-29T07:03:42Z</time>
      </trkpt>
      <trkpt lat="48.73549" lon="-0.20341">
        <ele>220.5</ele>
        <time>2010-08-29T07:03:47Z</time>
      </trkpt>
      <trkpt lat="48.7355" lon="-0.20342">
        <ele>220.3</ele>
        <time>2010-08-29T07:03:48Z</time>
      </trkpt>
      <trkpt lat="48.73567" lon="-0.20319">
        <ele>214.3</ele>
        <time>2010-08-29T07:03:57Z</time>
      </trkpt>
      <trkpt lat="48.73571" lon="-0.20306">
        <ele>213.3</ele>
        <time>2010-08-29T07:04:02Z</time>
      </trkpt>
      <trkpt lat="48.73575" lon="-0.20297">
        <ele>210.3</ele>
        <time>2010-08-29T07:04:07Z</time>
      </trkpt>
      <trkpt lat="48.73573" lon="-0.20291">
        <ele>209.8</ele>
        <time>2010-08-29T07:04:12Z</time>
      </trkpt>
      <trkpt lat="48.73572" lon="-0.20283">
        <ele>209.3</ele>
        <time>2010-08-29T07:04:17Z</time>
      </trkpt>
      <trkpt lat="48.73565" lon="-0.20276">
        <ele>210.3</ele>
        <time>2010-08-29T07:04:22Z</time>
      </trkpt>
      <trkpt lat="48.73563" lon="-0.20271">
        <ele>210.3</ele>
        <time>2010-08-29T07:04:27Z</time>
      </trkpt>
      <trkpt lat="48.73556" lon="-0.20267">
        <ele>210.1</ele>
        <time>2010-08-29T07:04:31Z</time>
      </trkpt>
      <trkpt lat="48.73554" lon="-0.20263">
        <ele>209.8</ele>
        <time>2010-08-29T07:04:35Z</time>
      </trkpt>
      <trkpt lat="48.73546" lon="-0.20256">
        <ele>209.1</ele>
        <time>2010-08-29T07:04:40Z</time>
      </trkpt>
      <trkpt lat="48.73541" lon="-0.20254">
        <ele>209.8</ele>
        <time>2010-08-29T07:04:45Z</time>
      </trkpt>
      <trkpt lat="48.73536" lon="-0.2025">
        <ele>209.1</ele>
        <time>2010-08-29T07:04:50Z</time>
      </trkpt>
      <trkpt lat="48.73533" lon="-0.20249">
        <ele>209.6</ele>
        <time>2010-08-29T07:04:51Z</time>
      </trkpt>
      <trkpt lat="48.73517" lon="-0.20234">
        <ele>212.8</ele>
        <time>2010-08-29T07:05:00Z</time>
      </trkpt>
      <trkpt lat="48.73515" lon="-0.20232">
        <ele>214.3</ele>
        <time>2010-08-29T07:05:05Z</time>
      </trkpt>
      <trkpt lat="48.73511" lon="-0.20229">
        <ele>215.1</ele>
        <time>2010-08-29T07:05:10Z</time>
      </trkpt>
      <trkpt lat="48.73505" lon="-0.20225">
        <ele>216.1</ele>
        <time>2010-08-29T07:05:15Z</time>
      </trkpt>
      <trkpt lat="48.73492" lon="-0.20218">
        <ele>217</ele>
        <time>2010-08-29T07:05:20Z</time>
      </trkpt>
      <trkpt lat="48.73486" lon="-0.20218">
        <ele>217</ele>
        <time>2010-08-29T07:05:25Z</time>
      </trkpt>
      <trkpt lat="48.73473" lon="-0.20209">
        <ele>217.1</ele>
        <time>2010-08-29T07:05:30Z</time>
      </trkpt>
      <trkpt lat="48.73465" lon="-0.20208">
        <ele>216</ele>
        <time>2010-08-29T07:05:34Z</time>
      </trkpt>
      <trkpt lat="48.73457" lon="-0.20202">
        <ele>216.3</ele>
        <time>2010-08-29T07:05:39Z</time>
      </trkpt>
      <trkpt lat="48.73449" lon="-0.20198">
        <ele>215</ele>
        <time>2010-08-29T07:05:44Z</time>
      </trkpt>
      <trkpt lat="48.73446" lon="-0.20197">
        <ele>215.3</ele>
        <time>2010-08-29T07:05:49Z</time>
      </trkpt>
      <trkpt lat="48.73438" lon="-0.20194">
        <ele>218</ele>
        <time>2010-08-29T07:05:54Z</time>
      </trkpt>
      <trkpt lat="48.73437" lon="-0.20195">
        <ele>218.5</ele>
        <time>2010-08-29T07:05:55Z</time>
      </trkpt>
      <trkpt lat="48.73425" lon="-0.20187">
        <ele>221</ele>
        <time>2010-08-29T07:06:04Z</time>
      </trkpt>
      <trkpt lat="48.73421" lon="-0.20184">
        <ele>221.8</ele>
        <time>2010-08-29T07:06:09Z</time>
      </trkpt>
      <trkpt lat="48.73417" lon="-0.20178">
        <ele>221.8</ele>
        <time>2010-08-29T07:06:14Z</time>
      </trkpt>
      <trkpt lat="48.73414" lon="-0.20168">
        <ele>223.3</ele>
        <time>2010-08-29T07:06:19Z</time>
      </trkpt>
      <trkpt lat="48.73419" lon="-0.20165">
        <ele>226.3</ele>
        <time>2010-08-29T07:06:24Z</time>
      </trkpt>
      <trkpt lat="48.73423" lon="-0.20157">
        <ele>226.8</ele>
        <time>2010-08-29T07:06:29Z</time>
      </trkpt>
      <trkpt lat="48.73426" lon="-0.20152">
        <ele>227.1</ele>
        <time>2010-08-29T07:06:33Z</time>
      </trkpt>
      <trkpt lat="48.73431" lon="-0.20146">
        <ele>228</ele>
        <time>2010-08-29T07:06:38Z</time>
      </trkpt>
      <trkpt lat="48.73431" lon="-0.20133">
        <ele>225.5</ele>
        <time>2010-08-29T07:06:43Z</time>
      </trkpt>
      <trkpt lat="48.73436" lon="-0.20123">
        <ele>224.1</ele>
        <time>2010-08-29T07:06:48Z</time>
      </trkpt>
      <trkpt lat="48.73433" lon="-0.20115">
        <ele>224.3</ele>
        <time>2010-08-29T07:06:53Z</time>
      </trkpt>
      <trkpt lat="48.73433" lon="-0.20109">
        <ele>223.8</ele>
        <time>2010-08-29T07:06:58Z</time>
      </trkpt>
      <trkpt lat="48.73433" lon="-0.20107">
        <ele>223.1</ele>
        <time>2010-08-29T07:06:59Z</time>
      </trkpt>
      <trkpt lat="48.73432" lon="-0.20084">
        <ele>222.5</ele>
        <time>2010-08-29T07:07:08Z</time>
      </trkpt>
      <trkpt lat="48.73431" lon="-0.20072">
        <ele>223.6</ele>
        <time>2010-08-29T07:07:13Z</time>
      </trkpt>
      <trkpt lat="48.73429" lon="-0.20067">
        <ele>223.8</ele>
        <time>2010-08-29T07:07:18Z</time>
      </trkpt>
      <trkpt lat="48.73428" lon="-0.20061">
        <ele>224.6</ele>
        <time>2010-08-29T07:07:23Z</time>
      </trkpt>
      <trkpt lat="48.73427" lon="-0.20049">
        <ele>224.3</ele>
        <time>2010-08-29T07:07:28Z</time>
      </trkpt>
      <trkpt lat="48.73426" lon="-0.20042">
        <ele>225.1</ele>
        <time>2010-08-29T07:07:32Z</time>
      </trkpt>
      <trkpt lat="48.73426" lon="-0.20032">
        <ele>224.5</ele>
        <time>2010-08-29T07:07:37Z</time>
      </trkpt>
      <trkpt lat="48.73421" lon="-0.20018">
        <ele>224.6</ele>
        <time>2010-08-29T07:07:42Z</time>
      </trkpt>
      <trkpt lat="48.73423" lon="-0.20009">
        <ele>226.8</ele>
        <time>2010-08-29T07:07:47Z</time>
      </trkpt>
      <trkpt lat="48.73424" lon="-0.20006">
        <ele>228.1</ele>
        <time>2010-08-29T07:07:52Z</time>
      </trkpt>
      <trkpt lat="48.73422" lon="-0.19992">
        <ele>228.6</ele>
        <time>2010-08-29T07:07:57Z</time>
      </trkpt>
      <trkpt lat="48.73424" lon="-0.19991">
        <ele>228.6</ele>
        <time>2010-08-29T07:08:02Z</time>
      </trkpt>
      <trkpt lat="48.73425" lon="-0.19989">
        <ele>229.1</ele>
        <time>2010-08-29T07:08:03Z</time>
      </trkpt>
      <trkpt lat="48.73424" lon="-0.19961">
        <ele>231.5</ele>
        <time>2010-08-29T07:08:12Z</time>
      </trkpt>
      <trkpt lat="48.7343" lon="-0.19948">
        <ele>230</ele>
        <time>2010-08-29T07:08:17Z</time>
      </trkpt>
      <trkpt lat="48.73426" lon="-0.19928">
        <ele>230.8</ele>
        <time>2010-08-29T07:08:22Z</time>
      </trkpt>
      <trkpt lat="48.73431" lon="-0.19913">
        <ele>229.8</ele>
        <time>2010-08-29T07:08:27Z</time>
      </trkpt>
      <trkpt lat="48.73435" lon="-0.19909">
        <ele>227.3</ele>
        <time>2010-08-29T07:08:31Z</time>
      </trkpt>
      <trkpt lat="48.73438" lon="-0.19904">
        <ele>224.8</ele>
        <time>2010-08-29T07:08:35Z</time>
      </trkpt>
      <trkpt lat="48.73447" lon="-0.19885">
        <ele>227</ele>
        <time>2010-08-29T07:08:40Z</time>
      </trkpt>
      <trkpt lat="48.73448" lon="-0.19876">
        <ele>227.1</ele>
        <time>2010-08-29T07:08:45Z</time>
      </trkpt>
      <trkpt lat="48.73448" lon="-0.1987">
        <ele>228.1</ele>
        <time>2010-08-29T07:08:50Z</time>
      </trkpt>
      <trkpt lat="48.73444" lon="-0.19868">
        <ele>228.3</ele>
        <time>2010-08-29T07:08:55Z</time>
      </trkpt>
      <trkpt lat="48.73444" lon="-0.19867">
        <ele>227.8</ele>
        <time>2010-08-29T07:09:00Z</time>
      </trkpt>
      <trkpt lat="48.73442" lon="-0.19869">
        <ele>227.6</ele>
        <time>2010-08-29T07:09:05Z</time>
      </trkpt>
      <trkpt lat="48.7344" lon="-0.1987">
        <ele>227.6</ele>
        <time>2010-08-29T07:09:06Z</time>
      </trkpt>
      <trkpt lat="48.73426" lon="-0.19865">
        <ele>225.1</ele>
        <time>2010-08-29T07:09:15Z</time>
      </trkpt>
      <trkpt lat="48.73421" lon="-0.1986">
        <ele>224.8</ele>
        <time>2010-08-29T07:09:20Z</time>
      </trkpt>
      <trkpt lat="48.73418" lon="-0.19852">
        <ele>224.1</ele>
        <time>2010-08-29T07:09:25Z</time>
      </trkpt>
      <trkpt lat="48.73403" lon="-0.19837">
        <ele>223.8</ele>
        <time>2010-08-29T07:09:30Z</time>
      </trkpt>
      <trkpt lat="48.73397" lon="-0.19831">
        <ele>224.3</ele>
        <time>2010-08-29T07:09:34Z</time>
      </trkpt>
      <trkpt lat="48.73395" lon="-0.19829">
        <ele>224.1</ele>
        <time>2010-08-29T07:09:39Z</time>
      </trkpt>
      <trkpt lat="48.73386" lon="-0.19821">
        <ele>225</ele>
        <time>2010-08-29T07:09:44Z</time>
      </trkpt>
      <trkpt lat="48.73373" lon="-0.19813">
        <ele>225.8</ele>
        <time>2010-08-29T07:09:49Z</time>
      </trkpt>
      <trkpt lat="48.73366" lon="-0.19807">
        <ele>225.1</ele>
        <time>2010-08-29T07:09:54Z</time>
      </trkpt>
      <trkpt lat="48.73363" lon="-0.19805">
        <ele>225.8</ele>
        <time>2010-08-29T07:09:59Z</time>
      </trkpt>
      <trkpt lat="48.73359" lon="-0.19806">
        <ele>224.3</ele>
        <time>2010-08-29T07:10:04Z</time>
      </trkpt>
      <trkpt lat="48.73356" lon="-0.19808">
        <ele>224.5</ele>
        <time>2010-08-29T07:10:09Z</time>
      </trkpt>
      <trkpt lat="48.73356" lon="-0.19808">
        <ele>224.5</ele>
        <time>2010-08-29T07:10:10Z</time>
      </trkpt>
      <trkpt lat="48.73351" lon="-0.19798">
        <ele>225.5</ele>
        <time>2010-08-29T07:10:19Z</time>
      </trkpt>
      <trkpt lat="48.73344" lon="-0.19783">
        <ele>226</ele>
        <time>2010-08-29T07:10:24Z</time>
      </trkpt>
      <trkpt lat="48.73338" lon="-0.19778">
        <ele>228.6</ele>
        <time>2010-08-29T07:10:29Z</time>
      </trkpt>
      <trkpt lat="48.73336" lon="-0.19769">
        <ele>229.5</ele>
        <time>2010-08-29T07:10:33Z</time>
      </trkpt>
      <trkpt lat="48.73339" lon="-0.19764">
        <ele>230.6</ele>
        <time>2010-08-29T07:10:38Z</time>
      </trkpt>
      <trkpt lat="48.73333" lon="-0.19751">
        <ele>233.3</ele>
        <time>2010-08-29T07:10:43Z</time>
      </trkpt>
      <trkpt lat="48.73325" lon="-0.19738">
        <ele>232.1</ele>
        <time>2010-08-29T07:10:48Z</time>
      </trkpt>
      <trkpt lat="48.73321" lon="-0.19731">
        <ele>231.3</ele>
        <time>2010-08-29T07:10:53Z</time>
      </trkpt>
      <trkpt lat="48.73312" lon="-0.19719">
        <ele>227.5</ele>
        <time>2010-08-29T07:10:58Z</time>
      </trkpt>
      <trkpt lat="48.73311" lon="-0.19716">
        <ele>225</ele>
        <time>2010-08-29T07:11:03Z</time>
      </trkpt>
      <trkpt lat="48.73313" lon="-0.19716">
        <ele>222.8</ele>
        <time>2010-08-29T07:11:08Z</time>
      </trkpt>
      <trkpt lat="48.73305" lon="-0.19693">
        <ele>227.5</ele>
        <time>2010-08-29T07:11:13Z</time>
      </trkpt>
      <trkpt lat="48.73304" lon="-0.19689">
        <ele>228.1</ele>
        <time>2010-08-29T07:11:14Z</time>
      </trkpt>
      <trkpt lat="48.73292" lon="-0.1967">
        <ele>227.6</ele>
        <time>2010-08-29T07:11:23Z</time>
      </trkpt>
      <trkpt lat="48.73292" lon="-0.19665">
        <ele>229.8</ele>
        <time>2010-08-29T07:11:28Z</time>
      </trkpt>
      <trkpt lat="48.73289" lon="-0.19651">
        <ele>231.8</ele>
        <time>2010-08-29T07:11:32Z</time>
      </trkpt>
      <trkpt lat="48.7329" lon="-0.19649">
        <ele>233.5</ele>
        <time>2010-08-29T07:11:37Z</time>
      </trkpt>
      <trkpt lat="48.7329" lon="-0.1965">
        <ele>232</ele>
        <time>2010-08-29T07:11:42Z</time>
      </trkpt>
      <trkpt lat="48.73285" lon="-0.19628">
        <ele>233</ele>
        <time>2010-08-29T07:11:47Z</time>
      </trkpt>
      <trkpt lat="48.73284" lon="-0.19612">
        <ele>232.1</ele>
        <time>2010-08-29T07:11:52Z</time>
      </trkpt>
      <trkpt lat="48.73284" lon="-0.19602">
        <ele>229.3</ele>
        <time>2010-08-29T07:11:57Z</time>
      </trkpt>
      <trkpt lat="48.73282" lon="-0.19591">
        <ele>228.3</ele>
        <time>2010-08-29T07:12:02Z</time>
      </trkpt>
      <trkpt lat="48.73283" lon="-0.19592">
        <ele>228.1</ele>
        <time>2010-08-29T07:12:07Z</time>
      </trkpt>
      <trkpt lat="48.7328" lon="-0.19582">
        <ele>229.6</ele>
        <time>2010-08-29T07:12:12Z</time>
      </trkpt>
      <trkpt lat="48.73273" lon="-0.19562">
        <ele>226.3</ele>
        <time>2010-08-29T07:12:17Z</time>
      </trkpt>
      <trkpt lat="48.73273" lon="-0.19562">
        <ele>226.3</ele>
        <time>2010-08-29T07:12:18Z</time>
      </trkpt>
      <trkpt lat="48.73262" lon="-0.19543">
        <ele>225.6</ele>
        <time>2010-08-29T07:12:27Z</time>
      </trkpt>
      <trkpt lat="48.73261" lon="-0.19542">
        <ele>225.6</ele>
        <time>2010-08-29T07:12:31Z</time>
      </trkpt>
      <trkpt lat="48.73255" lon="-0.19538">
        <ele>224.8</ele>
        <time>2010-08-29T07:12:35Z</time>
      </trkpt>
      <trkpt lat="48.73256" lon="-0.19534">
        <ele>224.1</ele>
        <time>2010-08-29T07:12:40Z</time>
      </trkpt>
      <trkpt lat="48.73248" lon="-0.19526">
        <ele>224</ele>
        <time>2010-08-29T07:12:45Z</time>
      </trkpt>
      <trkpt lat="48.73238" lon="-0.19519">
        <ele>223.6</ele>
        <time>2010-08-29T07:12:50Z</time>
      </trkpt>
      <trkpt lat="48.73229" lon="-0.19513">
        <ele>224.8</ele>
        <time>2010-08-29T07:12:55Z</time>
      </trkpt>
      <trkpt lat="48.73226" lon="-0.19508">
        <ele>226.3</ele>
        <time>2010-08-29T07:13:00Z</time>
      </trkpt>
      <trkpt lat="48.73218" lon="-0.19507">
        <ele>228</ele>
        <time>2010-08-29T07:13:05Z</time>
      </trkpt>
      <trkpt lat="48.73216" lon="-0.19504">
        <ele>229</ele>
        <time>2010-08-29T07:13:10Z</time>
      </trkpt>
      <trkpt lat="48.73209" lon="-0.195">
        <ele>228.1</ele>
        <time>2010-08-29T07:13:15Z</time>
      </trkpt>
      <trkpt lat="48.73204" lon="-0.195">
        <ele>227.6</ele>
        <time>2010-08-29T07:13:20Z</time>
      </trkpt>
      <trkpt lat="48.73202" lon="-0.195">
        <ele>227.8</ele>
        <time>2010-08-29T07:13:21Z</time>
      </trkpt>
      <trkpt lat="48.73192" lon="-0.19498">
        <ele>225.8</ele>
        <time>2010-08-29T07:13:30Z</time>
      </trkpt>
      <trkpt lat="48.73189" lon="-0.19497">
        <ele>225</ele>
        <time>2010-08-29T07:13:34Z</time>
      </trkpt>
      <trkpt lat="48.73182" lon="-0.19494">
        <ele>223.8</ele>
        <time>2010-08-29T07:13:39Z</time>
      </trkpt>
      <trkpt lat="48.73174" lon="-0.19491">
        <ele>223.3</ele>
        <time>2010-08-29T07:13:44Z</time>
      </trkpt>
      <trkpt lat="48.73169" lon="-0.1949">
        <ele>222</ele>
        <time>2010-08-29T07:13:49Z</time>
      </trkpt>
      <trkpt lat="48.73162" lon="-0.19482">
        <ele>222.5</ele>
        <time>2010-08-29T07:13:54Z</time>
      </trkpt>
      <trkpt lat="48.73164" lon="-0.19483">
        <ele>222.1</ele>
        <time>2010-08-29T07:13:59Z</time>
      </trkpt>
      <trkpt lat="48.73158" lon="-0.19481">
        <ele>222.6</ele>
        <time>2010-08-29T07:14:04Z</time>
      </trkpt>
      <trkpt lat="48.73151" lon="-0.19479">
        <ele>223.6</ele>
        <time>2010-08-29T07:14:09Z</time>
      </trkpt>
      <trkpt lat="48.73144" lon="-0.19471">
        <ele>224</ele>
        <time>2010-08-29T07:14:14Z</time>
      </trkpt>
      <trkpt lat="48.73144" lon="-0.19465">
        <ele>223.5</ele>
        <time>2010-08-29T07:14:19Z</time>
      </trkpt>
      <trkpt lat="48.73146" lon="-0.19457">
        <ele>221.6</ele>
        <time>2010-08-29T07:14:24Z</time>
      </trkpt>
      <trkpt lat="48.73145" lon="-0.19454">
        <ele>221.1</ele>
        <time>2010-08-29T07:14:25Z</time>
      </trkpt>
      <trkpt lat="48.73145" lon="-0.19432">
        <ele>222.3</ele>
        <time>2010-08-29T07:14:33Z</time>
      </trkpt>
      <trkpt lat="48.73147" lon="-0.1942">
        <ele>222.1</ele>
        <time>2010-08-29T07:14:38Z</time>
      </trkpt>
      <trkpt lat="48.73142" lon="-0.19412">
        <ele>223.1</ele>
        <time>2010-08-29T07:14:43Z</time>
      </trkpt>
      <trkpt lat="48.73143" lon="-0.19413">
        <ele>224.5</ele>
        <time>2010-08-29T07:14:48Z</time>
      </trkpt>
      <trkpt lat="48.73148" lon="-0.19407">
        <ele>223.1</ele>
        <time>2010-08-29T07:14:53Z</time>
      </trkpt>
      <trkpt lat="48.73156" lon="-0.19395">
        <ele>223</ele>
        <time>2010-08-29T07:14:58Z</time>
      </trkpt>
      <trkpt lat="48.7316" lon="-0.19382">
        <ele>222.3</ele>
        <time>2010-08-29T07:15:03Z</time>
      </trkpt>
      <trkpt lat="48.7317" lon="-0.19371">
        <ele>225.3</ele>
        <time>2010-08-29T07:15:08Z</time>
      </trkpt>
      <trkpt lat="48.73172" lon="-0.1936">
        <ele>225.5</ele>
        <time>2010-08-29T07:15:13Z</time>
      </trkpt>
      <trkpt lat="48.73177" lon="-0.19351">
        <ele>225.8</ele>
        <time>2010-08-29T07:15:18Z</time>
      </trkpt>
      <trkpt lat="48.73181" lon="-0.19344">
        <ele>229.3</ele>
        <time>2010-08-29T07:15:23Z</time>
      </trkpt>
      <trkpt lat="48.73187" lon="-0.19337">
        <ele>230</ele>
        <time>2010-08-29T07:15:28Z</time>
      </trkpt>
      <trkpt lat="48.73188" lon="-0.19337">
        <ele>229.3</ele>
        <time>2010-08-29T07:15:29Z</time>
      </trkpt>
      <trkpt lat="48.73204" lon="-0.19322">
        <ele>229.6</ele>
        <time>2010-08-29T07:15:37Z</time>
      </trkpt>
      <trkpt lat="48.73212" lon="-0.19315">
        <ele>230</ele>
        <time>2010-08-29T07:15:42Z</time>
      </trkpt>
      <trkpt lat="48.7322" lon="-0.19308">
        <ele>230.1</ele>
        <time>2010-08-29T07:15:47Z</time>
      </trkpt>
      <trkpt lat="48.73224" lon="-0.19304">
        <ele>230.8</ele>
        <time>2010-08-29T07:15:52Z</time>
      </trkpt>
      <trkpt lat="48.73231" lon="-0.19298">
        <ele>231</ele>
        <time>2010-08-29T07:15:57Z</time>
      </trkpt>
      <trkpt lat="48.73237" lon="-0.19289">
        <ele>230.8</ele>
        <time>2010-08-29T07:16:02Z</time>
      </trkpt>
      <trkpt lat="48.73242" lon="-0.19281">
        <ele>230.1</ele>
        <time>2010-08-29T07:16:07Z</time>
      </trkpt>
      <trkpt lat="48.73244" lon="-0.19275">
        <ele>229.5</ele>
        <time>2010-08-29T07:16:12Z</time>
      </trkpt>
      <trkpt lat="48.73254" lon="-0.19269">
        <ele>229.3</ele>
        <time>2010-08-29T07:16:17Z</time>
      </trkpt>
      <trkpt lat="48.73258" lon="-0.1926">
        <ele>228.3</ele>
        <time>2010-08-29T07:16:22Z</time>
      </trkpt>
      <trkpt lat="48.73267" lon="-0.19254">
        <ele>228.5</ele>
        <time>2010-08-29T07:16:27Z</time>
      </trkpt>
      <trkpt lat="48.73273" lon="-0.1925">
        <ele>227</ele>
        <time>2010-08-29T07:16:31Z</time>
      </trkpt>
      <trkpt lat="48.73273" lon="-0.19248">
        <ele>226.5</ele>
        <time>2010-08-29T07:16:32Z</time>
      </trkpt>
      <trkpt lat="48.73279" lon="-0.19236">
        <ele>223.3</ele>
        <time>2010-08-29T07:16:40Z</time>
      </trkpt>
      <trkpt lat="48.73284" lon="-0.19234">
        <ele>221.1</ele>
        <time>2010-08-29T07:16:45Z</time>
      </trkpt>
      <trkpt lat="48.73289" lon="-0.19225">
        <ele>219.3</ele>
        <time>2010-08-29T07:16:50Z</time>
      </trkpt>
      <trkpt lat="48.73293" lon="-0.19218">
        <ele>220.5</ele>
        <time>2010-08-29T07:16:55Z</time>
      </trkpt>
      <trkpt lat="48.73297" lon="-0.19208">
        <ele>220.8</ele>
        <time>2010-08-29T07:17:00Z</time>
      </trkpt>
      <trkpt lat="48.73296" lon="-0.192">
        <ele>221.1</ele>
        <time>2010-08-29T07:17:05Z</time>
      </trkpt>
      <trkpt lat="48.733" lon="-0.19191">
        <ele>219.6</ele>
        <time>2010-08-29T07:17:10Z</time>
      </trkpt>
      <trkpt lat="48.73309" lon="-0.19184">
        <ele>218.3</ele>
        <time>2010-08-29T07:17:15Z</time>
      </trkpt>
      <trkpt lat="48.7331" lon="-0.19178">
        <ele>218.8</ele>
        <time>2010-08-29T07:17:20Z</time>
      </trkpt>
      <trkpt lat="48.73309" lon="-0.19174">
        <ele>219.1</ele>
        <time>2010-08-29T07:17:25Z</time>
      </trkpt>
      <trkpt lat="48.73314" lon="-0.19167">
        <ele>218.6</ele>
        <time>2010-08-29T07:17:30Z</time>
      </trkpt>
      <trkpt lat="48.73319" lon="-0.19163">
        <ele>219</ele>
        <time>2010-08-29T07:17:34Z</time>
      </trkpt>
      <trkpt lat="48.73322" lon="-0.1916">
        <ele>219.6</ele>
        <time>2010-08-29T07:17:35Z</time>
      </trkpt>
      <trkpt lat="48.73325" lon="-0.19139">
        <ele>220.6</ele>
        <time>2010-08-29T07:17:44Z</time>
      </trkpt>
      <trkpt lat="48.73329" lon="-0.19133">
        <ele>220.6</ele>
        <time>2010-08-29T07:17:49Z</time>
      </trkpt>
      <trkpt lat="48.7333" lon="-0.19118">
        <ele>221</ele>
        <time>2010-08-29T07:17:54Z</time>
      </trkpt>
      <trkpt lat="48.73335" lon="-0.19107">
        <ele>220.3</ele>
        <time>2010-08-29T07:17:59Z</time>
      </trkpt>
      <trkpt lat="48.73339" lon="-0.19088">
        <ele>221.3</ele>
        <time>2010-08-29T07:18:04Z</time>
      </trkpt>
      <trkpt lat="48.7334" lon="-0.19083">
        <ele>222.8</ele>
        <time>2010-08-29T07:18:09Z</time>
      </trkpt>
      <trkpt lat="48.73339" lon="-0.19072">
        <ele>223.5</ele>
        <time>2010-08-29T07:18:14Z</time>
      </trkpt>
      <trkpt lat="48.73341" lon="-0.19062">
        <ele>223.5</ele>
        <time>2010-08-29T07:18:19Z</time>
      </trkpt>
      <trkpt lat="48.73343" lon="-0.19055">
        <ele>224.1</ele>
        <time>2010-08-29T07:18:24Z</time>
      </trkpt>
      <trkpt lat="48.73351" lon="-0.19036">
        <ele>226.8</ele>
        <time>2010-08-29T07:18:29Z</time>
      </trkpt>
      <trkpt lat="48.73349" lon="-0.19032">
        <ele>226.8</ele>
        <time>2010-08-29T07:18:33Z</time>
      </trkpt>
      <trkpt lat="48.7334" lon="-0.19016">
        <ele>226.3</ele>
        <time>2010-08-29T07:18:38Z</time>
      </trkpt>
      <trkpt lat="48.7334" lon="-0.19013">
        <ele>226.8</ele>
        <time>2010-08-29T07:18:39Z</time>
      </trkpt>
      <trkpt lat="48.7334" lon="-0.18996">
        <ele>225</ele>
        <time>2010-08-29T07:18:48Z</time>
      </trkpt>
      <trkpt lat="48.73341" lon="-0.18986">
        <ele>223.1</ele>
        <time>2010-08-29T07:18:53Z</time>
      </trkpt>
      <trkpt lat="48.73337" lon="-0.18979">
        <ele>224.5</ele>
        <time>2010-08-29T07:18:58Z</time>
      </trkpt>
      <trkpt lat="48.73346" lon="-0.18968">
        <ele>222.6</ele>
        <time>2010-08-29T07:19:03Z</time>
      </trkpt>
      <trkpt lat="48.73358" lon="-0.18954">
        <ele>223.8</ele>
        <time>2010-08-29T07:19:08Z</time>
      </trkpt>
      <trkpt lat="48.73372" lon="-0.18939">
        <ele>221.1</ele>
        <time>2010-08-29T07:19:13Z</time>
      </trkpt>
      <trkpt lat="48.73373" lon="-0.18933">
        <ele>219.3</ele>
        <time>2010-08-29T07:19:18Z</time>
      </trkpt>
      <trkpt lat="48.73374" lon="-0.18921">
        <ele>219.8</ele>
        <time>2010-08-29T07:19:23Z</time>
      </trkpt>
      <trkpt lat="48.73375" lon="-0.18916">
        <ele>219.3</ele>
        <time>2010-08-29T07:19:28Z</time>
      </trkpt>
      <trkpt lat="48.73375" lon="-0.1891">
        <ele>219.3</ele>
        <time>2010-08-29T07:19:32Z</time>
      </trkpt>
      <trkpt lat="48.73379" lon="-0.18903">
        <ele>221</ele>
        <time>2010-08-29T07:19:37Z</time>
      </trkpt>
      <trkpt lat="48.73384" lon="-0.18888">
        <ele>223.1</ele>
        <time>2010-08-29T07:19:42Z</time>
      </trkpt>
      <trkpt lat="48.7339" lon="-0.18885">
        <ele>222.8</ele>
        <time>2010-08-29T07:19:43Z</time>
      </trkpt>
      <trkpt lat="48.73403" lon="-0.18876">
        <ele>221</ele>
        <time>2010-08-29T07:19:52Z</time>
      </trkpt>
      <trkpt lat="48.73404" lon="-0.18873">
        <ele>220.3</ele>
        <time>2010-08-29T07:19:57Z</time>
      </trkpt>
      <trkpt lat="48.73404" lon="-0.18866">
        <ele>219.3</ele>
        <time>2010-08-29T07:20:02Z</time>
      </trkpt>
      <trkpt lat="48.7341" lon="-0.1886">
        <ele>221.8</ele>
        <time>2010-08-29T07:20:07Z</time>
      </trkpt>
      <trkpt lat="48.73417" lon="-0.18854">
        <ele>222.6</ele>
        <time>2010-08-29T07:20:12Z</time>
      </trkpt>
      <trkpt lat="48.73419" lon="-0.18846">
        <ele>223.6</ele>
        <time>2010-08-29T07:20:17Z</time>
      </trkpt>
      <trkpt lat="48.73422" lon="-0.18837">
        <ele>226.6</ele>
        <time>2010-08-29T07:20:22Z</time>
      </trkpt>
      <trkpt lat="48.73419" lon="-0.18823">
        <ele>225.6</ele>
        <time>2010-08-29T07:20:27Z</time>
      </trkpt>
      <trkpt lat="48.73417" lon="-0.1881">
        <ele>224.6</ele>
        <time>2010-08-29T07:20:31Z</time>
      </trkpt>
      <trkpt lat="48.73419" lon="-0.18804">
        <ele>222.3</ele>
        <time>2010-08-29T07:20:35Z</time>
      </trkpt>
      <trkpt lat="48.73421" lon="-0.18793">
        <ele>220.5</ele>
        <time>2010-08-29T07:20:40Z</time>
      </trkpt>
      <trkpt lat="48.73417" lon="-0.18785">
        <ele>220.3</ele>
        <time>2010-08-29T07:20:45Z</time>
      </trkpt>
      <trkpt lat="48.73415" lon="-0.18782">
        <ele>220.1</ele>
        <time>2010-08-29T07:20:46Z</time>
      </trkpt>
      <trkpt lat="48.73413" lon="-0.18772">
        <ele>218.8</ele>
        <time>2010-08-29T07:20:55Z</time>
      </trkpt>
      <trkpt lat="48.73416" lon="-0.18767">
        <ele>218.8</ele>
        <time>2010-08-29T07:21:00Z</time>
      </trkpt>
      <trkpt lat="48.73417" lon="-0.18763">
        <ele>218.6</ele>
        <time>2010-08-29T07:21:05Z</time>
      </trkpt>
      <trkpt lat="48.73422" lon="-0.18752">
        <ele>218.6</ele>
        <time>2010-08-29T07:21:10Z</time>
      </trkpt>
      <trkpt lat="48.73428" lon="-0.18741">
        <ele>218.3</ele>
        <time>2010-08-29T07:21:15Z</time>
      </trkpt>
      <trkpt lat="48.73429" lon="-0.18734">
        <ele>218.3</ele>
        <time>2010-08-29T07:21:20Z</time>
      </trkpt>
      <trkpt lat="48.73428" lon="-0.18726">
        <ele>218.1</ele>
        <time>2010-08-29T07:21:25Z</time>
      </trkpt>
      <trkpt lat="48.73429" lon="-0.18715">
        <ele>218.6</ele>
        <time>2010-08-29T07:21:30Z</time>
      </trkpt>
      <trkpt lat="48.73429" lon="-0.18707">
        <ele>219.8</ele>
        <time>2010-08-29T07:21:34Z</time>
      </trkpt>
      <trkpt lat="48.7343" lon="-0.18698">
        <ele>220.6</ele>
        <time>2010-08-29T07:21:39Z</time>
      </trkpt>
      <trkpt lat="48.73434" lon="-0.18682">
        <ele>221.1</ele>
        <time>2010-08-29T07:21:44Z</time>
      </trkpt>
      <trkpt lat="48.73445" lon="-0.18673">
        <ele>222.3</ele>
        <time>2010-08-29T07:21:49Z</time>
      </trkpt>
      <trkpt lat="48.73446" lon="-0.18672">
        <ele>222.1</ele>
        <time>2010-08-29T07:21:50Z</time>
      </trkpt>
      <trkpt lat="48.73453" lon="-0.1866">
        <ele>220.6</ele>
        <time>2010-08-29T07:21:59Z</time>
      </trkpt>
      <trkpt lat="48.73464" lon="-0.1865">
        <ele>220.8</ele>
        <time>2010-08-29T07:22:04Z</time>
      </trkpt>
      <trkpt lat="48.73472" lon="-0.18636">
        <ele>219</ele>
        <time>2010-08-29T07:22:09Z</time>
      </trkpt>
      <trkpt lat="48.73474" lon="-0.18626">
        <ele>218.6</ele>
        <time>2010-08-29T07:22:14Z</time>
      </trkpt>
      <trkpt lat="48.73471" lon="-0.18616">
        <ele>216.1</ele>
        <time>2010-08-29T07:22:19Z</time>
      </trkpt>
      <trkpt lat="48.73462" lon="-0.18606">
        <ele>216.8</ele>
        <time>2010-08-29T07:22:24Z</time>
      </trkpt>
      <trkpt lat="48.73459" lon="-0.1859">
        <ele>215.3</ele>
        <time>2010-08-29T07:22:29Z</time>
      </trkpt>
      <trkpt lat="48.73461" lon="-0.18588">
        <ele>215.8</ele>
        <time>2010-08-29T07:22:33Z</time>
      </trkpt>
      <trkpt lat="48.73466" lon="-0.18575">
        <ele>216.1</ele>
        <time>2010-08-29T07:22:38Z</time>
      </trkpt>
      <trkpt lat="48.73475" lon="-0.1857">
        <ele>215.8</ele>
        <time>2010-08-29T07:22:43Z</time>
      </trkpt>
      <trkpt lat="48.73475" lon="-0.18554">
        <ele>216.1</ele>
        <time>2010-08-29T07:22:48Z</time>
      </trkpt>
      <trkpt lat="48.73474" lon="-0.18548">
        <ele>217</ele>
        <time>2010-08-29T07:22:53Z</time>
      </trkpt>
      <trkpt lat="48.73475" lon="-0.18546">
        <ele>216.8</ele>
        <time>2010-08-29T07:22:54Z</time>
      </trkpt>
      <trkpt lat="48.73488" lon="-0.18516">
        <ele>214</ele>
        <time>2010-08-29T07:23:03Z</time>
      </trkpt>
      <trkpt lat="48.73493" lon="-0.18502">
        <ele>214.8</ele>
        <time>2010-08-29T07:23:08Z</time>
      </trkpt>
      <trkpt lat="48.73498" lon="-0.1849">
        <ele>213</ele>
        <time>2010-08-29T07:23:13Z</time>
      </trkpt>
      <trkpt lat="48.73501" lon="-0.18482">
        <ele>211.1</ele>
        <time>2010-08-29T07:23:18Z</time>
      </trkpt>
      <trkpt lat="48.73499" lon="-0.18472">
        <ele>208.3</ele>
        <time>2010-08-29T07:23:23Z</time>
      </trkpt>
      <trkpt lat="48.73507" lon="-0.18462">
        <ele>207.6</ele>
        <time>2010-08-29T07:23:28Z</time>
      </trkpt>
      <trkpt lat="48.73509" lon="-0.18458">
        <ele>207.6</ele>
        <time>2010-08-29T07:23:32Z</time>
      </trkpt>
      <trkpt lat="48.73506" lon="-0.18453">
        <ele>206.8</ele>
        <time>2010-08-29T07:23:37Z</time>
      </trkpt>
      <trkpt lat="48.73505" lon="-0.18456">
        <ele>205.6</ele>
        <time>2010-08-29T07:23:42Z</time>
      </trkpt>
      <trkpt lat="48.73506" lon="-0.18462">
        <ele>204.5</ele>
        <time>2010-08-29T07:23:47Z</time>
      </trkpt>
      <trkpt lat="48.73504" lon="-0.18463">
        <ele>204.5</ele>
        <time>2010-08-29T07:23:52Z</time>
      </trkpt>
      <trkpt lat="48.73498" lon="-0.18468">
        <ele>204.8</ele>
        <time>2010-08-29T07:23:57Z</time>
      </trkpt>
      <trkpt lat="48.73496" lon="-0.18471">
        <ele>204.1</ele>
        <time>2010-08-29T07:23:58Z</time>
      </trkpt>
      <trkpt lat="48.73489" lon="-0.18484">
        <ele>203.8</ele>
        <time>2010-08-29T07:24:07Z</time>
      </trkpt>
      <trkpt lat="48.73484" lon="-0.18486">
        <ele>204.8</ele>
        <time>2010-08-29T07:24:12Z</time>
      </trkpt>
      <trkpt lat="48.73472" lon="-0.18495">
        <ele>206.3</ele>
        <time>2010-08-29T07:24:17Z</time>
      </trkpt>
      <trkpt lat="48.73464" lon="-0.18504">
        <ele>205.3</ele>
        <time>2010-08-29T07:24:22Z</time>
      </trkpt>
      <trkpt lat="48.7346" lon="-0.18515">
        <ele>202.1</ele>
        <time>2010-08-29T07:24:27Z</time>
      </trkpt>
      <trkpt lat="48.73455" lon="-0.18522">
        <ele>202.8</ele>
        <time>2010-08-29T07:24:31Z</time>
      </trkpt>
      <trkpt lat="48.73452" lon="-0.18525">
        <ele>203.1</ele>
        <time>2010-08-29T07:24:35Z</time>
      </trkpt>
      <trkpt lat="48.73447" lon="-0.18532">
        <ele>204.6</ele>
        <time>2010-08-29T07:24:40Z</time>
      </trkpt>
      <trkpt lat="48.73444" lon="-0.18539">
        <ele>206.1</ele>
        <time>2010-08-29T07:24:45Z</time>
      </trkpt>
      <trkpt lat="48.7344" lon="-0.18545">
        <ele>206.1</ele>
        <time>2010-08-29T07:24:50Z</time>
      </trkpt>
      <trkpt lat="48.7344" lon="-0.18553">
        <ele>207.1</ele>
        <time>2010-08-29T07:24:55Z</time>
      </trkpt>
      <trkpt lat="48.73439" lon="-0.18561">
        <ele>207.3</ele>
        <time>2010-08-29T07:25:00Z</time>
      </trkpt>
      <trkpt lat="48.7344" lon="-0.18564">
        <ele>207.3</ele>
        <time>2010-08-29T07:25:01Z</time>
      </trkpt>
      <trkpt lat="48.73434" lon="-0.18578">
        <ele>209.6</ele>
        <time>2010-08-29T07:25:10Z</time>
      </trkpt>
      <trkpt lat="48.73429" lon="-0.18585">
        <ele>210.1</ele>
        <time>2010-08-29T07:25:15Z</time>
      </trkpt>
      <trkpt lat="48.73424" lon="-0.18596">
        <ele>209.6</ele>
        <time>2010-08-29T07:25:20Z</time>
      </trkpt>
      <trkpt lat="48.73417" lon="-0.18606">
        <ele>209.6</ele>
        <time>2010-08-29T07:25:25Z</time>
      </trkpt>
      <trkpt lat="48.73412" lon="-0.18614">
        <ele>212.1</ele>
        <time>2010-08-29T07:25:30Z</time>
      </trkpt>
      <trkpt lat="48.73409" lon="-0.18623">
        <ele>212.8</ele>
        <time>2010-08-29T07:25:34Z</time>
      </trkpt>
      <trkpt lat="48.73409" lon="-0.1863">
        <ele>213.6</ele>
        <time>2010-08-29T07:25:39Z</time>
      </trkpt>
      <trkpt lat="48.73406" lon="-0.18635">
        <ele>213.8</ele>
        <time>2010-08-29T07:25:44Z</time>
      </trkpt>
      <trkpt lat="48.73399" lon="-0.18645">
        <ele>214</ele>
        <time>2010-08-29T07:25:49Z</time>
      </trkpt>
      <trkpt lat="48.73391" lon="-0.18655">
        <ele>215.6</ele>
        <time>2010-08-29T07:25:54Z</time>
      </trkpt>
      <trkpt lat="48.73379" lon="-0.18662">
        <ele>215.6</ele>
        <time>2010-08-29T07:25:59Z</time>
      </trkpt>
      <trkpt lat="48.73375" lon="-0.18666">
        <ele>216.6</ele>
        <time>2010-08-29T07:26:04Z</time>
      </trkpt>
      <trkpt lat="48.73375" lon="-0.18666">
        <ele>216.6</ele>
        <time>2010-08-29T07:26:05Z</time>
      </trkpt>
      <trkpt lat="48.73371" lon="-0.18675">
        <ele>216.6</ele>
        <time>2010-08-29T07:26:14Z</time>
      </trkpt>
      <trkpt lat="48.73362" lon="-0.18686">
        <ele>213.3</ele>
        <time>2010-08-29T07:26:19Z</time>
      </trkpt>
      <trkpt lat="48.73351" lon="-0.18695">
        <ele>212.1</ele>
        <time>2010-08-29T07:26:24Z</time>
      </trkpt>
      <trkpt lat="48.73347" lon="-0.18704">
        <ele>212</ele>
        <time>2010-08-29T07:26:29Z</time>
      </trkpt>
      <trkpt lat="48.73343" lon="-0.18711">
        <ele>212</ele>
        <time>2010-08-29T07:26:33Z</time>
      </trkpt>
      <trkpt lat="48.73344" lon="-0.18719">
        <ele>212.8</ele>
        <time>2010-08-29T07:26:38Z</time>
      </trkpt>
      <trkpt lat="48.73343" lon="-0.18722">
        <ele>213.1</ele>
        <time>2010-08-29T07:26:43Z</time>
      </trkpt>
      <trkpt lat="48.73339" lon="-0.18727">
        <ele>213.8</ele>
        <time>2010-08-29T07:26:48Z</time>
      </trkpt>
      <trkpt lat="48.73334" lon="-0.18733">
        <ele>215.6</ele>
        <time>2010-08-29T07:26:53Z</time>
      </trkpt>
      <trkpt lat="48.73326" lon="-0.18747">
        <ele>217.1</ele>
        <time>2010-08-29T07:26:58Z</time>
      </trkpt>
      <trkpt lat="48.73318" lon="-0.1875">
        <ele>217.3</ele>
        <time>2010-08-29T07:27:03Z</time>
      </trkpt>
      <trkpt lat="48.73309" lon="-0.18759">
        <ele>219.8</ele>
        <time>2010-08-29T07:27:08Z</time>
      </trkpt>
      <trkpt lat="48.73308" lon="-0.18761">
        <ele>220.6</ele>
        <time>2010-08-29T07:27:09Z</time>
      </trkpt>
      <trkpt lat="48.73293" lon="-0.18776">
        <ele>224.3</ele>
        <time>2010-08-29T07:27:18Z</time>
      </trkpt>
      <trkpt lat="48.73291" lon="-0.18785">
        <ele>224.8</ele>
        <time>2010-08-29T07:27:23Z</time>
      </trkpt>
      <trkpt lat="48.73289" lon="-0.18792">
        <ele>225.5</ele>
        <time>2010-08-29T07:27:28Z</time>
      </trkpt>
      <trkpt lat="48.73289" lon="-0.18796">
        <ele>225.6</ele>
        <time>2010-08-29T07:27:32Z</time>
      </trkpt>
      <trkpt lat="48.73288" lon="-0.18801">
        <ele>226.1</ele>
        <time>2010-08-29T07:27:37Z</time>
      </trkpt>
      <trkpt lat="48.73279" lon="-0.18807">
        <ele>224.8</ele>
        <time>2010-08-29T07:27:42Z</time>
      </trkpt>
      <trkpt lat="48.73273" lon="-0.18815">
        <ele>225.1</ele>
        <time>2010-08-29T07:27:47Z</time>
      </trkpt>
      <trkpt lat="48.73266" lon="-0.18823">
        <ele>224.8</ele>
        <time>2010-08-29T07:27:52Z</time>
      </trkpt>
      <trkpt lat="48.73259" lon="-0.1883">
        <ele>226.8</ele>
        <time>2010-08-29T07:27:57Z</time>
      </trkpt>
      <trkpt lat="48.73252" lon="-0.18838">
        <ele>227</ele>
        <time>2010-08-29T07:28:02Z</time>
      </trkpt>
      <trkpt lat="48.73246" lon="-0.18845">
        <ele>228.6</ele>
        <time>2010-08-29T07:28:07Z</time>
      </trkpt>
      <trkpt lat="48.73241" lon="-0.18854">
        <ele>228.8</ele>
        <time>2010-08-29T07:28:12Z</time>
      </trkpt>
      <trkpt lat="48.7324" lon="-0.18856">
        <ele>228.6</ele>
        <time>2010-08-29T07:28:13Z</time>
      </trkpt>
      <trkpt lat="48.73237" lon="-0.18866">
        <ele>227.8</ele>
        <time>2010-08-29T07:28:22Z</time>
      </trkpt>
      <trkpt lat="48.73236" lon="-0.18875">
        <ele>228</ele>
        <time>2010-08-29T07:28:27Z</time>
      </trkpt>
      <trkpt lat="48.7323" lon="-0.18884">
        <ele>228.6</ele>
        <time>2010-08-29T07:28:31Z</time>
      </trkpt>
      <trkpt lat="48.73222" lon="-0.18897">
        <ele>230.8</ele>
        <time>2010-08-29T07:28:35Z</time>
      </trkpt>
      <trkpt lat="48.73218" lon="-0.18901">
        <ele>231.1</ele>
        <time>2010-08-29T07:28:40Z</time>
      </trkpt>
      <trkpt lat="48.73218" lon="-0.18903">
        <ele>231.1</ele>
        <time>2010-08-29T07:28:45Z</time>
      </trkpt>
      <trkpt lat="48.73219" lon="-0.189">
        <ele>231.3</ele>
        <time>2010-08-29T07:28:50Z</time>
      </trkpt>
      <trkpt lat="48.73223" lon="-0.18894">
        <ele>232</ele>
        <time>2010-08-29T07:28:55Z</time>
      </trkpt>
      <trkpt lat="48.73218" lon="-0.18886">
        <ele>233.3</ele>
        <time>2010-08-29T07:29:00Z</time>
      </trkpt>
      <trkpt lat="48.73217" lon="-0.18872">
        <ele>234.3</ele>
        <time>2010-08-29T07:29:05Z</time>
      </trkpt>
      <trkpt lat="48.73219" lon="-0.18866">
        <ele>234.8</ele>
        <time>2010-08-29T07:29:10Z</time>
      </trkpt>
      <trkpt lat="48.73218" lon="-0.1885">
        <ele>235.8</ele>
        <time>2010-08-29T07:29:15Z</time>
      </trkpt>
      <trkpt lat="48.7322" lon="-0.18848">
        <ele>236.1</ele>
        <time>2010-08-29T07:29:16Z</time>
      </trkpt>
      <trkpt lat="48.73223" lon="-0.18829">
        <ele>238</ele>
        <time>2010-08-29T07:29:25Z</time>
      </trkpt>
      <trkpt lat="48.73222" lon="-0.18815">
        <ele>239</ele>
        <time>2010-08-29T07:29:30Z</time>
      </trkpt>
      <trkpt lat="48.73224" lon="-0.1881">
        <ele>239.3</ele>
        <time>2010-08-29T07:29:34Z</time>
      </trkpt>
      <trkpt lat="48.73225" lon="-0.18797">
        <ele>241</ele>
        <time>2010-08-29T07:29:39Z</time>
      </trkpt>
      <trkpt lat="48.73226" lon="-0.18787">
        <ele>241.1</ele>
        <time>2010-08-29T07:29:44Z</time>
      </trkpt>
      <trkpt lat="48.73227" lon="-0.18773">
        <ele>241.8</ele>
        <time>2010-08-29T07:29:49Z</time>
      </trkpt>
      <trkpt lat="48.7323" lon="-0.18761">
        <ele>243.8</ele>
        <time>2010-08-29T07:29:54Z</time>
      </trkpt>
      <trkpt lat="48.73233" lon="-0.18753">
        <ele>243.1</ele>
        <time>2010-08-29T07:29:59Z</time>
      </trkpt>
      <trkpt lat="48.73232" lon="-0.18745">
        <ele>244.5</ele>
        <time>2010-08-29T07:30:04Z</time>
      </trkpt>
      <trkpt lat="48.73231" lon="-0.18736">
        <ele>242.5</ele>
        <time>2010-08-29T07:30:09Z</time>
      </trkpt>
      <trkpt lat="48.73232" lon="-0.18727">
        <ele>240.6</ele>
        <time>2010-08-29T07:30:14Z</time>
      </trkpt>
      <trkpt lat="48.73232" lon="-0.18724">
        <ele>240.1</ele>
        <time>2010-08-29T07:30:19Z</time>
      </trkpt>
      <trkpt lat="48.73232" lon="-0.18724">
        <ele>240.1</ele>
        <time>2010-08-29T07:30:20Z</time>
      </trkpt>
      <trkpt lat="48.73233" lon="-0.18715">
        <ele>239.3</ele>
        <time>2010-08-29T07:30:29Z</time>
      </trkpt>
      <trkpt lat="48.73229" lon="-0.18716">
        <ele>238.3</ele>
        <time>2010-08-29T07:30:33Z</time>
      </trkpt>
      <trkpt lat="48.73237" lon="-0.18703">
        <ele>236.5</ele>
        <time>2010-08-29T07:30:38Z</time>
      </trkpt>
      <trkpt lat="48.73241" lon="-0.18694">
        <ele>238.1</ele>
        <time>2010-08-29T07:30:43Z</time>
      </trkpt>
      <trkpt lat="48.73244" lon="-0.18687">
        <ele>238</ele>
        <time>2010-08-29T07:30:48Z</time>
      </trkpt>
      <trkpt lat="48.73247" lon="-0.18677">
        <ele>236.8</ele>
        <time>2010-08-29T07:30:53Z</time>
      </trkpt>
      <trkpt lat="48.73254" lon="-0.18668">
        <ele>235.3</ele>
        <time>2010-08-29T07:30:58Z</time>
      </trkpt>
      <trkpt lat="48.73255" lon="-0.18658">
        <ele>237</ele>
        <time>2010-08-29T07:31:03Z</time>
      </trkpt>
      <trkpt lat="48.73266" lon="-0.18655">
        <ele>235</ele>
        <time>2010-08-29T07:31:08Z</time>
      </trkpt>
      <trkpt lat="48.73286" lon="-0.18639">
        <ele>230.8</ele>
        <time>2010-08-29T07:31:13Z</time>
      </trkpt>
      <trkpt lat="48.73269" lon="-0.1862">
        <ele>228.5</ele>
        <time>2010-08-29T07:31:18Z</time>
      </trkpt>
      <trkpt lat="48.73266" lon="-0.18605">
        <ele>227</ele>
        <time>2010-08-29T07:31:23Z</time>
      </trkpt>
      <trkpt lat="48.73266" lon="-0.18601">
        <ele>226.1</ele>
        <time>2010-08-29T07:31:24Z</time>
      </trkpt>
      <trkpt lat="48.73259" lon="-0.1858">
        <ele>226.3</ele>
        <time>2010-08-29T07:31:32Z</time>
      </trkpt>
      <trkpt lat="48.73257" lon="-0.18569">
        <ele>227.1</ele>
        <time>2010-08-29T07:31:37Z</time>
      </trkpt>
      <trkpt lat="48.73256" lon="-0.1856">
        <ele>230.3</ele>
        <time>2010-08-29T07:31:42Z</time>
      </trkpt>
      <trkpt lat="48.73246" lon="-0.18545">
        <ele>232.5</ele>
        <time>2010-08-29T07:31:47Z</time>
      </trkpt>
      <trkpt lat="48.73241" lon="-0.18533">
        <ele>234</ele>
        <time>2010-08-29T07:31:52Z</time>
      </trkpt>
      <trkpt lat="48.73242" lon="-0.18521">
        <ele>234.8</ele>
        <time>2010-08-29T07:31:57Z</time>
      </trkpt>
      <trkpt lat="48.73236" lon="-0.18514">
        <ele>233.3</ele>
        <time>2010-08-29T07:32:02Z</time>
      </trkpt>
      <trkpt lat="48.73232" lon="-0.18506">
        <ele>235</ele>
        <time>2010-08-29T07:32:07Z</time>
      </trkpt>
      <trkpt lat="48.73231" lon="-0.18505">
        <ele>235.1</ele>
        <time>2010-08-29T07:32:12Z</time>
      </trkpt>
      <trkpt lat="48.7323" lon="-0.185">
        <ele>236.1</ele>
        <time>2010-08-29T07:32:17Z</time>
      </trkpt>
      <trkpt lat="48.73237" lon="-0.18495">
        <ele>235.5</ele>
        <time>2010-08-29T07:32:22Z</time>
      </trkpt>
      <trkpt lat="48.73238" lon="-0.18478">
        <ele>235</ele>
        <time>2010-08-29T07:32:27Z</time>
      </trkpt>
      <trkpt lat="48.73237" lon="-0.18474">
        <ele>235.1</ele>
        <time>2010-08-29T07:32:28Z</time>
      </trkpt>
      <trkpt lat="48.73237" lon="-0.18459">
        <ele>232.3</ele>
        <time>2010-08-29T07:32:35Z</time>
      </trkpt>
      <trkpt lat="48.73231" lon="-0.18444">
        <ele>231.8</ele>
        <time>2010-08-29T07:32:40Z</time>
      </trkpt>
      <trkpt lat="48.7323" lon="-0.1844">
        <ele>232.1</ele>
        <time>2010-08-29T07:32:45Z</time>
      </trkpt>
      <trkpt lat="48.73223" lon="-0.18435">
        <ele>231</ele>
        <time>2010-08-29T07:32:50Z</time>
      </trkpt>
      <trkpt lat="48.73222" lon="-0.18424">
        <ele>231.6</ele>
        <time>2010-08-29T07:32:55Z</time>
      </trkpt>
      <trkpt lat="48.73227" lon="-0.18406">
        <ele>229.3</ele>
        <time>2010-08-29T07:33:00Z</time>
      </trkpt>
      <trkpt lat="48.73232" lon="-0.18396">
        <ele>227.5</ele>
        <time>2010-08-29T07:33:05Z</time>
      </trkpt>
      <trkpt lat="48.7323" lon="-0.18379">
        <ele>229.3</ele>
        <time>2010-08-29T07:33:10Z</time>
      </trkpt>
      <trkpt lat="48.73217" lon="-0.18361">
        <ele>230.1</ele>
        <time>2010-08-29T07:33:15Z</time>
      </trkpt>
      <trkpt lat="48.73203" lon="-0.1836">
        <ele>229.8</ele>
        <time>2010-08-29T07:33:20Z</time>
      </trkpt>
      <trkpt lat="48.73198" lon="-0.18362">
        <ele>230.1</ele>
        <time>2010-08-29T07:33:25Z</time>
      </trkpt>
      <trkpt lat="48.73197" lon="-0.18362">
        <ele>229.8</ele>
        <time>2010-08-29T07:33:30Z</time>
      </trkpt>
      <trkpt lat="48.73197" lon="-0.18363">
        <ele>230</ele>
        <time>2010-08-29T07:33:31Z</time>
      </trkpt>
      <trkpt lat="48.73188" lon="-0.18356">
        <ele>230.3</ele>
        <time>2010-08-29T07:33:39Z</time>
      </trkpt>
      <trkpt lat="48.73186" lon="-0.18357">
        <ele>229.5</ele>
        <time>2010-08-29T07:33:44Z</time>
      </trkpt>
      <trkpt lat="48.73177" lon="-0.18361">
        <ele>229.1</ele>
        <time>2010-08-29T07:33:49Z</time>
      </trkpt>
      <trkpt lat="48.73168" lon="-0.18364">
        <ele>229.1</ele>
        <time>2010-08-29T07:33:54Z</time>
      </trkpt>
      <trkpt lat="48.7316" lon="-0.18359">
        <ele>229.3</ele>
        <time>2010-08-29T07:33:59Z</time>
      </trkpt>
      <trkpt lat="48.73158" lon="-0.18362">
        <ele>229.1</ele>
        <time>2010-08-29T07:34:04Z</time>
      </trkpt>
      <trkpt lat="48.73151" lon="-0.18362">
        <ele>230.1</ele>
        <time>2010-08-29T07:34:09Z</time>
      </trkpt>
      <trkpt lat="48.73146" lon="-0.1836">
        <ele>229.5</ele>
        <time>2010-08-29T07:34:14Z</time>
      </trkpt>
      <trkpt lat="48.73136" lon="-0.18372">
        <ele>226.6</ele>
        <time>2010-08-29T07:34:19Z</time>
      </trkpt>
      <trkpt lat="48.73135" lon="-0.18377">
        <ele>226.3</ele>
        <time>2010-08-29T07:34:24Z</time>
      </trkpt>
      <trkpt lat="48.73128" lon="-0.18381">
        <ele>224.3</ele>
        <time>2010-08-29T07:34:29Z</time>
      </trkpt>
      <trkpt lat="48.73127" lon="-0.18383">
        <ele>224.1</ele>
        <time>2010-08-29T07:34:33Z</time>
      </trkpt>
      <trkpt lat="48.73125" lon="-0.18383">
        <ele>224</ele>
        <time>2010-08-29T07:34:34Z</time>
      </trkpt>
      <trkpt lat="48.73123" lon="-0.18383">
        <ele>224.6</ele>
        <time>2010-08-29T07:34:43Z</time>
      </trkpt>
      <trkpt lat="48.73119" lon="-0.18382">
        <ele>225.3</ele>
        <time>2010-08-29T07:34:48Z</time>
      </trkpt>
      <trkpt lat="48.73117" lon="-0.18381">
        <ele>224.8</ele>
        <time>2010-08-29T07:34:53Z</time>
      </trkpt>
      <trkpt lat="48.73104" lon="-0.1838">
        <ele>222.3</ele>
        <time>2010-08-29T07:34:58Z</time>
      </trkpt>
      <trkpt lat="48.731" lon="-0.18379">
        <ele>222</ele>
        <time>2010-08-29T07:35:03Z</time>
      </trkpt>
      <trkpt lat="48.731" lon="-0.18379">
        <ele>222</ele>
        <time>2010-08-29T07:35:08Z</time>
      </trkpt>
      <trkpt lat="48.73087" lon="-0.18381">
        <ele>219.3</ele>
        <time>2010-08-29T07:35:13Z</time>
      </trkpt>
      <trkpt lat="48.73072" lon="-0.18375">
        <ele>217.8</ele>
        <time>2010-08-29T07:35:18Z</time>
      </trkpt>
      <trkpt lat="48.73069" lon="-0.18377">
        <ele>218.3</ele>
        <time>2010-08-29T07:35:23Z</time>
      </trkpt>
      <trkpt lat="48.73068" lon="-0.18383">
        <ele>219.3</ele>
        <time>2010-08-29T07:35:28Z</time>
      </trkpt>
      <trkpt lat="48.73061" lon="-0.18383">
        <ele>218</ele>
        <time>2010-08-29T07:35:32Z</time>
      </trkpt>
      <trkpt lat="48.73056" lon="-0.18385">
        <ele>216.6</ele>
        <time>2010-08-29T07:35:37Z</time>
      </trkpt>
      <trkpt lat="48.73053" lon="-0.18388">
        <ele>216.6</ele>
        <time>2010-08-29T07:35:38Z</time>
      </trkpt>
      <trkpt lat="48.73039" lon="-0.18389">
        <ele>217.3</ele>
        <time>2010-08-29T07:35:47Z</time>
      </trkpt>
      <trkpt lat="48.73037" lon="-0.18388">
        <ele>216.3</ele>
        <time>2010-08-29T07:35:52Z</time>
      </trkpt>
      <trkpt lat="48.73027" lon="-0.18398">
        <ele>215</ele>
        <time>2010-08-29T07:35:57Z</time>
      </trkpt>
      <trkpt lat="48.73012" lon="-0.18404">
        <ele>212.3</ele>
        <time>2010-08-29T07:36:02Z</time>
      </trkpt>
      <trkpt lat="48.72997" lon="-0.1841">
        <ele>210.6</ele>
        <time>2010-08-29T07:36:07Z</time>
      </trkpt>
      <trkpt lat="48.7299" lon="-0.18413">
        <ele>208.6</ele>
        <time>2010-08-29T07:36:12Z</time>
      </trkpt>
      <trkpt lat="48.72979" lon="-0.18416">
        <ele>202.8</ele>
        <time>2010-08-29T07:36:17Z</time>
      </trkpt>
      <trkpt lat="48.7297" lon="-0.18419">
        <ele>203</ele>
        <time>2010-08-29T07:36:22Z</time>
      </trkpt>
      <trkpt lat="48.72961" lon="-0.18422">
        <ele>202.3</ele>
        <time>2010-08-29T07:36:27Z</time>
      </trkpt>
      <trkpt lat="48.72958" lon="-0.1842">
        <ele>202</ele>
        <time>2010-08-29T07:36:31Z</time>
      </trkpt>
      <trkpt lat="48.72957" lon="-0.18425">
        <ele>201.6</ele>
        <time>2010-08-29T07:36:35Z</time>
      </trkpt>
      <trkpt lat="48.72953" lon="-0.18431">
        <ele>199</ele>
        <time>2010-08-29T07:36:40Z</time>
      </trkpt>
      <trkpt lat="48.72952" lon="-0.18431">
        <ele>198.6</ele>
        <time>2010-08-29T07:36:41Z</time>
      </trkpt>
      <trkpt lat="48.72951" lon="-0.18437">
        <ele>196.3</ele>
        <time>2010-08-29T07:36:50Z</time>
      </trkpt>
      <trkpt lat="48.72945" lon="-0.1844">
        <ele>196.8</ele>
        <time>2010-08-29T07:36:55Z</time>
      </trkpt>
      <trkpt lat="48.72942" lon="-0.18445">
        <ele>196.1</ele>
        <time>2010-08-29T07:37:00Z</time>
      </trkpt>
      <trkpt lat="48.72942" lon="-0.18443">
        <ele>197.1</ele>
        <time>2010-08-29T07:37:05Z</time>
      </trkpt>
      <trkpt lat="48.72942" lon="-0.18443">
        <ele>197.8</ele>
        <time>2010-08-29T07:37:10Z</time>
      </trkpt>
      <trkpt lat="48.72939" lon="-0.18449">
        <ele>198.5</ele>
        <time>2010-08-29T07:37:15Z</time>
      </trkpt>
      <trkpt lat="48.72937" lon="-0.18457">
        <ele>198.6</ele>
        <time>2010-08-29T07:37:20Z</time>
      </trkpt>
      <trkpt lat="48.72932" lon="-0.18459">
        <ele>199.3</ele>
        <time>2010-08-29T07:37:25Z</time>
      </trkpt>
      <trkpt lat="48.72921" lon="-0.18468">
        <ele>201.1</ele>
        <time>2010-08-29T07:37:30Z</time>
      </trkpt>
      <trkpt lat="48.7291" lon="-0.1847">
        <ele>201.6</ele>
        <time>2010-08-29T07:37:34Z</time>
      </trkpt>
      <trkpt lat="48.72907" lon="-0.1847">
        <ele>201.6</ele>
        <time>2010-08-29T07:37:39Z</time>
      </trkpt>
      <trkpt lat="48.72904" lon="-0.1847">
        <ele>202</ele>
        <time>2010-08-29T07:37:44Z</time>
      </trkpt>
      <trkpt lat="48.72904" lon="-0.1847">
        <ele>202</ele>
        <time>2010-08-29T07:37:45Z</time>
      </trkpt>
      <trkpt lat="48.72896" lon="-0.18461">
        <ele>203.6</ele>
        <time>2010-08-29T07:37:54Z</time>
      </trkpt>
      <trkpt lat="48.72889" lon="-0.18452">
        <ele>203</ele>
        <time>2010-08-29T07:37:59Z</time>
      </trkpt>
      <trkpt lat="48.72883" lon="-0.18445">
        <ele>204.5</ele>
        <time>2010-08-29T07:38:04Z</time>
      </trkpt>
      <trkpt lat="48.72878" lon="-0.18439">
        <ele>205</ele>
        <time>2010-08-29T07:38:09Z</time>
      </trkpt>
      <trkpt lat="48.72871" lon="-0.18437">
        <ele>206</ele>
        <time>2010-08-29T07:38:14Z</time>
      </trkpt>
      <trkpt lat="48.72866" lon="-0.18431">
        <ele>206.6</ele>
        <time>2010-08-29T07:38:19Z</time>
      </trkpt>
      <trkpt lat="48.7286" lon="-0.18425">
        <ele>206.1</ele>
        <time>2010-08-29T07:38:24Z</time>
      </trkpt>
      <trkpt lat="48.72859" lon="-0.18422">
        <ele>206</ele>
        <time>2010-08-29T07:38:29Z</time>
      </trkpt>
      <trkpt lat="48.72851" lon="-0.18422">
        <ele>207.1</ele>
        <time>2010-08-29T07:38:33Z</time>
      </trkpt>
      <trkpt lat="48.72843" lon="-0.18416">
        <ele>208</ele>
        <time>2010-08-29T07:38:38Z</time>
      </trkpt>
      <trkpt lat="48.72842" lon="-0.18416">
        <ele>208.3</ele>
        <time>2010-08-29T07:38:43Z</time>
      </trkpt>
      <trkpt lat="48.72834" lon="-0.18417">
        <ele>206.8</ele>
        <time>2010-08-29T07:38:48Z</time>
      </trkpt>
      <trkpt lat="48.72833" lon="-0.18418">
        <ele>207</ele>
        <time>2010-08-29T07:38:49Z</time>
      </trkpt>
      <trkpt lat="48.72818" lon="-0.18413">
        <ele>207.3</ele>
        <time>2010-08-29T07:38:58Z</time>
      </trkpt>
      <trkpt lat="48.72815" lon="-0.1841">
        <ele>207.5</ele>
        <time>2010-08-29T07:39:03Z</time>
      </trkpt>
      <trkpt lat="48.72809" lon="-0.18411">
        <ele>206.6</ele>
        <time>2010-08-29T07:39:08Z</time>
      </trkpt>
      <trkpt lat="48.72807" lon="-0.1841">
        <ele>207.1</ele>
        <time>2010-08-29T07:39:13Z</time>
      </trkpt>
      <trkpt lat="48.72804" lon="-0.18402">
        <ele>209.5</ele>
        <time>2010-08-29T07:39:18Z</time>
      </trkpt>
      <trkpt lat="48.72803" lon="-0.18402">
        <ele>209.6</ele>
        <time>2010-08-29T07:39:23Z</time>
      </trkpt>
      <trkpt lat="48.72801" lon="-0.184">
        <ele>207.8</ele>
        <time>2010-08-29T07:39:28Z</time>
      </trkpt>
      <trkpt lat="48.72801" lon="-0.184">
        <ele>208.1</ele>
        <time>2010-08-29T07:39:32Z</time>
      </trkpt>
      <trkpt lat="48.72797" lon="-0.18401">
        <ele>208.3</ele>
        <time>2010-08-29T07:39:37Z</time>
      </trkpt>
      <trkpt lat="48.72784" lon="-0.18398">
        <ele>206.6</ele>
        <time>2010-08-29T07:39:42Z</time>
      </trkpt>
      <trkpt lat="48.72775" lon="-0.18393">
        <ele>207.1</ele>
        <time>2010-08-29T07:39:47Z</time>
      </trkpt>
      <trkpt lat="48.72765" lon="-0.18394">
        <ele>206.8</ele>
        <time>2010-08-29T07:39:52Z</time>
      </trkpt>
      <trkpt lat="48.72764" lon="-0.18396">
        <ele>207.1</ele>
        <time>2010-08-29T07:39:53Z</time>
      </trkpt>
      <trkpt lat="48.72749" lon="-0.18401">
        <ele>205.6</ele>
        <time>2010-08-29T07:40:02Z</time>
      </trkpt>
      <trkpt lat="48.72741" lon="-0.184">
        <ele>206.6</ele>
        <time>2010-08-29T07:40:07Z</time>
      </trkpt>
      <trkpt lat="48.7273" lon="-0.18399">
        <ele>206.8</ele>
        <time>2010-08-29T07:40:12Z</time>
      </trkpt>
      <trkpt lat="48.72719" lon="-0.18393">
        <ele>208.1</ele>
        <time>2010-08-29T07:40:17Z</time>
      </trkpt>
      <trkpt lat="48.7271" lon="-0.1839">
        <ele>206.6</ele>
        <time>2010-08-29T07:40:22Z</time>
      </trkpt>
      <trkpt lat="48.72707" lon="-0.18388">
        <ele>207</ele>
        <time>2010-08-29T07:40:27Z</time>
      </trkpt>
      <trkpt lat="48.72706" lon="-0.18387">
        <ele>206.3</ele>
        <time>2010-08-29T07:40:31Z</time>
      </trkpt>
      <trkpt lat="48.72706" lon="-0.18386">
        <ele>205.8</ele>
        <time>2010-08-29T07:40:35Z</time>
      </trkpt>
      <trkpt lat="48.72699" lon="-0.18384">
        <ele>203.3</ele>
        <time>2010-08-29T07:40:40Z</time>
      </trkpt>
      <trkpt lat="48.72689" lon="-0.1838">
        <ele>203</ele>
        <time>2010-08-29T07:40:45Z</time>
      </trkpt>
      <trkpt lat="48.72682" lon="-0.18378">
        <ele>203</ele>
        <time>2010-08-29T07:40:50Z</time>
      </trkpt>
      <trkpt lat="48.72681" lon="-0.18378">
        <ele>203</ele>
        <time>2010-08-29T07:40:55Z</time>
      </trkpt>
      <trkpt lat="48.7268" lon="-0.18378">
        <ele>202.8</ele>
        <time>2010-08-29T07:40:56Z</time>
      </trkpt>
      <trkpt lat="48.72674" lon="-0.18375">
        <ele>202.8</ele>
        <time>2010-08-29T07:41:05Z</time>
      </trkpt>
      <trkpt lat="48.72674" lon="-0.18375">
        <ele>202.8</ele>
        <time>2010-08-29T07:41:10Z</time>
      </trkpt>
      <trkpt lat="48.72665" lon="-0.18377">
        <ele>204</ele>
        <time>2010-08-29T07:41:15Z</time>
      </trkpt>
      <trkpt lat="48.72653" lon="-0.18366">
        <ele>204.6</ele>
        <time>2010-08-29T07:41:20Z</time>
      </trkpt>
      <trkpt lat="48.72653" lon="-0.18365">
        <ele>204.6</ele>
        <time>2010-08-29T07:41:25Z</time>
      </trkpt>
      <trkpt lat="48.7264" lon="-0.18358">
        <ele>202.8</ele>
        <time>2010-08-29T07:41:30Z</time>
      </trkpt>
      <trkpt lat="48.72631" lon="-0.18354">
        <ele>202.8</ele>
        <time>2010-08-29T07:41:34Z</time>
      </trkpt>
      <trkpt lat="48.72626" lon="-0.18351">
        <ele>202.3</ele>
        <time>2010-08-29T07:41:39Z</time>
      </trkpt>
      <trkpt lat="48.72625" lon="-0.18352">
        <ele>201.6</ele>
        <time>2010-08-29T07:41:44Z</time>
      </trkpt>
      <trkpt lat="48.72615" lon="-0.18342">
        <ele>203.3</ele>
        <time>2010-08-29T07:41:49Z</time>
      </trkpt>
      <trkpt lat="48.7261" lon="-0.18338">
        <ele>203.3</ele>
        <time>2010-08-29T07:41:54Z</time>
      </trkpt>
      <trkpt lat="48.72606" lon="-0.18335">
        <ele>203.6</ele>
        <time>2010-08-29T07:41:59Z</time>
      </trkpt>
      <trkpt lat="48.72607" lon="-0.18335">
        <ele>203.5</ele>
        <time>2010-08-29T07:42:00Z</time>
      </trkpt>
      <trkpt lat="48.72593" lon="-0.1832">
        <ele>204.8</ele>
        <time>2010-08-29T07:42:09Z</time>
      </trkpt>
      <trkpt lat="48.72586" lon="-0.18314">
        <ele>205.1</ele>
        <time>2010-08-29T07:42:14Z</time>
      </trkpt>
      <trkpt lat="48.72576" lon="-0.18308">
        <ele>206.1</ele>
        <time>2010-08-29T07:42:19Z</time>
      </trkpt>
      <trkpt lat="48.72566" lon="-0.18307">
        <ele>205.8</ele>
        <time>2010-08-29T07:42:24Z</time>
      </trkpt>
      <trkpt lat="48.72554" lon="-0.18295">
        <ele>206.3</ele>
        <time>2010-08-29T07:42:29Z</time>
      </trkpt>
      <trkpt lat="48.7255" lon="-0.18284">
        <ele>207.3</ele>
        <time>2010-08-29T07:42:33Z</time>
      </trkpt>
      <trkpt lat="48.72539" lon="-0.18273">
        <ele>205.6</ele>
        <time>2010-08-29T07:42:38Z</time>
      </trkpt>
      <trkpt lat="48.72529" lon="-0.18264">
        <ele>207</ele>
        <time>2010-08-29T07:42:43Z</time>
      </trkpt>
      <trkpt lat="48.72519" lon="-0.18255">
        <ele>204.1</ele>
        <time>2010-08-29T07:42:48Z</time>
      </trkpt>
      <trkpt lat="48.72512" lon="-0.18247">
        <ele>205.3</ele>
        <time>2010-08-29T07:42:53Z</time>
      </trkpt>
      <trkpt lat="48.72508" lon="-0.1824">
        <ele>204.8</ele>
        <time>2010-08-29T07:42:58Z</time>
      </trkpt>
      <trkpt lat="48.72504" lon="-0.1823">
        <ele>206.3</ele>
        <time>2010-08-29T07:43:03Z</time>
      </trkpt>
      <trkpt lat="48.72504" lon="-0.18229">
        <ele>206.5</ele>
        <time>2010-08-29T07:43:04Z</time>
      </trkpt>
      <trkpt lat="48.72497" lon="-0.18217">
        <ele>206.6</ele>
        <time>2010-08-29T07:43:13Z</time>
      </trkpt>
      <trkpt lat="48.72497" lon="-0.18214">
        <ele>206.8</ele>
        <time>2010-08-29T07:43:18Z</time>
      </trkpt>
      <trkpt lat="48.72494" lon="-0.18212">
        <ele>206.6</ele>
        <time>2010-08-29T07:43:23Z</time>
      </trkpt>
      <trkpt lat="48.72493" lon="-0.18209">
        <ele>206.8</ele>
        <time>2010-08-29T07:43:28Z</time>
      </trkpt>
      <trkpt lat="48.72491" lon="-0.18209">
        <ele>205.8</ele>
        <time>2010-08-29T07:43:32Z</time>
      </trkpt>
      <trkpt lat="48.72488" lon="-0.18203">
        <ele>203.8</ele>
        <time>2010-08-29T07:43:37Z</time>
      </trkpt>
      <trkpt lat="48.7248" lon="-0.18194">
        <ele>204.6</ele>
        <time>2010-08-29T07:43:42Z</time>
      </trkpt>
      <trkpt lat="48.72476" lon="-0.18182">
        <ele>205.3</ele>
        <time>2010-08-29T07:43:47Z</time>
      </trkpt>
      <trkpt lat="48.72473" lon="-0.18175">
        <ele>205.8</ele>
        <time>2010-08-29T07:43:52Z</time>
      </trkpt>
      <trkpt lat="48.72471" lon="-0.18174">
        <ele>206</ele>
        <time>2010-08-29T07:43:57Z</time>
      </trkpt>
      <trkpt lat="48.72463" lon="-0.18163">
        <ele>205.8</ele>
        <time>2010-08-29T07:44:02Z</time>
      </trkpt>
      <trkpt lat="48.72456" lon="-0.1816">
        <ele>203.8</ele>
        <time>2010-08-29T07:44:07Z</time>
      </trkpt>
      <trkpt lat="48.72454" lon="-0.18157">
        <ele>203.6</ele>
        <time>2010-08-29T07:44:08Z</time>
      </trkpt>
      <trkpt lat="48.72431" lon="-0.18129">
        <ele>203.8</ele>
        <time>2010-08-29T07:44:17Z</time>
      </trkpt>
      <trkpt lat="48.72426" lon="-0.18123">
        <ele>204.5</ele>
        <time>2010-08-29T07:44:22Z</time>
      </trkpt>
      <trkpt lat="48.7242" lon="-0.1812">
        <ele>202</ele>
        <time>2010-08-29T07:44:27Z</time>
      </trkpt>
      <trkpt lat="48.72415" lon="-0.18113">
        <ele>203.8</ele>
        <time>2010-08-29T07:44:31Z</time>
      </trkpt>
      <trkpt lat="48.72409" lon="-0.18107">
        <ele>203.5</ele>
        <time>2010-08-29T07:44:35Z</time>
      </trkpt>
      <trkpt lat="48.72401" lon="-0.18098">
        <ele>203.1</ele>
        <time>2010-08-29T07:44:40Z</time>
      </trkpt>
      <trkpt lat="48.72398" lon="-0.18094">
        <ele>203.1</ele>
        <time>2010-08-29T07:44:45Z</time>
      </trkpt>
      <trkpt lat="48.72392" lon="-0.18091">
        <ele>199</ele>
        <time>2010-08-29T07:44:50Z</time>
      </trkpt>
      <trkpt lat="48.72387" lon="-0.18086">
        <ele>196.6</ele>
        <time>2010-08-29T07:44:55Z</time>
      </trkpt>
      <trkpt lat="48.72382" lon="-0.18076">
        <ele>198.8</ele>
        <time>2010-08-29T07:45:00Z</time>
      </trkpt>
      <trkpt lat="48.72374" lon="-0.18068">
        <ele>197.6</ele>
        <time>2010-08-29T07:45:05Z</time>
      </trkpt>
      <trkpt lat="48.72366" lon="-0.18062">
        <ele>194.6</ele>
        <time>2010-08-29T07:45:10Z</time>
      </trkpt>
      <trkpt lat="48.72365" lon="-0.1806">
        <ele>195.1</ele>
        <time>2010-08-29T07:45:11Z</time>
      </trkpt>
      <trkpt lat="48.72352" lon="-0.18049">
        <ele>192</ele>
        <time>2010-08-29T07:45:20Z</time>
      </trkpt>
      <trkpt lat="48.72345" lon="-0.18049">
        <ele>193</ele>
        <time>2010-08-29T07:45:25Z</time>
      </trkpt>
      <trkpt lat="48.72339" lon="-0.18051">
        <ele>192.1</ele>
        <time>2010-08-29T07:45:30Z</time>
      </trkpt>
      <trkpt lat="48.72334" lon="-0.18055">
        <ele>191.1</ele>
        <time>2010-08-29T07:45:34Z</time>
      </trkpt>
      <trkpt lat="48.72329" lon="-0.1806">
        <ele>188.5</ele>
        <time>2010-08-29T07:45:39Z</time>
      </trkpt>
      <trkpt lat="48.72322" lon="-0.18069">
        <ele>188.3</ele>
        <time>2010-08-29T07:45:44Z</time>
      </trkpt>
      <trkpt lat="48.72316" lon="-0.18076">
        <ele>188.8</ele>
        <time>2010-08-29T07:45:49Z</time>
      </trkpt>
      <trkpt lat="48.7231" lon="-0.18085">
        <ele>188.6</ele>
        <time>2010-08-29T07:45:54Z</time>
      </trkpt>
      <trkpt lat="48.72304" lon="-0.18094">
        <ele>189.1</ele>
        <time>2010-08-29T07:45:59Z</time>
      </trkpt>
      <trkpt lat="48.723" lon="-0.18105">
        <ele>188.8</ele>
        <time>2010-08-29T07:46:04Z</time>
      </trkpt>
      <trkpt lat="48.72297" lon="-0.18114">
        <ele>189.3</ele>
        <time>2010-08-29T07:46:09Z</time>
      </trkpt>
      <trkpt lat="48.72292" lon="-0.18122">
        <ele>190.3</ele>
        <time>2010-08-29T07:46:14Z</time>
      </trkpt>
      <trkpt lat="48.72291" lon="-0.18124">
        <ele>190.3</ele>
        <time>2010-08-29T07:46:15Z</time>
      </trkpt>
      <trkpt lat="48.72282" lon="-0.1814">
        <ele>189.3</ele>
        <time>2010-08-29T07:46:24Z</time>
      </trkpt>
      <trkpt lat="48.72279" lon="-0.18149">
        <ele>187.6</ele>
        <time>2010-08-29T07:46:29Z</time>
      </trkpt>
      <trkpt lat="48.72275" lon="-0.18155">
        <ele>187.8</ele>
        <time>2010-08-29T07:46:33Z</time>
      </trkpt>
      <trkpt lat="48.72271" lon="-0.18163">
        <ele>187.5</ele>
        <time>2010-08-29T07:46:38Z</time>
      </trkpt>
      <trkpt lat="48.72267" lon="-0.18173">
        <ele>188.6</ele>
        <time>2010-08-29T07:46:43Z</time>
      </trkpt>
      <trkpt lat="48.72261" lon="-0.1818">
        <ele>189.5</ele>
        <time>2010-08-29T07:46:48Z</time>
      </trkpt>
      <trkpt lat="48.72258" lon="-0.18188">
        <ele>189.1</ele>
        <time>2010-08-29T07:46:53Z</time>
      </trkpt>
      <trkpt lat="48.72251" lon="-0.18194">
        <ele>189.3</ele>
        <time>2010-08-29T07:46:58Z</time>
      </trkpt>
      <trkpt lat="48.72246" lon="-0.18203">
        <ele>189.3</ele>
        <time>2010-08-29T07:47:03Z</time>
      </trkpt>
      <trkpt lat="48.72244" lon="-0.18209">
        <ele>187.8</ele>
        <time>2010-08-29T07:47:08Z</time>
      </trkpt>
      <trkpt lat="48.72243" lon="-0.18214">
        <ele>187.8</ele>
        <time>2010-08-29T07:47:13Z</time>
      </trkpt>
      <trkpt lat="48.72241" lon="-0.18222">
        <ele>187.5</ele>
        <time>2010-08-29T07:47:18Z</time>
      </trkpt>
      <trkpt lat="48.72241" lon="-0.18224">
        <ele>187.3</ele>
        <time>2010-08-29T07:47:19Z</time>
      </trkpt>
      <trkpt lat="48.7223" lon="-0.1824">
        <ele>187.3</ele>
        <time>2010-08-29T07:47:28Z</time>
      </trkpt>
      <trkpt lat="48.72229" lon="-0.18244">
        <ele>187</ele>
        <time>2010-08-29T07:47:32Z</time>
      </trkpt>
      <trkpt lat="48.72225" lon="-0.18252">
        <ele>187.5</ele>
        <time>2010-08-29T07:47:37Z</time>
      </trkpt>
      <trkpt lat="48.72223" lon="-0.18261">
        <ele>187.5</ele>
        <time>2010-08-29T07:47:42Z</time>
      </trkpt>
      <trkpt lat="48.72215" lon="-0.1827">
        <ele>187.6</ele>
        <time>2010-08-29T07:47:47Z</time>
      </trkpt>
      <trkpt lat="48.72217" lon="-0.18278">
        <ele>188</ele>
        <time>2010-08-29T07:47:52Z</time>
      </trkpt>
      <trkpt lat="48.72215" lon="-0.1828">
        <ele>188.1</ele>
        <time>2010-08-29T07:47:57Z</time>
      </trkpt>
      <trkpt lat="48.7221" lon="-0.18285">
        <ele>188.3</ele>
        <time>2010-08-29T07:48:02Z</time>
      </trkpt>
      <trkpt lat="48.72201" lon="-0.18293">
        <ele>188.6</ele>
        <time>2010-08-29T07:48:07Z</time>
      </trkpt>
      <trkpt lat="48.72195" lon="-0.18302">
        <ele>189.5</ele>
        <time>2010-08-29T07:48:12Z</time>
      </trkpt>
      <trkpt lat="48.72186" lon="-0.18308">
        <ele>189.6</ele>
        <time>2010-08-29T07:48:17Z</time>
      </trkpt>
      <trkpt lat="48.72179" lon="-0.18312">
        <ele>189.6</ele>
        <time>2010-08-29T07:48:22Z</time>
      </trkpt>
      <trkpt lat="48.72178" lon="-0.18314">
        <ele>189.6</ele>
        <time>2010-08-29T07:48:23Z</time>
      </trkpt>
      <trkpt lat="48.72172" lon="-0.1832">
        <ele>188.3</ele>
        <time>2010-08-29T07:48:31Z</time>
      </trkpt>
      <trkpt lat="48.72165" lon="-0.18325">
        <ele>188.5</ele>
        <time>2010-08-29T07:48:35Z</time>
      </trkpt>
      <trkpt lat="48.72147" lon="-0.18338">
        <ele>188</ele>
        <time>2010-08-29T07:48:40Z</time>
      </trkpt>
      <trkpt lat="48.72147" lon="-0.18339">
        <ele>188.1</ele>
        <time>2010-08-29T07:48:45Z</time>
      </trkpt>
      <trkpt lat="48.72146" lon="-0.18344">
        <ele>187.8</ele>
        <time>2010-08-29T07:48:50Z</time>
      </trkpt>
      <trkpt lat="48.72142" lon="-0.18348">
        <ele>187.6</ele>
        <time>2010-08-29T07:48:55Z</time>
      </trkpt>
      <trkpt lat="48.72123" lon="-0.18359">
        <ele>188.1</ele>
        <time>2010-08-29T07:49:00Z</time>
      </trkpt>
      <trkpt lat="48.72112" lon="-0.18367">
        <ele>187</ele>
        <time>2010-08-29T07:49:05Z</time>
      </trkpt>
      <trkpt lat="48.72108" lon="-0.18371">
        <ele>187.1</ele>
        <time>2010-08-29T07:49:10Z</time>
      </trkpt>
      <trkpt lat="48.72107" lon="-0.18378">
        <ele>186.3</ele>
        <time>2010-08-29T07:49:15Z</time>
      </trkpt>
      <trkpt lat="48.72105" lon="-0.18384">
        <ele>186.1</ele>
        <time>2010-08-29T07:49:20Z</time>
      </trkpt>
      <trkpt lat="48.72097" lon="-0.18392">
        <ele>184.3</ele>
        <time>2010-08-29T07:49:25Z</time>
      </trkpt>
      <trkpt lat="48.72096" lon="-0.18394">
        <ele>183.8</ele>
        <time>2010-08-29T07:49:26Z</time>
      </trkpt>
      <trkpt lat="48.72089" lon="-0.18407">
        <ele>182.8</ele>
        <time>2010-08-29T07:49:34Z</time>
      </trkpt>
      <trkpt lat="48.72083" lon="-0.1841">
        <ele>183.1</ele>
        <time>2010-08-29T07:49:39Z</time>
      </trkpt>
      <trkpt lat="48.72078" lon="-0.18417">
        <ele>182.8</ele>
        <time>2010-08-29T07:49:44Z</time>
      </trkpt>
      <trkpt lat="48.72074" lon="-0.18423">
        <ele>183.1</ele>
        <time>2010-08-29T07:49:49Z</time>
      </trkpt>
      <trkpt lat="48.7207" lon="-0.18427">
        <ele>182.6</ele>
        <time>2010-08-29T07:49:54Z</time>
      </trkpt>
      <trkpt lat="48.72067" lon="-0.18428">
        <ele>182.8</ele>
        <time>2010-08-29T07:49:59Z</time>
      </trkpt>
      <trkpt lat="48.72064" lon="-0.18425">
        <ele>182.3</ele>
        <time>2010-08-29T07:50:04Z</time>
      </trkpt>
      <trkpt lat="48.72052" lon="-0.18417">
        <ele>182.8</ele>
        <time>2010-08-29T07:50:09Z</time>
      </trkpt>
      <trkpt lat="48.72047" lon="-0.18413">
        <ele>184.5</ele>
        <time>2010-08-29T07:50:14Z</time>
      </trkpt>
      <trkpt lat="48.72045" lon="-0.18412">
        <ele>184.3</ele>
        <time>2010-08-29T07:50:19Z</time>
      </trkpt>
      <trkpt lat="48.72038" lon="-0.18408">
        <ele>186</ele>
        <time>2010-08-29T07:50:24Z</time>
      </trkpt>
      <trkpt lat="48.72028" lon="-0.18405">
        <ele>185.3</ele>
        <time>2010-08-29T07:50:29Z</time>
      </trkpt>
      <trkpt lat="48.72026" lon="-0.18404">
        <ele>185.5</ele>
        <time>2010-08-29T07:50:30Z</time>
      </trkpt>
      <trkpt lat="48.72015" lon="-0.18392">
        <ele>187</ele>
        <time>2010-08-29T07:50:38Z</time>
      </trkpt>
      <trkpt lat="48.72008" lon="-0.18383">
        <ele>187.8</ele>
        <time>2010-08-29T07:50:43Z</time>
      </trkpt>
      <trkpt lat="48.72" lon="-0.18375">
        <ele>187.8</ele>
        <time>2010-08-29T07:50:48Z</time>
      </trkpt>
      <trkpt lat="48.71995" lon="-0.18371">
        <ele>186.6</ele>
        <time>2010-08-29T07:50:53Z</time>
      </trkpt>
      <trkpt lat="48.71991" lon="-0.18372">
        <ele>183.5</ele>
        <time>2010-08-29T07:50:58Z</time>
      </trkpt>
      <trkpt lat="48.71984" lon="-0.18374">
        <ele>184.1</ele>
        <time>2010-08-29T07:51:03Z</time>
      </trkpt>
      <trkpt lat="48.7198" lon="-0.18376">
        <ele>184.5</ele>
        <time>2010-08-29T07:51:08Z</time>
      </trkpt>
      <trkpt lat="48.7198" lon="-0.18376">
        <ele>184.5</ele>
        <time>2010-08-29T07:51:13Z</time>
      </trkpt>
      <trkpt lat="48.7198" lon="-0.18376">
        <ele>185.1</ele>
        <time>2010-08-29T07:51:18Z</time>
      </trkpt>
      <trkpt lat="48.7198" lon="-0.18376">
        <ele>185.1</ele>
        <time>2010-08-29T07:51:23Z</time>
      </trkpt>
      <trkpt lat="48.7198" lon="-0.18376">
        <ele>185.1</ele>
        <time>2010-08-29T07:51:28Z</time>
      </trkpt>
      <trkpt lat="48.7198" lon="-0.18376">
        <ele>185.1</ele>
        <time>2010-08-29T07:51:32Z</time>
      </trkpt>
      <trkpt lat="48.7198" lon="-0.18376">
        <ele>185.1</ele>
        <time>2010-08-29T07:51:33Z</time>
      </trkpt>
    </trkseg>
  </trk>
</gpx>